<?xml version="1.0" encoding="UTF-8" standalone="no" ?>
<gpx xmlns="http://www.topografix.com/GPX/1/1" xmlns:xsi="http://www.w3.org/2001/XMLSchema-instance" xsi:schemaLocation="http://www.topografix.com/GPX/1/1 http://www.topografix.com/GPX/1/1/gpx.xsd" version="1.1" creator="VisuGPX - https://www.visugpx.com">
  <metadata>
    <name>St Julien Mont Denis - Col de la cochette</name>
    <desc><![CDATA[Sortie VTT]]></desc>
  </metadata>
  <trk>
    <name><![CDATA[12-10-06-Maurienne col de la cochette]]></name>
    <trkseg>
      <trkpt lat="45.25816" lon="6.4024">
        <ele>707.6</ele>
        <time>2012-10-06T06:44:42Z</time>
      </trkpt>
      <trkpt lat="45.2581" lon="6.4024">
        <ele>706.3</ele>
        <time>2012-10-06T06:44:43Z</time>
      </trkpt>
      <trkpt lat="45.25805" lon="6.40239">
        <ele>705.4</ele>
        <time>2012-10-06T06:44:44Z</time>
      </trkpt>
      <trkpt lat="45.25799" lon="6.40238">
        <ele>704.7</ele>
        <time>2012-10-06T06:44:45Z</time>
      </trkpt>
      <trkpt lat="45.25792" lon="6.40237">
        <ele>706.1</ele>
        <time>2012-10-06T06:44:46Z</time>
      </trkpt>
      <trkpt lat="45.25785" lon="6.40237">
        <ele>707.2</ele>
        <time>2012-10-06T06:44:47Z</time>
      </trkpt>
      <trkpt lat="45.25777" lon="6.40237">
        <ele>706.9</ele>
        <time>2012-10-06T06:44:48Z</time>
      </trkpt>
      <trkpt lat="45.2577" lon="6.40237">
        <ele>706.6</ele>
        <time>2012-10-06T06:44:49Z</time>
      </trkpt>
      <trkpt lat="45.25762" lon="6.40236">
        <ele>706.4</ele>
        <time>2012-10-06T06:44:50Z</time>
      </trkpt>
      <trkpt lat="45.25754" lon="6.40235">
        <ele>706</ele>
        <time>2012-10-06T06:44:51Z</time>
      </trkpt>
      <trkpt lat="45.25747" lon="6.40235">
        <ele>705.6</ele>
        <time>2012-10-06T06:44:52Z</time>
      </trkpt>
      <trkpt lat="45.25739" lon="6.40234">
        <ele>704.6</ele>
        <time>2012-10-06T06:44:54Z</time>
      </trkpt>
      <trkpt lat="45.25731" lon="6.40234">
        <ele>701</ele>
        <time>2012-10-06T06:45:03Z</time>
      </trkpt>
      <trkpt lat="45.25727" lon="6.40245">
        <ele>701.2</ele>
        <time>2012-10-06T06:45:07Z</time>
      </trkpt>
      <trkpt lat="45.25726" lon="6.40255">
        <ele>701.3</ele>
        <time>2012-10-06T06:45:09Z</time>
      </trkpt>
      <trkpt lat="45.25725" lon="6.40267">
        <ele>701</ele>
        <time>2012-10-06T06:45:11Z</time>
      </trkpt>
      <trkpt lat="45.25724" lon="6.40279">
        <ele>701.3</ele>
        <time>2012-10-06T06:45:13Z</time>
      </trkpt>
      <trkpt lat="45.25724" lon="6.40285">
        <ele>700.8</ele>
        <time>2012-10-06T06:45:14Z</time>
      </trkpt>
      <trkpt lat="45.25723" lon="6.40292">
        <ele>700.5</ele>
        <time>2012-10-06T06:45:15Z</time>
      </trkpt>
      <trkpt lat="45.25722" lon="6.40298">
        <ele>700.2</ele>
        <time>2012-10-06T06:45:16Z</time>
      </trkpt>
      <trkpt lat="45.25722" lon="6.40305">
        <ele>700.6</ele>
        <time>2012-10-06T06:45:17Z</time>
      </trkpt>
      <trkpt lat="45.2572" lon="6.40311">
        <ele>700.8</ele>
        <time>2012-10-06T06:45:18Z</time>
      </trkpt>
      <trkpt lat="45.25719" lon="6.40318">
        <ele>700.7</ele>
        <time>2012-10-06T06:45:19Z</time>
      </trkpt>
      <trkpt lat="45.25717" lon="6.40324">
        <ele>700.6</ele>
        <time>2012-10-06T06:45:20Z</time>
      </trkpt>
      <trkpt lat="45.25715" lon="6.40331">
        <ele>700.3</ele>
        <time>2012-10-06T06:45:21Z</time>
      </trkpt>
      <trkpt lat="45.25713" lon="6.40339">
        <ele>700.1</ele>
        <time>2012-10-06T06:45:22Z</time>
      </trkpt>
      <trkpt lat="45.25711" lon="6.40347">
        <ele>699.9</ele>
        <time>2012-10-06T06:45:23Z</time>
      </trkpt>
      <trkpt lat="45.25709" lon="6.40355">
        <ele>699.6</ele>
        <time>2012-10-06T06:45:24Z</time>
      </trkpt>
      <trkpt lat="45.25707" lon="6.40364">
        <ele>699.4</ele>
        <time>2012-10-06T06:45:25Z</time>
      </trkpt>
      <trkpt lat="45.25705" lon="6.40373">
        <ele>699.2</ele>
        <time>2012-10-06T06:45:26Z</time>
      </trkpt>
      <trkpt lat="45.25702" lon="6.40382">
        <ele>699</ele>
        <time>2012-10-06T06:45:27Z</time>
      </trkpt>
      <trkpt lat="45.25699" lon="6.40391">
        <ele>698.9</ele>
        <time>2012-10-06T06:45:28Z</time>
      </trkpt>
      <trkpt lat="45.25697" lon="6.404">
        <ele>698.2</ele>
        <time>2012-10-06T06:45:29Z</time>
      </trkpt>
      <trkpt lat="45.25695" lon="6.4041">
        <ele>697.6</ele>
        <time>2012-10-06T06:45:30Z</time>
      </trkpt>
      <trkpt lat="45.25694" lon="6.4042">
        <ele>697.5</ele>
        <time>2012-10-06T06:45:31Z</time>
      </trkpt>
      <trkpt lat="45.25694" lon="6.4043">
        <ele>697.4</ele>
        <time>2012-10-06T06:45:32Z</time>
      </trkpt>
      <trkpt lat="45.25694" lon="6.40438">
        <ele>697</ele>
        <time>2012-10-06T06:45:33Z</time>
      </trkpt>
      <trkpt lat="45.25693" lon="6.40446">
        <ele>696.6</ele>
        <time>2012-10-06T06:45:34Z</time>
      </trkpt>
      <trkpt lat="45.25693" lon="6.40457">
        <ele>695.9</ele>
        <time>2012-10-06T06:45:36Z</time>
      </trkpt>
      <trkpt lat="45.25692" lon="6.40468">
        <ele>694.4</ele>
        <time>2012-10-06T06:45:41Z</time>
      </trkpt>
      <trkpt lat="45.25692" lon="6.4048">
        <ele>693.1</ele>
        <time>2012-10-06T06:45:46Z</time>
      </trkpt>
      <trkpt lat="45.25692" lon="6.40484">
        <ele>692.8</ele>
        <time>2012-10-06T06:45:47Z</time>
      </trkpt>
      <trkpt lat="45.25692" lon="6.40495">
        <ele>692.3</ele>
        <time>2012-10-06T06:45:49Z</time>
      </trkpt>
      <trkpt lat="45.25692" lon="6.40502">
        <ele>692.6</ele>
        <time>2012-10-06T06:45:50Z</time>
      </trkpt>
      <trkpt lat="45.25692" lon="6.40508">
        <ele>692.7</ele>
        <time>2012-10-06T06:45:51Z</time>
      </trkpt>
      <trkpt lat="45.25691" lon="6.40515">
        <ele>692.3</ele>
        <time>2012-10-06T06:45:52Z</time>
      </trkpt>
      <trkpt lat="45.25691" lon="6.40522">
        <ele>692.1</ele>
        <time>2012-10-06T06:45:53Z</time>
      </trkpt>
      <trkpt lat="45.25689" lon="6.40529">
        <ele>691.8</ele>
        <time>2012-10-06T06:45:54Z</time>
      </trkpt>
      <trkpt lat="45.25686" lon="6.40535">
        <ele>691.7</ele>
        <time>2012-10-06T06:45:55Z</time>
      </trkpt>
      <trkpt lat="45.25683" lon="6.40541">
        <ele>691.6</ele>
        <time>2012-10-06T06:45:56Z</time>
      </trkpt>
      <trkpt lat="45.2568" lon="6.40547">
        <ele>691.2</ele>
        <time>2012-10-06T06:45:57Z</time>
      </trkpt>
      <trkpt lat="45.25677" lon="6.40553">
        <ele>690.8</ele>
        <time>2012-10-06T06:45:58Z</time>
      </trkpt>
      <trkpt lat="45.25674" lon="6.4056">
        <ele>691.1</ele>
        <time>2012-10-06T06:45:59Z</time>
      </trkpt>
      <trkpt lat="45.25671" lon="6.40567">
        <ele>691.3</ele>
        <time>2012-10-06T06:46:00Z</time>
      </trkpt>
      <trkpt lat="45.25669" lon="6.40575">
        <ele>691.4</ele>
        <time>2012-10-06T06:46:01Z</time>
      </trkpt>
      <trkpt lat="45.25667" lon="6.40584">
        <ele>690.9</ele>
        <time>2012-10-06T06:46:02Z</time>
      </trkpt>
      <trkpt lat="45.25665" lon="6.40593">
        <ele>690.5</ele>
        <time>2012-10-06T06:46:03Z</time>
      </trkpt>
      <trkpt lat="45.25665" lon="6.40602">
        <ele>690</ele>
        <time>2012-10-06T06:46:04Z</time>
      </trkpt>
      <trkpt lat="45.25666" lon="6.40611">
        <ele>689.7</ele>
        <time>2012-10-06T06:46:05Z</time>
      </trkpt>
      <trkpt lat="45.25668" lon="6.40621">
        <ele>689.5</ele>
        <time>2012-10-06T06:46:06Z</time>
      </trkpt>
      <trkpt lat="45.2567" lon="6.40631">
        <ele>689</ele>
        <time>2012-10-06T06:46:07Z</time>
      </trkpt>
      <trkpt lat="45.25672" lon="6.40641">
        <ele>688.6</ele>
        <time>2012-10-06T06:46:08Z</time>
      </trkpt>
      <trkpt lat="45.25672" lon="6.40652">
        <ele>687.8</ele>
        <time>2012-10-06T06:46:09Z</time>
      </trkpt>
      <trkpt lat="45.25672" lon="6.40663">
        <ele>687.2</ele>
        <time>2012-10-06T06:46:10Z</time>
      </trkpt>
      <trkpt lat="45.25672" lon="6.40674">
        <ele>686.5</ele>
        <time>2012-10-06T06:46:11Z</time>
      </trkpt>
      <trkpt lat="45.25672" lon="6.40686">
        <ele>686</ele>
        <time>2012-10-06T06:46:12Z</time>
      </trkpt>
      <trkpt lat="45.25672" lon="6.40697">
        <ele>685.6</ele>
        <time>2012-10-06T06:46:13Z</time>
      </trkpt>
      <trkpt lat="45.25673" lon="6.40707">
        <ele>684.6</ele>
        <time>2012-10-06T06:46:14Z</time>
      </trkpt>
      <trkpt lat="45.25673" lon="6.40717">
        <ele>683.9</ele>
        <time>2012-10-06T06:46:15Z</time>
      </trkpt>
      <trkpt lat="45.25673" lon="6.40727">
        <ele>683.1</ele>
        <time>2012-10-06T06:46:16Z</time>
      </trkpt>
      <trkpt lat="45.25674" lon="6.40736">
        <ele>682.6</ele>
        <time>2012-10-06T06:46:17Z</time>
      </trkpt>
      <trkpt lat="45.25673" lon="6.40745">
        <ele>681.8</ele>
        <time>2012-10-06T06:46:18Z</time>
      </trkpt>
      <trkpt lat="45.25671" lon="6.40753">
        <ele>681.2</ele>
        <time>2012-10-06T06:46:19Z</time>
      </trkpt>
      <trkpt lat="45.25667" lon="6.4076">
        <ele>680.8</ele>
        <time>2012-10-06T06:46:20Z</time>
      </trkpt>
      <trkpt lat="45.25662" lon="6.40764">
        <ele>680.1</ele>
        <time>2012-10-06T06:46:21Z</time>
      </trkpt>
      <trkpt lat="45.25656" lon="6.40766">
        <ele>679.5</ele>
        <time>2012-10-06T06:46:22Z</time>
      </trkpt>
      <trkpt lat="45.25649" lon="6.40767">
        <ele>679.1</ele>
        <time>2012-10-06T06:46:23Z</time>
      </trkpt>
      <trkpt lat="45.25643" lon="6.40768">
        <ele>678.8</ele>
        <time>2012-10-06T06:46:24Z</time>
      </trkpt>
      <trkpt lat="45.25637" lon="6.40769">
        <ele>678.6</ele>
        <time>2012-10-06T06:46:25Z</time>
      </trkpt>
      <trkpt lat="45.25631" lon="6.4077">
        <ele>678.2</ele>
        <time>2012-10-06T06:46:26Z</time>
      </trkpt>
      <trkpt lat="45.25625" lon="6.40771">
        <ele>678</ele>
        <time>2012-10-06T06:46:27Z</time>
      </trkpt>
      <trkpt lat="45.25619" lon="6.40771">
        <ele>677.4</ele>
        <time>2012-10-06T06:46:28Z</time>
      </trkpt>
      <trkpt lat="45.25614" lon="6.40772">
        <ele>677</ele>
        <time>2012-10-06T06:46:29Z</time>
      </trkpt>
      <trkpt lat="45.25608" lon="6.40773">
        <ele>677.2</ele>
        <time>2012-10-06T06:46:30Z</time>
      </trkpt>
      <trkpt lat="45.25603" lon="6.40773">
        <ele>677.3</ele>
        <time>2012-10-06T06:46:31Z</time>
      </trkpt>
      <trkpt lat="45.25597" lon="6.40774">
        <ele>677.4</ele>
        <time>2012-10-06T06:46:32Z</time>
      </trkpt>
      <trkpt lat="45.25592" lon="6.40775">
        <ele>676.5</ele>
        <time>2012-10-06T06:46:33Z</time>
      </trkpt>
      <trkpt lat="45.25586" lon="6.40775">
        <ele>675.9</ele>
        <time>2012-10-06T06:46:34Z</time>
      </trkpt>
      <trkpt lat="45.25581" lon="6.40777">
        <ele>675.7</ele>
        <time>2012-10-06T06:46:35Z</time>
      </trkpt>
      <trkpt lat="45.25577" lon="6.40779">
        <ele>675.6</ele>
        <time>2012-10-06T06:46:36Z</time>
      </trkpt>
      <trkpt lat="45.25573" lon="6.40783">
        <ele>675.2</ele>
        <time>2012-10-06T06:46:37Z</time>
      </trkpt>
      <trkpt lat="45.25569" lon="6.40787">
        <ele>674.9</ele>
        <time>2012-10-06T06:46:38Z</time>
      </trkpt>
      <trkpt lat="45.25566" lon="6.40792">
        <ele>674.7</ele>
        <time>2012-10-06T06:46:39Z</time>
      </trkpt>
      <trkpt lat="45.25562" lon="6.40796">
        <ele>674.7</ele>
        <time>2012-10-06T06:46:40Z</time>
      </trkpt>
      <trkpt lat="45.25558" lon="6.40799">
        <ele>674.8</ele>
        <time>2012-10-06T06:46:41Z</time>
      </trkpt>
      <trkpt lat="45.25553" lon="6.40802">
        <ele>675.1</ele>
        <time>2012-10-06T06:46:42Z</time>
      </trkpt>
      <trkpt lat="45.2555" lon="6.40814">
        <ele>675.7</ele>
        <time>2012-10-06T06:46:44Z</time>
      </trkpt>
      <trkpt lat="45.25551" lon="6.40821">
        <ele>675.9</ele>
        <time>2012-10-06T06:46:45Z</time>
      </trkpt>
      <trkpt lat="45.25551" lon="6.40833">
        <ele>675.9</ele>
        <time>2012-10-06T06:46:47Z</time>
      </trkpt>
      <trkpt lat="45.2555" lon="6.40839">
        <ele>675.8</ele>
        <time>2012-10-06T06:46:48Z</time>
      </trkpt>
      <trkpt lat="45.25546" lon="6.40856">
        <ele>676.5</ele>
        <time>2012-10-06T06:46:51Z</time>
      </trkpt>
      <trkpt lat="45.25543" lon="6.40867">
        <ele>676.4</ele>
        <time>2012-10-06T06:46:53Z</time>
      </trkpt>
      <trkpt lat="45.2554" lon="6.40876">
        <ele>676.6</ele>
        <time>2012-10-06T06:46:55Z</time>
      </trkpt>
      <trkpt lat="45.25537" lon="6.40887">
        <ele>676.7</ele>
        <time>2012-10-06T06:46:57Z</time>
      </trkpt>
      <trkpt lat="45.25534" lon="6.40898">
        <ele>677.2</ele>
        <time>2012-10-06T06:46:59Z</time>
      </trkpt>
      <trkpt lat="45.25532" lon="6.40908">
        <ele>678</ele>
        <time>2012-10-06T06:47:01Z</time>
      </trkpt>
      <trkpt lat="45.2553" lon="6.40917">
        <ele>678.5</ele>
        <time>2012-10-06T06:47:03Z</time>
      </trkpt>
      <trkpt lat="45.25528" lon="6.40929">
        <ele>679.1</ele>
        <time>2012-10-06T06:47:06Z</time>
      </trkpt>
      <trkpt lat="45.25525" lon="6.40939">
        <ele>680</ele>
        <time>2012-10-06T06:47:10Z</time>
      </trkpt>
      <trkpt lat="45.25521" lon="6.40947">
        <ele>680.1</ele>
        <time>2012-10-06T06:47:13Z</time>
      </trkpt>
      <trkpt lat="45.25517" lon="6.40956">
        <ele>680.1</ele>
        <time>2012-10-06T06:47:16Z</time>
      </trkpt>
      <trkpt lat="45.25513" lon="6.40964">
        <ele>680.3</ele>
        <time>2012-10-06T06:47:18Z</time>
      </trkpt>
      <trkpt lat="45.25509" lon="6.40972">
        <ele>680.4</ele>
        <time>2012-10-06T06:47:20Z</time>
      </trkpt>
      <trkpt lat="45.25504" lon="6.4098">
        <ele>680.4</ele>
        <time>2012-10-06T06:47:22Z</time>
      </trkpt>
      <trkpt lat="45.25499" lon="6.40988">
        <ele>681</ele>
        <time>2012-10-06T06:47:24Z</time>
      </trkpt>
      <trkpt lat="45.25494" lon="6.40996">
        <ele>681.2</ele>
        <time>2012-10-06T06:47:26Z</time>
      </trkpt>
      <trkpt lat="45.25489" lon="6.41004">
        <ele>681.4</ele>
        <time>2012-10-06T06:47:28Z</time>
      </trkpt>
      <trkpt lat="45.25485" lon="6.41012">
        <ele>681.5</ele>
        <time>2012-10-06T06:47:30Z</time>
      </trkpt>
      <trkpt lat="45.25481" lon="6.4102">
        <ele>681.6</ele>
        <time>2012-10-06T06:47:32Z</time>
      </trkpt>
      <trkpt lat="45.25477" lon="6.41029">
        <ele>681.8</ele>
        <time>2012-10-06T06:47:34Z</time>
      </trkpt>
      <trkpt lat="45.25474" lon="6.41037">
        <ele>682.1</ele>
        <time>2012-10-06T06:47:36Z</time>
      </trkpt>
      <trkpt lat="45.2547" lon="6.41045">
        <ele>682.2</ele>
        <time>2012-10-06T06:47:38Z</time>
      </trkpt>
      <trkpt lat="45.25467" lon="6.41053">
        <ele>683.1</ele>
        <time>2012-10-06T06:47:40Z</time>
      </trkpt>
      <trkpt lat="45.25464" lon="6.41061">
        <ele>683.7</ele>
        <time>2012-10-06T06:47:42Z</time>
      </trkpt>
      <trkpt lat="45.25461" lon="6.41068">
        <ele>684.5</ele>
        <time>2012-10-06T06:47:44Z</time>
      </trkpt>
      <trkpt lat="45.25457" lon="6.41075">
        <ele>684.9</ele>
        <time>2012-10-06T06:47:46Z</time>
      </trkpt>
      <trkpt lat="45.25454" lon="6.41082">
        <ele>684.8</ele>
        <time>2012-10-06T06:47:48Z</time>
      </trkpt>
      <trkpt lat="45.25452" lon="6.41086">
        <ele>685.2</ele>
        <time>2012-10-06T06:47:49Z</time>
      </trkpt>
      <trkpt lat="45.25445" lon="6.411">
        <ele>686.4</ele>
        <time>2012-10-06T06:47:53Z</time>
      </trkpt>
      <trkpt lat="45.2544" lon="6.41109">
        <ele>687.2</ele>
        <time>2012-10-06T06:47:56Z</time>
      </trkpt>
      <trkpt lat="45.25434" lon="6.41119">
        <ele>687.2</ele>
        <time>2012-10-06T06:47:59Z</time>
      </trkpt>
      <trkpt lat="45.25429" lon="6.41129">
        <ele>687.8</ele>
        <time>2012-10-06T06:48:02Z</time>
      </trkpt>
      <trkpt lat="45.25425" lon="6.41135">
        <ele>688.5</ele>
        <time>2012-10-06T06:48:04Z</time>
      </trkpt>
      <trkpt lat="45.25421" lon="6.41142">
        <ele>688.5</ele>
        <time>2012-10-06T06:48:06Z</time>
      </trkpt>
      <trkpt lat="45.25417" lon="6.41149">
        <ele>688.6</ele>
        <time>2012-10-06T06:48:08Z</time>
      </trkpt>
      <trkpt lat="45.25411" lon="6.41158">
        <ele>689.4</ele>
        <time>2012-10-06T06:48:11Z</time>
      </trkpt>
      <trkpt lat="45.25407" lon="6.41164">
        <ele>690.2</ele>
        <time>2012-10-06T06:48:13Z</time>
      </trkpt>
      <trkpt lat="45.254" lon="6.41173">
        <ele>690.8</ele>
        <time>2012-10-06T06:48:16Z</time>
      </trkpt>
      <trkpt lat="45.25394" lon="6.41182">
        <ele>691.4</ele>
        <time>2012-10-06T06:48:19Z</time>
      </trkpt>
      <trkpt lat="45.25388" lon="6.41189">
        <ele>692</ele>
        <time>2012-10-06T06:48:22Z</time>
      </trkpt>
      <trkpt lat="45.2538" lon="6.41196">
        <ele>692.8</ele>
        <time>2012-10-06T06:48:25Z</time>
      </trkpt>
      <trkpt lat="45.25373" lon="6.41202">
        <ele>693</ele>
        <time>2012-10-06T06:48:28Z</time>
      </trkpt>
      <trkpt lat="45.25368" lon="6.41206">
        <ele>692.9</ele>
        <time>2012-10-06T06:48:30Z</time>
      </trkpt>
      <trkpt lat="45.25362" lon="6.4121">
        <ele>693.9</ele>
        <time>2012-10-06T06:48:32Z</time>
      </trkpt>
      <trkpt lat="45.25356" lon="6.41214">
        <ele>694.3</ele>
        <time>2012-10-06T06:48:34Z</time>
      </trkpt>
      <trkpt lat="45.25351" lon="6.41218">
        <ele>694.5</ele>
        <time>2012-10-06T06:48:36Z</time>
      </trkpt>
      <trkpt lat="45.25345" lon="6.41222">
        <ele>694.9</ele>
        <time>2012-10-06T06:48:38Z</time>
      </trkpt>
      <trkpt lat="45.25339" lon="6.41226">
        <ele>695.2</ele>
        <time>2012-10-06T06:48:40Z</time>
      </trkpt>
      <trkpt lat="45.25333" lon="6.41231">
        <ele>695</ele>
        <time>2012-10-06T06:48:42Z</time>
      </trkpt>
      <trkpt lat="45.25327" lon="6.41236">
        <ele>695.2</ele>
        <time>2012-10-06T06:48:44Z</time>
      </trkpt>
      <trkpt lat="45.25321" lon="6.4124">
        <ele>695.7</ele>
        <time>2012-10-06T06:48:46Z</time>
      </trkpt>
      <trkpt lat="45.25316" lon="6.41246">
        <ele>696.3</ele>
        <time>2012-10-06T06:48:48Z</time>
      </trkpt>
      <trkpt lat="45.2531" lon="6.41251">
        <ele>696.4</ele>
        <time>2012-10-06T06:48:50Z</time>
      </trkpt>
      <trkpt lat="45.25308" lon="6.41254">
        <ele>696.4</ele>
        <time>2012-10-06T06:48:51Z</time>
      </trkpt>
      <trkpt lat="45.25301" lon="6.41263">
        <ele>696.6</ele>
        <time>2012-10-06T06:48:54Z</time>
      </trkpt>
      <trkpt lat="45.25296" lon="6.41269">
        <ele>696.8</ele>
        <time>2012-10-06T06:48:56Z</time>
      </trkpt>
      <trkpt lat="45.25292" lon="6.41274">
        <ele>697.4</ele>
        <time>2012-10-06T06:48:58Z</time>
      </trkpt>
      <trkpt lat="45.25288" lon="6.41281">
        <ele>697.7</ele>
        <time>2012-10-06T06:49:00Z</time>
      </trkpt>
      <trkpt lat="45.25283" lon="6.41287">
        <ele>698</ele>
        <time>2012-10-06T06:49:02Z</time>
      </trkpt>
      <trkpt lat="45.25277" lon="6.41296">
        <ele>697.9</ele>
        <time>2012-10-06T06:49:05Z</time>
      </trkpt>
      <trkpt lat="45.25273" lon="6.41303">
        <ele>698</ele>
        <time>2012-10-06T06:49:07Z</time>
      </trkpt>
      <trkpt lat="45.25268" lon="6.41312">
        <ele>698.8</ele>
        <time>2012-10-06T06:49:10Z</time>
      </trkpt>
      <trkpt lat="45.25264" lon="6.41319">
        <ele>699.4</ele>
        <time>2012-10-06T06:49:12Z</time>
      </trkpt>
      <trkpt lat="45.25261" lon="6.41326">
        <ele>699.9</ele>
        <time>2012-10-06T06:49:14Z</time>
      </trkpt>
      <trkpt lat="45.25256" lon="6.41337">
        <ele>700.4</ele>
        <time>2012-10-06T06:49:17Z</time>
      </trkpt>
      <trkpt lat="45.25251" lon="6.41348">
        <ele>700.9</ele>
        <time>2012-10-06T06:49:20Z</time>
      </trkpt>
      <trkpt lat="45.25247" lon="6.41358">
        <ele>700.6</ele>
        <time>2012-10-06T06:49:23Z</time>
      </trkpt>
      <trkpt lat="45.25243" lon="6.41369">
        <ele>701.6</ele>
        <time>2012-10-06T06:49:26Z</time>
      </trkpt>
      <trkpt lat="45.25246" lon="6.41379">
        <ele>702.5</ele>
        <time>2012-10-06T06:49:29Z</time>
      </trkpt>
      <trkpt lat="45.25253" lon="6.41384">
        <ele>703</ele>
        <time>2012-10-06T06:49:32Z</time>
      </trkpt>
      <trkpt lat="45.25259" lon="6.41383">
        <ele>703.3</ele>
        <time>2012-10-06T06:49:34Z</time>
      </trkpt>
      <trkpt lat="45.25265" lon="6.41381">
        <ele>703.9</ele>
        <time>2012-10-06T06:49:36Z</time>
      </trkpt>
      <trkpt lat="45.25271" lon="6.41378">
        <ele>704.2</ele>
        <time>2012-10-06T06:49:38Z</time>
      </trkpt>
      <trkpt lat="45.25278" lon="6.41374">
        <ele>704.3</ele>
        <time>2012-10-06T06:49:40Z</time>
      </trkpt>
      <trkpt lat="45.25285" lon="6.41371">
        <ele>704.2</ele>
        <time>2012-10-06T06:49:42Z</time>
      </trkpt>
      <trkpt lat="45.25292" lon="6.41368">
        <ele>704.1</ele>
        <time>2012-10-06T06:49:44Z</time>
      </trkpt>
      <trkpt lat="45.25299" lon="6.41364">
        <ele>704.8</ele>
        <time>2012-10-06T06:49:46Z</time>
      </trkpt>
      <trkpt lat="45.25306" lon="6.4136">
        <ele>704.5</ele>
        <time>2012-10-06T06:49:48Z</time>
      </trkpt>
      <trkpt lat="45.25314" lon="6.41356">
        <ele>704.5</ele>
        <time>2012-10-06T06:49:50Z</time>
      </trkpt>
      <trkpt lat="45.25322" lon="6.41351">
        <ele>704.4</ele>
        <time>2012-10-06T06:49:52Z</time>
      </trkpt>
      <trkpt lat="45.25326" lon="6.41349">
        <ele>704.4</ele>
        <time>2012-10-06T06:49:53Z</time>
      </trkpt>
      <trkpt lat="45.25338" lon="6.41343">
        <ele>704.9</ele>
        <time>2012-10-06T06:49:56Z</time>
      </trkpt>
      <trkpt lat="45.25346" lon="6.41338">
        <ele>704.6</ele>
        <time>2012-10-06T06:49:58Z</time>
      </trkpt>
      <trkpt lat="45.25354" lon="6.41334">
        <ele>704.7</ele>
        <time>2012-10-06T06:50:00Z</time>
      </trkpt>
      <trkpt lat="45.25362" lon="6.41329">
        <ele>704.9</ele>
        <time>2012-10-06T06:50:02Z</time>
      </trkpt>
      <trkpt lat="45.25366" lon="6.41327">
        <ele>705</ele>
        <time>2012-10-06T06:50:03Z</time>
      </trkpt>
      <trkpt lat="45.25371" lon="6.41324">
        <ele>705.1</ele>
        <time>2012-10-06T06:50:04Z</time>
      </trkpt>
      <trkpt lat="45.25379" lon="6.4132">
        <ele>705.3</ele>
        <time>2012-10-06T06:50:06Z</time>
      </trkpt>
      <trkpt lat="45.25388" lon="6.41315">
        <ele>705.4</ele>
        <time>2012-10-06T06:50:08Z</time>
      </trkpt>
      <trkpt lat="45.25392" lon="6.41313">
        <ele>705.3</ele>
        <time>2012-10-06T06:50:09Z</time>
      </trkpt>
      <trkpt lat="45.25396" lon="6.41311">
        <ele>705.2</ele>
        <time>2012-10-06T06:50:10Z</time>
      </trkpt>
      <trkpt lat="45.25401" lon="6.41308">
        <ele>705</ele>
        <time>2012-10-06T06:50:11Z</time>
      </trkpt>
      <trkpt lat="45.25409" lon="6.41303">
        <ele>704.7</ele>
        <time>2012-10-06T06:50:13Z</time>
      </trkpt>
      <trkpt lat="45.25417" lon="6.41299">
        <ele>704.5</ele>
        <time>2012-10-06T06:50:15Z</time>
      </trkpt>
      <trkpt lat="45.25425" lon="6.41295">
        <ele>705</ele>
        <time>2012-10-06T06:50:17Z</time>
      </trkpt>
      <trkpt lat="45.25433" lon="6.41291">
        <ele>705</ele>
        <time>2012-10-06T06:50:19Z</time>
      </trkpt>
      <trkpt lat="45.25441" lon="6.41289">
        <ele>705.6</ele>
        <time>2012-10-06T06:50:21Z</time>
      </trkpt>
      <trkpt lat="45.25448" lon="6.41289">
        <ele>705.9</ele>
        <time>2012-10-06T06:50:23Z</time>
      </trkpt>
      <trkpt lat="45.25455" lon="6.41292">
        <ele>706.1</ele>
        <time>2012-10-06T06:50:25Z</time>
      </trkpt>
      <trkpt lat="45.2546" lon="6.41297">
        <ele>706.1</ele>
        <time>2012-10-06T06:50:27Z</time>
      </trkpt>
      <trkpt lat="45.25464" lon="6.41308">
        <ele>706.6</ele>
        <time>2012-10-06T06:50:30Z</time>
      </trkpt>
      <trkpt lat="45.25467" lon="6.41315">
        <ele>706.8</ele>
        <time>2012-10-06T06:50:32Z</time>
      </trkpt>
      <trkpt lat="45.25469" lon="6.41324">
        <ele>707.1</ele>
        <time>2012-10-06T06:50:34Z</time>
      </trkpt>
      <trkpt lat="45.25473" lon="6.41335">
        <ele>708</ele>
        <time>2012-10-06T06:50:37Z</time>
      </trkpt>
      <trkpt lat="45.25477" lon="6.41346">
        <ele>708.5</ele>
        <time>2012-10-06T06:50:40Z</time>
      </trkpt>
      <trkpt lat="45.25481" lon="6.41355">
        <ele>708.8</ele>
        <time>2012-10-06T06:50:43Z</time>
      </trkpt>
      <trkpt lat="45.25487" lon="6.41362">
        <ele>709.7</ele>
        <time>2012-10-06T06:50:46Z</time>
      </trkpt>
      <trkpt lat="45.25492" lon="6.41369">
        <ele>710.7</ele>
        <time>2012-10-06T06:50:49Z</time>
      </trkpt>
      <trkpt lat="45.25498" lon="6.41379">
        <ele>710.8</ele>
        <time>2012-10-06T06:50:53Z</time>
      </trkpt>
      <trkpt lat="45.25499" lon="6.41381">
        <ele>711</ele>
        <time>2012-10-06T06:50:54Z</time>
      </trkpt>
      <trkpt lat="45.25497" lon="6.414">
        <ele>713.2</ele>
        <time>2012-10-06T06:51:00Z</time>
      </trkpt>
      <trkpt lat="45.25493" lon="6.41411">
        <ele>714.4</ele>
        <time>2012-10-06T06:51:03Z</time>
      </trkpt>
      <trkpt lat="45.2549" lon="6.41419">
        <ele>715.2</ele>
        <time>2012-10-06T06:51:05Z</time>
      </trkpt>
      <trkpt lat="45.25486" lon="6.41429">
        <ele>716.3</ele>
        <time>2012-10-06T06:51:08Z</time>
      </trkpt>
      <trkpt lat="45.25482" lon="6.4144">
        <ele>717.7</ele>
        <time>2012-10-06T06:51:12Z</time>
      </trkpt>
      <trkpt lat="45.25477" lon="6.41448">
        <ele>718.4</ele>
        <time>2012-10-06T06:51:15Z</time>
      </trkpt>
      <trkpt lat="45.25471" lon="6.41456">
        <ele>718.4</ele>
        <time>2012-10-06T06:51:18Z</time>
      </trkpt>
      <trkpt lat="45.25467" lon="6.41464">
        <ele>718.8</ele>
        <time>2012-10-06T06:51:21Z</time>
      </trkpt>
      <trkpt lat="45.25462" lon="6.41473">
        <ele>719.8</ele>
        <time>2012-10-06T06:51:24Z</time>
      </trkpt>
      <trkpt lat="45.25457" lon="6.41481">
        <ele>720.7</ele>
        <time>2012-10-06T06:51:27Z</time>
      </trkpt>
      <trkpt lat="45.25452" lon="6.41488">
        <ele>721.1</ele>
        <time>2012-10-06T06:51:30Z</time>
      </trkpt>
      <trkpt lat="45.25448" lon="6.41496">
        <ele>722.3</ele>
        <time>2012-10-06T06:51:33Z</time>
      </trkpt>
      <trkpt lat="45.25444" lon="6.41507">
        <ele>722.7</ele>
        <time>2012-10-06T06:51:37Z</time>
      </trkpt>
      <trkpt lat="45.25439" lon="6.41517">
        <ele>723.8</ele>
        <time>2012-10-06T06:51:41Z</time>
      </trkpt>
      <trkpt lat="45.25434" lon="6.41526">
        <ele>724.8</ele>
        <time>2012-10-06T06:51:45Z</time>
      </trkpt>
      <trkpt lat="45.25429" lon="6.41534">
        <ele>725</ele>
        <time>2012-10-06T06:51:49Z</time>
      </trkpt>
      <trkpt lat="45.25423" lon="6.41543">
        <ele>725.7</ele>
        <time>2012-10-06T06:51:53Z</time>
      </trkpt>
      <trkpt lat="45.25419" lon="6.41554">
        <ele>726.8</ele>
        <time>2012-10-06T06:51:57Z</time>
      </trkpt>
      <trkpt lat="45.25418" lon="6.41556">
        <ele>726.8</ele>
        <time>2012-10-06T06:51:58Z</time>
      </trkpt>
      <trkpt lat="45.25419" lon="6.41576">
        <ele>728.5</ele>
        <time>2012-10-06T06:52:05Z</time>
      </trkpt>
      <trkpt lat="45.25424" lon="6.41585">
        <ele>728.9</ele>
        <time>2012-10-06T06:52:09Z</time>
      </trkpt>
      <trkpt lat="45.25429" lon="6.41592">
        <ele>729.9</ele>
        <time>2012-10-06T06:52:13Z</time>
      </trkpt>
      <trkpt lat="45.25436" lon="6.41599">
        <ele>730.5</ele>
        <time>2012-10-06T06:52:17Z</time>
      </trkpt>
      <trkpt lat="45.25442" lon="6.41606">
        <ele>731.8</ele>
        <time>2012-10-06T06:52:21Z</time>
      </trkpt>
      <trkpt lat="45.25449" lon="6.41612">
        <ele>733.1</ele>
        <time>2012-10-06T06:52:25Z</time>
      </trkpt>
      <trkpt lat="45.25455" lon="6.41619">
        <ele>733.4</ele>
        <time>2012-10-06T06:52:29Z</time>
      </trkpt>
      <trkpt lat="45.2546" lon="6.41629">
        <ele>734.1</ele>
        <time>2012-10-06T06:52:33Z</time>
      </trkpt>
      <trkpt lat="45.25461" lon="6.41642">
        <ele>734.6</ele>
        <time>2012-10-06T06:52:37Z</time>
      </trkpt>
      <trkpt lat="45.25459" lon="6.41654">
        <ele>735.3</ele>
        <time>2012-10-06T06:52:41Z</time>
      </trkpt>
      <trkpt lat="45.25453" lon="6.41663">
        <ele>736.2</ele>
        <time>2012-10-06T06:52:45Z</time>
      </trkpt>
      <trkpt lat="45.25447" lon="6.41669">
        <ele>737.1</ele>
        <time>2012-10-06T06:52:48Z</time>
      </trkpt>
      <trkpt lat="45.25441" lon="6.41674">
        <ele>737.4</ele>
        <time>2012-10-06T06:52:51Z</time>
      </trkpt>
      <trkpt lat="45.25435" lon="6.41679">
        <ele>738.4</ele>
        <time>2012-10-06T06:52:54Z</time>
      </trkpt>
      <trkpt lat="45.25429" lon="6.41684">
        <ele>739.1</ele>
        <time>2012-10-06T06:52:57Z</time>
      </trkpt>
      <trkpt lat="45.25423" lon="6.4169">
        <ele>739.6</ele>
        <time>2012-10-06T06:53:00Z</time>
      </trkpt>
      <trkpt lat="45.25421" lon="6.41692">
        <ele>739.7</ele>
        <time>2012-10-06T06:53:01Z</time>
      </trkpt>
      <trkpt lat="45.25411" lon="6.41702">
        <ele>740.6</ele>
        <time>2012-10-06T06:53:06Z</time>
      </trkpt>
      <trkpt lat="45.25406" lon="6.41708">
        <ele>740.6</ele>
        <time>2012-10-06T06:53:09Z</time>
      </trkpt>
      <trkpt lat="45.25401" lon="6.41718">
        <ele>741.8</ele>
        <time>2012-10-06T06:53:13Z</time>
      </trkpt>
      <trkpt lat="45.25399" lon="6.41728">
        <ele>742.5</ele>
        <time>2012-10-06T06:53:17Z</time>
      </trkpt>
      <trkpt lat="45.25399" lon="6.41739">
        <ele>743</ele>
        <time>2012-10-06T06:53:21Z</time>
      </trkpt>
      <trkpt lat="45.254" lon="6.41749">
        <ele>744.5</ele>
        <time>2012-10-06T06:53:25Z</time>
      </trkpt>
      <trkpt lat="45.25401" lon="6.4176">
        <ele>745.1</ele>
        <time>2012-10-06T06:53:29Z</time>
      </trkpt>
      <trkpt lat="45.254" lon="6.41772">
        <ele>745.6</ele>
        <time>2012-10-06T06:53:33Z</time>
      </trkpt>
      <trkpt lat="45.25398" lon="6.41784">
        <ele>746.5</ele>
        <time>2012-10-06T06:53:37Z</time>
      </trkpt>
      <trkpt lat="45.25395" lon="6.41795">
        <ele>746.8</ele>
        <time>2012-10-06T06:53:41Z</time>
      </trkpt>
      <trkpt lat="45.25392" lon="6.41807">
        <ele>747.8</ele>
        <time>2012-10-06T06:53:45Z</time>
      </trkpt>
      <trkpt lat="45.25388" lon="6.41816">
        <ele>748.7</ele>
        <time>2012-10-06T06:53:49Z</time>
      </trkpt>
      <trkpt lat="45.25384" lon="6.41827">
        <ele>749.4</ele>
        <time>2012-10-06T06:53:53Z</time>
      </trkpt>
      <trkpt lat="45.2538" lon="6.41837">
        <ele>749.8</ele>
        <time>2012-10-06T06:53:57Z</time>
      </trkpt>
      <trkpt lat="45.25376" lon="6.41848">
        <ele>750.7</ele>
        <time>2012-10-06T06:54:01Z</time>
      </trkpt>
      <trkpt lat="45.25375" lon="6.41851">
        <ele>750.9</ele>
        <time>2012-10-06T06:54:02Z</time>
      </trkpt>
      <trkpt lat="45.25368" lon="6.41869">
        <ele>751.7</ele>
        <time>2012-10-06T06:54:09Z</time>
      </trkpt>
      <trkpt lat="45.25364" lon="6.41879">
        <ele>752.8</ele>
        <time>2012-10-06T06:54:13Z</time>
      </trkpt>
      <trkpt lat="45.2536" lon="6.41887">
        <ele>753.7</ele>
        <time>2012-10-06T06:54:16Z</time>
      </trkpt>
      <trkpt lat="45.25357" lon="6.41896">
        <ele>754.3</ele>
        <time>2012-10-06T06:54:19Z</time>
      </trkpt>
      <trkpt lat="45.25353" lon="6.41904">
        <ele>754.7</ele>
        <time>2012-10-06T06:54:22Z</time>
      </trkpt>
      <trkpt lat="45.25349" lon="6.41915">
        <ele>755.1</ele>
        <time>2012-10-06T06:54:26Z</time>
      </trkpt>
      <trkpt lat="45.25348" lon="6.41926">
        <ele>755.9</ele>
        <time>2012-10-06T06:54:30Z</time>
      </trkpt>
      <trkpt lat="45.25349" lon="6.41936">
        <ele>757.2</ele>
        <time>2012-10-06T06:54:34Z</time>
      </trkpt>
      <trkpt lat="45.25354" lon="6.41944">
        <ele>758.2</ele>
        <time>2012-10-06T06:54:38Z</time>
      </trkpt>
      <trkpt lat="45.25361" lon="6.41947">
        <ele>758.3</ele>
        <time>2012-10-06T06:54:42Z</time>
      </trkpt>
      <trkpt lat="45.25369" lon="6.41948">
        <ele>759.5</ele>
        <time>2012-10-06T06:54:46Z</time>
      </trkpt>
      <trkpt lat="45.25378" lon="6.41949">
        <ele>760.1</ele>
        <time>2012-10-06T06:54:50Z</time>
      </trkpt>
      <trkpt lat="45.25384" lon="6.4195">
        <ele>760.6</ele>
        <time>2012-10-06T06:54:53Z</time>
      </trkpt>
      <trkpt lat="45.25391" lon="6.41951">
        <ele>760.8</ele>
        <time>2012-10-06T06:54:56Z</time>
      </trkpt>
      <trkpt lat="45.25398" lon="6.41951">
        <ele>761.2</ele>
        <time>2012-10-06T06:54:59Z</time>
      </trkpt>
      <trkpt lat="45.25405" lon="6.41952">
        <ele>761.9</ele>
        <time>2012-10-06T06:55:02Z</time>
      </trkpt>
      <trkpt lat="45.25407" lon="6.41952">
        <ele>762.1</ele>
        <time>2012-10-06T06:55:03Z</time>
      </trkpt>
      <trkpt lat="45.25419" lon="6.41954">
        <ele>763.2</ele>
        <time>2012-10-06T06:55:08Z</time>
      </trkpt>
      <trkpt lat="45.25426" lon="6.41955">
        <ele>763.5</ele>
        <time>2012-10-06T06:55:11Z</time>
      </trkpt>
      <trkpt lat="45.25433" lon="6.41954">
        <ele>764.3</ele>
        <time>2012-10-06T06:55:14Z</time>
      </trkpt>
      <trkpt lat="45.2544" lon="6.41954">
        <ele>765.1</ele>
        <time>2012-10-06T06:55:17Z</time>
      </trkpt>
      <trkpt lat="45.25447" lon="6.41955">
        <ele>765.7</ele>
        <time>2012-10-06T06:55:20Z</time>
      </trkpt>
      <trkpt lat="45.25456" lon="6.41955">
        <ele>766.2</ele>
        <time>2012-10-06T06:55:24Z</time>
      </trkpt>
      <trkpt lat="45.25464" lon="6.41955">
        <ele>766.7</ele>
        <time>2012-10-06T06:55:28Z</time>
      </trkpt>
      <trkpt lat="45.25471" lon="6.41958">
        <ele>767.7</ele>
        <time>2012-10-06T06:55:32Z</time>
      </trkpt>
      <trkpt lat="45.25477" lon="6.41967">
        <ele>768.9</ele>
        <time>2012-10-06T06:55:37Z</time>
      </trkpt>
      <trkpt lat="45.25477" lon="6.4198">
        <ele>769.9</ele>
        <time>2012-10-06T06:55:42Z</time>
      </trkpt>
      <trkpt lat="45.25479" lon="6.41992">
        <ele>770.3</ele>
        <time>2012-10-06T06:55:47Z</time>
      </trkpt>
      <trkpt lat="45.25481" lon="6.42002">
        <ele>771.7</ele>
        <time>2012-10-06T06:55:51Z</time>
      </trkpt>
      <trkpt lat="45.25483" lon="6.42012">
        <ele>772.9</ele>
        <time>2012-10-06T06:55:55Z</time>
      </trkpt>
      <trkpt lat="45.25486" lon="6.42022">
        <ele>773</ele>
        <time>2012-10-06T06:55:59Z</time>
      </trkpt>
      <trkpt lat="45.25489" lon="6.42033">
        <ele>774.8</ele>
        <time>2012-10-06T06:56:04Z</time>
      </trkpt>
      <trkpt lat="45.2549" lon="6.42035">
        <ele>774.9</ele>
        <time>2012-10-06T06:56:05Z</time>
      </trkpt>
      <trkpt lat="45.25494" lon="6.42056">
        <ele>778.5</ele>
        <time>2012-10-06T06:56:15Z</time>
      </trkpt>
      <trkpt lat="45.25496" lon="6.42067">
        <ele>780</ele>
        <time>2012-10-06T06:56:20Z</time>
      </trkpt>
      <trkpt lat="45.25496" lon="6.42079">
        <ele>780.6</ele>
        <time>2012-10-06T06:56:26Z</time>
      </trkpt>
      <trkpt lat="45.25495" lon="6.4209">
        <ele>782.3</ele>
        <time>2012-10-06T06:56:31Z</time>
      </trkpt>
      <trkpt lat="45.25496" lon="6.42102">
        <ele>783.8</ele>
        <time>2012-10-06T06:56:36Z</time>
      </trkpt>
      <trkpt lat="45.25498" lon="6.42112">
        <ele>784.5</ele>
        <time>2012-10-06T06:56:41Z</time>
      </trkpt>
      <trkpt lat="45.255" lon="6.42124">
        <ele>786</ele>
        <time>2012-10-06T06:56:47Z</time>
      </trkpt>
      <trkpt lat="45.25504" lon="6.42134">
        <ele>787.4</ele>
        <time>2012-10-06T06:56:52Z</time>
      </trkpt>
      <trkpt lat="45.25509" lon="6.42143">
        <ele>789</ele>
        <time>2012-10-06T06:56:57Z</time>
      </trkpt>
      <trkpt lat="45.25512" lon="6.42154">
        <ele>790</ele>
        <time>2012-10-06T06:57:02Z</time>
      </trkpt>
      <trkpt lat="45.25516" lon="6.42165">
        <ele>791.2</ele>
        <time>2012-10-06T06:57:08Z</time>
      </trkpt>
      <trkpt lat="45.25516" lon="6.42167">
        <ele>791.5</ele>
        <time>2012-10-06T06:57:09Z</time>
      </trkpt>
      <trkpt lat="45.25523" lon="6.42188">
        <ele>794.2</ele>
        <time>2012-10-06T06:57:22Z</time>
      </trkpt>
      <trkpt lat="45.25528" lon="6.42197">
        <ele>795.3</ele>
        <time>2012-10-06T06:57:29Z</time>
      </trkpt>
      <trkpt lat="45.25535" lon="6.42202">
        <ele>797</ele>
        <time>2012-10-06T06:57:35Z</time>
      </trkpt>
      <trkpt lat="45.25542" lon="6.42207">
        <ele>798.4</ele>
        <time>2012-10-06T06:57:41Z</time>
      </trkpt>
      <trkpt lat="45.25549" lon="6.42213">
        <ele>800.1</ele>
        <time>2012-10-06T06:57:47Z</time>
      </trkpt>
      <trkpt lat="45.25557" lon="6.42216">
        <ele>800.4</ele>
        <time>2012-10-06T06:57:53Z</time>
      </trkpt>
      <trkpt lat="45.25565" lon="6.42218">
        <ele>801.4</ele>
        <time>2012-10-06T06:57:58Z</time>
      </trkpt>
      <trkpt lat="45.25573" lon="6.42223">
        <ele>802.6</ele>
        <time>2012-10-06T06:58:03Z</time>
      </trkpt>
      <trkpt lat="45.2558" lon="6.42228">
        <ele>804</ele>
        <time>2012-10-06T06:58:08Z</time>
      </trkpt>
      <trkpt lat="45.25586" lon="6.42233">
        <ele>805.2</ele>
        <time>2012-10-06T06:58:13Z</time>
      </trkpt>
      <trkpt lat="45.25588" lon="6.42234">
        <ele>805.5</ele>
        <time>2012-10-06T06:58:14Z</time>
      </trkpt>
      <trkpt lat="45.25604" lon="6.42235">
        <ele>807.1</ele>
        <time>2012-10-06T06:58:24Z</time>
      </trkpt>
      <trkpt lat="45.25611" lon="6.42235">
        <ele>806.8</ele>
        <time>2012-10-06T06:58:28Z</time>
      </trkpt>
      <trkpt lat="45.2562" lon="6.42236">
        <ele>807.5</ele>
        <time>2012-10-06T06:58:33Z</time>
      </trkpt>
      <trkpt lat="45.25628" lon="6.4224">
        <ele>809.1</ele>
        <time>2012-10-06T06:58:49Z</time>
      </trkpt>
      <trkpt lat="45.25619" lon="6.42242">
        <ele>807.8</ele>
        <time>2012-10-06T07:00:14Z</time>
      </trkpt>
      <trkpt lat="45.25618" lon="6.42241">
        <ele>807.7</ele>
        <time>2012-10-06T07:00:15Z</time>
      </trkpt>
      <trkpt lat="45.2562" lon="6.42238">
        <ele>808.7</ele>
        <time>2012-10-06T07:01:04Z</time>
      </trkpt>
      <trkpt lat="45.25628" lon="6.42239">
        <ele>807.9</ele>
        <time>2012-10-06T07:01:31Z</time>
      </trkpt>
      <trkpt lat="45.25629" lon="6.42239">
        <ele>808.1</ele>
        <time>2012-10-06T07:01:32Z</time>
      </trkpt>
      <trkpt lat="45.25644" lon="6.42249">
        <ele>809.3</ele>
        <time>2012-10-06T07:02:38Z</time>
      </trkpt>
      <trkpt lat="45.25645" lon="6.4225">
        <ele>809.4</ele>
        <time>2012-10-06T07:02:39Z</time>
      </trkpt>
      <trkpt lat="45.25659" lon="6.42259">
        <ele>813.2</ele>
        <time>2012-10-06T07:02:51Z</time>
      </trkpt>
      <trkpt lat="45.25666" lon="6.42262">
        <ele>815.1</ele>
        <time>2012-10-06T07:02:57Z</time>
      </trkpt>
      <trkpt lat="45.25674" lon="6.42257">
        <ele>816.3</ele>
        <time>2012-10-06T07:03:04Z</time>
      </trkpt>
      <trkpt lat="45.25678" lon="6.4225">
        <ele>816.9</ele>
        <time>2012-10-06T07:03:08Z</time>
      </trkpt>
      <trkpt lat="45.25683" lon="6.42241">
        <ele>817</ele>
        <time>2012-10-06T07:03:12Z</time>
      </trkpt>
      <trkpt lat="45.25687" lon="6.42231">
        <ele>817.7</ele>
        <time>2012-10-06T07:03:17Z</time>
      </trkpt>
      <trkpt lat="45.25692" lon="6.4222">
        <ele>818.5</ele>
        <time>2012-10-06T07:03:22Z</time>
      </trkpt>
      <trkpt lat="45.25697" lon="6.4221">
        <ele>820</ele>
        <time>2012-10-06T07:03:27Z</time>
      </trkpt>
      <trkpt lat="45.25701" lon="6.42199">
        <ele>821</ele>
        <time>2012-10-06T07:03:32Z</time>
      </trkpt>
      <trkpt lat="45.25704" lon="6.42188">
        <ele>821.9</ele>
        <time>2012-10-06T07:03:37Z</time>
      </trkpt>
      <trkpt lat="45.25705" lon="6.42178">
        <ele>823</ele>
        <time>2012-10-06T07:03:41Z</time>
      </trkpt>
      <trkpt lat="45.25705" lon="6.42175">
        <ele>823.3</ele>
        <time>2012-10-06T07:03:42Z</time>
      </trkpt>
      <trkpt lat="45.257" lon="6.42156">
        <ele>824.8</ele>
        <time>2012-10-06T07:03:49Z</time>
      </trkpt>
      <trkpt lat="45.25697" lon="6.42146">
        <ele>824.8</ele>
        <time>2012-10-06T07:03:53Z</time>
      </trkpt>
      <trkpt lat="45.25692" lon="6.42135">
        <ele>824.9</ele>
        <time>2012-10-06T07:03:57Z</time>
      </trkpt>
      <trkpt lat="45.25688" lon="6.42126">
        <ele>825.7</ele>
        <time>2012-10-06T07:04:00Z</time>
      </trkpt>
      <trkpt lat="45.25686" lon="6.42115">
        <ele>825.9</ele>
        <time>2012-10-06T07:04:04Z</time>
      </trkpt>
      <trkpt lat="45.25686" lon="6.42103">
        <ele>826.2</ele>
        <time>2012-10-06T07:04:08Z</time>
      </trkpt>
      <trkpt lat="45.25687" lon="6.42092">
        <ele>826.8</ele>
        <time>2012-10-06T07:04:12Z</time>
      </trkpt>
      <trkpt lat="45.25691" lon="6.42081">
        <ele>827</ele>
        <time>2012-10-06T07:04:16Z</time>
      </trkpt>
      <trkpt lat="45.25695" lon="6.42072">
        <ele>827.9</ele>
        <time>2012-10-06T07:04:20Z</time>
      </trkpt>
      <trkpt lat="45.25699" lon="6.42062">
        <ele>828.9</ele>
        <time>2012-10-06T07:04:24Z</time>
      </trkpt>
      <trkpt lat="45.25698" lon="6.4205">
        <ele>829.4</ele>
        <time>2012-10-06T07:04:28Z</time>
      </trkpt>
      <trkpt lat="45.25696" lon="6.42038">
        <ele>829.6</ele>
        <time>2012-10-06T07:04:32Z</time>
      </trkpt>
      <trkpt lat="45.25693" lon="6.42027">
        <ele>830.4</ele>
        <time>2012-10-06T07:04:36Z</time>
      </trkpt>
      <trkpt lat="45.25692" lon="6.42015">
        <ele>831.2</ele>
        <time>2012-10-06T07:04:40Z</time>
      </trkpt>
      <trkpt lat="45.25691" lon="6.42003">
        <ele>831.8</ele>
        <time>2012-10-06T07:04:44Z</time>
      </trkpt>
      <trkpt lat="45.25691" lon="6.42">
        <ele>831.9</ele>
        <time>2012-10-06T07:04:45Z</time>
      </trkpt>
      <trkpt lat="45.25691" lon="6.41983">
        <ele>832.2</ele>
        <time>2012-10-06T07:04:50Z</time>
      </trkpt>
      <trkpt lat="45.25692" lon="6.41973">
        <ele>832.7</ele>
        <time>2012-10-06T07:04:53Z</time>
      </trkpt>
      <trkpt lat="45.25692" lon="6.41961">
        <ele>833.4</ele>
        <time>2012-10-06T07:04:56Z</time>
      </trkpt>
      <trkpt lat="45.25692" lon="6.41949">
        <ele>832.4</ele>
        <time>2012-10-06T07:04:59Z</time>
      </trkpt>
      <trkpt lat="45.25693" lon="6.41937">
        <ele>833.2</ele>
        <time>2012-10-06T07:05:02Z</time>
      </trkpt>
      <trkpt lat="45.25694" lon="6.41928">
        <ele>833.1</ele>
        <time>2012-10-06T07:05:04Z</time>
      </trkpt>
      <trkpt lat="45.25695" lon="6.41917">
        <ele>833.2</ele>
        <time>2012-10-06T07:05:06Z</time>
      </trkpt>
      <trkpt lat="45.25696" lon="6.41909">
        <ele>833.2</ele>
        <time>2012-10-06T07:05:07Z</time>
      </trkpt>
      <trkpt lat="45.25698" lon="6.41901">
        <ele>832.8</ele>
        <time>2012-10-06T07:05:08Z</time>
      </trkpt>
      <trkpt lat="45.25702" lon="6.41893">
        <ele>832.4</ele>
        <time>2012-10-06T07:05:09Z</time>
      </trkpt>
      <trkpt lat="45.25706" lon="6.41886">
        <ele>832.1</ele>
        <time>2012-10-06T07:05:10Z</time>
      </trkpt>
      <trkpt lat="45.25709" lon="6.4188">
        <ele>831.8</ele>
        <time>2012-10-06T07:05:11Z</time>
      </trkpt>
      <trkpt lat="45.25713" lon="6.41875">
        <ele>831.6</ele>
        <time>2012-10-06T07:05:12Z</time>
      </trkpt>
      <trkpt lat="45.25719" lon="6.41867">
        <ele>831.4</ele>
        <time>2012-10-06T07:05:14Z</time>
      </trkpt>
      <trkpt lat="45.25723" lon="6.4186">
        <ele>830.8</ele>
        <time>2012-10-06T07:05:16Z</time>
      </trkpt>
      <trkpt lat="45.2573" lon="6.41853">
        <ele>830.9</ele>
        <time>2012-10-06T07:05:19Z</time>
      </trkpt>
      <trkpt lat="45.25737" lon="6.41849">
        <ele>830.6</ele>
        <time>2012-10-06T07:05:22Z</time>
      </trkpt>
      <trkpt lat="45.25743" lon="6.41843">
        <ele>830.3</ele>
        <time>2012-10-06T07:05:24Z</time>
      </trkpt>
      <trkpt lat="45.25749" lon="6.41836">
        <ele>830.3</ele>
        <time>2012-10-06T07:05:26Z</time>
      </trkpt>
      <trkpt lat="45.25755" lon="6.41832">
        <ele>830.1</ele>
        <time>2012-10-06T07:05:28Z</time>
      </trkpt>
      <trkpt lat="45.25761" lon="6.41829">
        <ele>830.2</ele>
        <time>2012-10-06T07:05:30Z</time>
      </trkpt>
      <trkpt lat="45.25769" lon="6.41827">
        <ele>830.2</ele>
        <time>2012-10-06T07:05:33Z</time>
      </trkpt>
      <trkpt lat="45.25777" lon="6.41826">
        <ele>830.7</ele>
        <time>2012-10-06T07:05:37Z</time>
      </trkpt>
      <trkpt lat="45.25785" lon="6.41825">
        <ele>832.8</ele>
        <time>2012-10-06T07:05:41Z</time>
      </trkpt>
      <trkpt lat="45.25791" lon="6.41819">
        <ele>834.7</ele>
        <time>2012-10-06T07:05:45Z</time>
      </trkpt>
      <trkpt lat="45.25793" lon="6.41818">
        <ele>835</ele>
        <time>2012-10-06T07:05:46Z</time>
      </trkpt>
      <trkpt lat="45.25802" lon="6.41801">
        <ele>836.1</ele>
        <time>2012-10-06T07:05:54Z</time>
      </trkpt>
      <trkpt lat="45.25804" lon="6.41792">
        <ele>836.9</ele>
        <time>2012-10-06T07:05:57Z</time>
      </trkpt>
      <trkpt lat="45.25805" lon="6.41781">
        <ele>837.3</ele>
        <time>2012-10-06T07:06:00Z</time>
      </trkpt>
      <trkpt lat="45.25809" lon="6.4177">
        <ele>837.9</ele>
        <time>2012-10-06T07:06:04Z</time>
      </trkpt>
      <trkpt lat="45.25813" lon="6.41762">
        <ele>838.8</ele>
        <time>2012-10-06T07:06:08Z</time>
      </trkpt>
      <trkpt lat="45.25819" lon="6.41752">
        <ele>839.4</ele>
        <time>2012-10-06T07:06:13Z</time>
      </trkpt>
      <trkpt lat="45.25825" lon="6.41744">
        <ele>840.3</ele>
        <time>2012-10-06T07:06:18Z</time>
      </trkpt>
      <trkpt lat="45.25831" lon="6.41735">
        <ele>842.2</ele>
        <time>2012-10-06T07:06:24Z</time>
      </trkpt>
      <trkpt lat="45.25837" lon="6.41727">
        <ele>843.6</ele>
        <time>2012-10-06T07:06:30Z</time>
      </trkpt>
      <trkpt lat="45.25843" lon="6.41717">
        <ele>845.2</ele>
        <time>2012-10-06T07:06:36Z</time>
      </trkpt>
      <trkpt lat="45.25848" lon="6.41708">
        <ele>847</ele>
        <time>2012-10-06T07:06:42Z</time>
      </trkpt>
      <trkpt lat="45.25854" lon="6.41699">
        <ele>849.1</ele>
        <time>2012-10-06T07:06:48Z</time>
      </trkpt>
      <trkpt lat="45.25855" lon="6.41698">
        <ele>849.4</ele>
        <time>2012-10-06T07:06:49Z</time>
      </trkpt>
      <trkpt lat="45.25866" lon="6.41682">
        <ele>853.9</ele>
        <time>2012-10-06T07:07:02Z</time>
      </trkpt>
      <trkpt lat="45.25872" lon="6.41675">
        <ele>855.5</ele>
        <time>2012-10-06T07:07:09Z</time>
      </trkpt>
      <trkpt lat="45.25877" lon="6.41666">
        <ele>858</ele>
        <time>2012-10-06T07:07:16Z</time>
      </trkpt>
      <trkpt lat="45.25884" lon="6.41659">
        <ele>860</ele>
        <time>2012-10-06T07:07:23Z</time>
      </trkpt>
      <trkpt lat="45.25891" lon="6.41652">
        <ele>861.8</ele>
        <time>2012-10-06T07:07:30Z</time>
      </trkpt>
      <trkpt lat="45.25897" lon="6.41646">
        <ele>864</ele>
        <time>2012-10-06T07:07:37Z</time>
      </trkpt>
      <trkpt lat="45.25904" lon="6.4164">
        <ele>865.6</ele>
        <time>2012-10-06T07:07:44Z</time>
      </trkpt>
      <trkpt lat="45.2591" lon="6.41632">
        <ele>867.2</ele>
        <time>2012-10-06T07:07:51Z</time>
      </trkpt>
      <trkpt lat="45.25911" lon="6.41631">
        <ele>867.3</ele>
        <time>2012-10-06T07:07:52Z</time>
      </trkpt>
      <trkpt lat="45.25923" lon="6.41616">
        <ele>868.9</ele>
        <time>2012-10-06T07:08:04Z</time>
      </trkpt>
      <trkpt lat="45.25927" lon="6.41606">
        <ele>869.4</ele>
        <time>2012-10-06T07:08:10Z</time>
      </trkpt>
      <trkpt lat="45.2593" lon="6.41595">
        <ele>870.3</ele>
        <time>2012-10-06T07:08:16Z</time>
      </trkpt>
      <trkpt lat="45.25929" lon="6.41583">
        <ele>870.4</ele>
        <time>2012-10-06T07:08:22Z</time>
      </trkpt>
      <trkpt lat="45.25926" lon="6.41573">
        <ele>872.6</ele>
        <time>2012-10-06T07:08:27Z</time>
      </trkpt>
      <trkpt lat="45.25923" lon="6.41563">
        <ele>873.7</ele>
        <time>2012-10-06T07:08:32Z</time>
      </trkpt>
      <trkpt lat="45.2592" lon="6.41553">
        <ele>874.5</ele>
        <time>2012-10-06T07:08:37Z</time>
      </trkpt>
      <trkpt lat="45.25921" lon="6.41541">
        <ele>875.7</ele>
        <time>2012-10-06T07:08:42Z</time>
      </trkpt>
      <trkpt lat="45.25922" lon="6.41531">
        <ele>876</ele>
        <time>2012-10-06T07:08:46Z</time>
      </trkpt>
      <trkpt lat="45.25924" lon="6.41519">
        <ele>876.7</ele>
        <time>2012-10-06T07:08:51Z</time>
      </trkpt>
      <trkpt lat="45.25926" lon="6.41507">
        <ele>877.5</ele>
        <time>2012-10-06T07:08:56Z</time>
      </trkpt>
      <trkpt lat="45.25926" lon="6.41505">
        <ele>877.4</ele>
        <time>2012-10-06T07:08:57Z</time>
      </trkpt>
      <trkpt lat="45.25936" lon="6.4149">
        <ele>881.2</ele>
        <time>2012-10-06T07:09:07Z</time>
      </trkpt>
      <trkpt lat="45.25944" lon="6.41484">
        <ele>880.8</ele>
        <time>2012-10-06T07:09:13Z</time>
      </trkpt>
      <trkpt lat="45.25951" lon="6.41477">
        <ele>882.6</ele>
        <time>2012-10-06T07:09:19Z</time>
      </trkpt>
      <trkpt lat="45.25958" lon="6.41469">
        <ele>884.4</ele>
        <time>2012-10-06T07:09:26Z</time>
      </trkpt>
      <trkpt lat="45.25962" lon="6.41459">
        <ele>886.4</ele>
        <time>2012-10-06T07:09:33Z</time>
      </trkpt>
      <trkpt lat="45.2597" lon="6.41453">
        <ele>887.7</ele>
        <time>2012-10-06T07:09:40Z</time>
      </trkpt>
      <trkpt lat="45.25977" lon="6.41447">
        <ele>890.1</ele>
        <time>2012-10-06T07:09:47Z</time>
      </trkpt>
      <trkpt lat="45.25984" lon="6.4144">
        <ele>893.1</ele>
        <time>2012-10-06T07:09:56Z</time>
      </trkpt>
      <trkpt lat="45.25991" lon="6.41433">
        <ele>895.5</ele>
        <time>2012-10-06T07:10:04Z</time>
      </trkpt>
      <trkpt lat="45.25992" lon="6.41432">
        <ele>895.8</ele>
        <time>2012-10-06T07:10:05Z</time>
      </trkpt>
      <trkpt lat="45.26006" lon="6.41425">
        <ele>899.8</ele>
        <time>2012-10-06T07:10:19Z</time>
      </trkpt>
      <trkpt lat="45.26015" lon="6.41425">
        <ele>902.6</ele>
        <time>2012-10-06T07:10:26Z</time>
      </trkpt>
      <trkpt lat="45.26024" lon="6.41427">
        <ele>904.8</ele>
        <time>2012-10-06T07:10:35Z</time>
      </trkpt>
      <trkpt lat="45.26032" lon="6.41425">
        <ele>907.6</ele>
        <time>2012-10-06T07:10:42Z</time>
      </trkpt>
      <trkpt lat="45.26038" lon="6.41417">
        <ele>912.5</ele>
        <time>2012-10-06T07:11:12Z</time>
      </trkpt>
      <trkpt lat="45.26039" lon="6.41416">
        <ele>912.4</ele>
        <time>2012-10-06T07:11:13Z</time>
      </trkpt>
      <trkpt lat="45.26051" lon="6.41401">
        <ele>918.2</ele>
        <time>2012-10-06T07:11:45Z</time>
      </trkpt>
      <trkpt lat="45.26056" lon="6.4139">
        <ele>920.2</ele>
        <time>2012-10-06T07:12:03Z</time>
      </trkpt>
      <trkpt lat="45.26063" lon="6.41384">
        <ele>924.5</ele>
        <time>2012-10-06T07:12:25Z</time>
      </trkpt>
      <trkpt lat="45.26064" lon="6.41383">
        <ele>924.9</ele>
        <time>2012-10-06T07:12:26Z</time>
      </trkpt>
      <trkpt lat="45.26075" lon="6.41365">
        <ele>929.4</ele>
        <time>2012-10-06T07:12:56Z</time>
      </trkpt>
      <trkpt lat="45.26078" lon="6.41354">
        <ele>932.7</ele>
        <time>2012-10-06T07:13:11Z</time>
      </trkpt>
      <trkpt lat="45.26079" lon="6.41342">
        <ele>934.9</ele>
        <time>2012-10-06T07:13:32Z</time>
      </trkpt>
      <trkpt lat="45.26079" lon="6.41341">
        <ele>934.9</ele>
        <time>2012-10-06T07:13:33Z</time>
      </trkpt>
      <trkpt lat="45.26082" lon="6.41318">
        <ele>938.5</ele>
        <time>2012-10-06T07:13:58Z</time>
      </trkpt>
      <trkpt lat="45.26088" lon="6.41308">
        <ele>941</ele>
        <time>2012-10-06T07:14:11Z</time>
      </trkpt>
      <trkpt lat="45.26094" lon="6.413">
        <ele>943.4</ele>
        <time>2012-10-06T07:14:25Z</time>
      </trkpt>
      <trkpt lat="45.261" lon="6.41291">
        <ele>947.3</ele>
        <time>2012-10-06T07:14:39Z</time>
      </trkpt>
      <trkpt lat="45.261" lon="6.4129">
        <ele>947.7</ele>
        <time>2012-10-06T07:14:40Z</time>
      </trkpt>
      <trkpt lat="45.26112" lon="6.41274">
        <ele>952.1</ele>
        <time>2012-10-06T07:15:04Z</time>
      </trkpt>
      <trkpt lat="45.26114" lon="6.41262">
        <ele>953.9</ele>
        <time>2012-10-06T07:15:17Z</time>
      </trkpt>
      <trkpt lat="45.26115" lon="6.4125">
        <ele>956.8</ele>
        <time>2012-10-06T07:15:40Z</time>
      </trkpt>
      <trkpt lat="45.26115" lon="6.41249">
        <ele>957</ele>
        <time>2012-10-06T07:15:41Z</time>
      </trkpt>
      <trkpt lat="45.26121" lon="6.41226">
        <ele>960</ele>
        <time>2012-10-06T07:16:08Z</time>
      </trkpt>
      <trkpt lat="45.26121" lon="6.41214">
        <ele>960.5</ele>
        <time>2012-10-06T07:17:53Z</time>
      </trkpt>
      <trkpt lat="45.26121" lon="6.41213">
        <ele>960.6</ele>
        <time>2012-10-06T07:17:54Z</time>
      </trkpt>
      <trkpt lat="45.26131" lon="6.41195">
        <ele>964.2</ele>
        <time>2012-10-06T07:18:14Z</time>
      </trkpt>
      <trkpt lat="45.26137" lon="6.41186">
        <ele>966</ele>
        <time>2012-10-06T07:18:25Z</time>
      </trkpt>
      <trkpt lat="45.26143" lon="6.41176">
        <ele>968.6</ele>
        <time>2012-10-06T07:18:36Z</time>
      </trkpt>
      <trkpt lat="45.26148" lon="6.41166">
        <ele>971</ele>
        <time>2012-10-06T07:18:47Z</time>
      </trkpt>
      <trkpt lat="45.26152" lon="6.41156">
        <ele>972.6</ele>
        <time>2012-10-06T07:18:58Z</time>
      </trkpt>
      <trkpt lat="45.26153" lon="6.41155">
        <ele>973.1</ele>
        <time>2012-10-06T07:18:59Z</time>
      </trkpt>
      <trkpt lat="45.26163" lon="6.41137">
        <ele>977.1</ele>
        <time>2012-10-06T07:19:21Z</time>
      </trkpt>
      <trkpt lat="45.26168" lon="6.41126">
        <ele>978.9</ele>
        <time>2012-10-06T07:19:33Z</time>
      </trkpt>
      <trkpt lat="45.26173" lon="6.41116">
        <ele>981.2</ele>
        <time>2012-10-06T07:19:44Z</time>
      </trkpt>
      <trkpt lat="45.26178" lon="6.41106">
        <ele>983.5</ele>
        <time>2012-10-06T07:19:56Z</time>
      </trkpt>
      <trkpt lat="45.26183" lon="6.41096">
        <ele>986.1</ele>
        <time>2012-10-06T07:20:10Z</time>
      </trkpt>
      <trkpt lat="45.26184" lon="6.41095">
        <ele>986.2</ele>
        <time>2012-10-06T07:20:11Z</time>
      </trkpt>
      <trkpt lat="45.26195" lon="6.41077">
        <ele>992.1</ele>
        <time>2012-10-06T07:20:34Z</time>
      </trkpt>
      <trkpt lat="45.26199" lon="6.41066">
        <ele>994.3</ele>
        <time>2012-10-06T07:20:47Z</time>
      </trkpt>
      <trkpt lat="45.26201" lon="6.41054">
        <ele>996.8</ele>
        <time>2012-10-06T07:21:02Z</time>
      </trkpt>
      <trkpt lat="45.26204" lon="6.41042">
        <ele>1000.2</ele>
        <time>2012-10-06T07:21:17Z</time>
      </trkpt>
      <trkpt lat="45.26205" lon="6.41042">
        <ele>1000.2</ele>
        <time>2012-10-06T07:21:18Z</time>
      </trkpt>
      <trkpt lat="45.26213" lon="6.41043">
        <ele>1007</ele>
        <time>2012-10-06T07:23:02Z</time>
      </trkpt>
      <trkpt lat="45.26214" lon="6.41044">
        <ele>1006.9</ele>
        <time>2012-10-06T07:23:03Z</time>
      </trkpt>
      <trkpt lat="45.26216" lon="6.41067">
        <ele>1010.5</ele>
        <time>2012-10-06T07:23:25Z</time>
      </trkpt>
      <trkpt lat="45.26218" lon="6.4108">
        <ele>1012.3</ele>
        <time>2012-10-06T07:23:39Z</time>
      </trkpt>
      <trkpt lat="45.26218" lon="6.41092">
        <ele>1014.8</ele>
        <time>2012-10-06T07:23:56Z</time>
      </trkpt>
      <trkpt lat="45.26214" lon="6.41103">
        <ele>1017.5</ele>
        <time>2012-10-06T07:24:22Z</time>
      </trkpt>
      <trkpt lat="45.26214" lon="6.41103">
        <ele>1017.5</ele>
        <time>2012-10-06T07:24:23Z</time>
      </trkpt>
      <trkpt lat="45.26224" lon="6.41122">
        <ele>1022.8</ele>
        <time>2012-10-06T07:24:54Z</time>
      </trkpt>
      <trkpt lat="45.26232" lon="6.41126">
        <ele>1025.8</ele>
        <time>2012-10-06T07:25:15Z</time>
      </trkpt>
      <trkpt lat="45.26241" lon="6.41125">
        <ele>1028.7</ele>
        <time>2012-10-06T07:25:30Z</time>
      </trkpt>
      <trkpt lat="45.26241" lon="6.41126">
        <ele>1029</ele>
        <time>2012-10-06T07:25:31Z</time>
      </trkpt>
      <trkpt lat="45.26248" lon="6.41148">
        <ele>1034.6</ele>
        <time>2012-10-06T07:26:07Z</time>
      </trkpt>
      <trkpt lat="45.26248" lon="6.4116">
        <ele>1037.7</ele>
        <time>2012-10-06T07:26:27Z</time>
      </trkpt>
      <trkpt lat="45.26246" lon="6.41173">
        <ele>1039.6</ele>
        <time>2012-10-06T07:26:48Z</time>
      </trkpt>
      <trkpt lat="45.26246" lon="6.41173">
        <ele>1039.6</ele>
        <time>2012-10-06T07:26:49Z</time>
      </trkpt>
      <trkpt lat="45.26241" lon="6.41196">
        <ele>1044</ele>
        <time>2012-10-06T07:27:17Z</time>
      </trkpt>
      <trkpt lat="45.2624" lon="6.41209">
        <ele>1046.3</ele>
        <time>2012-10-06T07:27:29Z</time>
      </trkpt>
      <trkpt lat="45.26239" lon="6.41221">
        <ele>1048.7</ele>
        <time>2012-10-06T07:27:41Z</time>
      </trkpt>
      <trkpt lat="45.26242" lon="6.41233">
        <ele>1051.4</ele>
        <time>2012-10-06T07:27:56Z</time>
      </trkpt>
      <trkpt lat="45.26242" lon="6.41234">
        <ele>1051.3</ele>
        <time>2012-10-06T07:27:57Z</time>
      </trkpt>
      <trkpt lat="45.26255" lon="6.41246">
        <ele>1056.1</ele>
        <time>2012-10-06T07:28:29Z</time>
      </trkpt>
      <trkpt lat="45.26264" lon="6.41243">
        <ele>1058.7</ele>
        <time>2012-10-06T07:28:44Z</time>
      </trkpt>
      <trkpt lat="45.2627" lon="6.41235">
        <ele>1061.6</ele>
        <time>2012-10-06T07:28:59Z</time>
      </trkpt>
      <trkpt lat="45.26271" lon="6.41234">
        <ele>1062.1</ele>
        <time>2012-10-06T07:29:00Z</time>
      </trkpt>
      <trkpt lat="45.26284" lon="6.41219">
        <ele>1067.6</ele>
        <time>2012-10-06T07:29:33Z</time>
      </trkpt>
      <trkpt lat="45.2629" lon="6.4121">
        <ele>1069.9</ele>
        <time>2012-10-06T07:29:50Z</time>
      </trkpt>
      <trkpt lat="45.26295" lon="6.412">
        <ele>1072.4</ele>
        <time>2012-10-06T07:30:02Z</time>
      </trkpt>
      <trkpt lat="45.26296" lon="6.412">
        <ele>1072.6</ele>
        <time>2012-10-06T07:30:03Z</time>
      </trkpt>
      <trkpt lat="45.26311" lon="6.41196">
        <ele>1077.3</ele>
        <time>2012-10-06T07:30:30Z</time>
      </trkpt>
      <trkpt lat="45.26309" lon="6.41208">
        <ele>1081</ele>
        <time>2012-10-06T07:30:48Z</time>
      </trkpt>
      <trkpt lat="45.26317" lon="6.41202">
        <ele>1089.6</ele>
        <time>2012-10-06T07:31:43Z</time>
      </trkpt>
      <trkpt lat="45.26317" lon="6.41202">
        <ele>1089.7</ele>
        <time>2012-10-06T07:31:44Z</time>
      </trkpt>
      <trkpt lat="45.26331" lon="6.4119">
        <ele>1095</ele>
        <time>2012-10-06T07:32:15Z</time>
      </trkpt>
      <trkpt lat="45.26337" lon="6.4118">
        <ele>1097.3</ele>
        <time>2012-10-06T07:32:31Z</time>
      </trkpt>
      <trkpt lat="45.2634" lon="6.41168">
        <ele>1099.7</ele>
        <time>2012-10-06T07:32:48Z</time>
      </trkpt>
      <trkpt lat="45.2634" lon="6.41168">
        <ele>1099.9</ele>
        <time>2012-10-06T07:32:49Z</time>
      </trkpt>
      <trkpt lat="45.26345" lon="6.41157">
        <ele>1101.7</ele>
        <time>2012-10-06T07:34:11Z</time>
      </trkpt>
      <trkpt lat="45.26352" lon="6.41149">
        <ele>1103.5</ele>
        <time>2012-10-06T07:35:31Z</time>
      </trkpt>
      <trkpt lat="45.26359" lon="6.41171">
        <ele>1111.6</ele>
        <time>2012-10-06T07:36:38Z</time>
      </trkpt>
      <trkpt lat="45.26358" lon="6.41172">
        <ele>1111.7</ele>
        <time>2012-10-06T07:36:39Z</time>
      </trkpt>
      <trkpt lat="45.26359" lon="6.41196">
        <ele>1116.9</ele>
        <time>2012-10-06T07:37:08Z</time>
      </trkpt>
      <trkpt lat="45.26358" lon="6.41208">
        <ele>1119.8</ele>
        <time>2012-10-06T07:37:20Z</time>
      </trkpt>
      <trkpt lat="45.26367" lon="6.41204">
        <ele>1126.9</ele>
        <time>2012-10-06T07:37:57Z</time>
      </trkpt>
      <trkpt lat="45.26367" lon="6.41203">
        <ele>1126.8</ele>
        <time>2012-10-06T07:37:58Z</time>
      </trkpt>
      <trkpt lat="45.26381" lon="6.41189">
        <ele>1133.3</ele>
        <time>2012-10-06T07:38:28Z</time>
      </trkpt>
      <trkpt lat="45.26387" lon="6.41181">
        <ele>1137.4</ele>
        <time>2012-10-06T07:38:49Z</time>
      </trkpt>
      <trkpt lat="45.26392" lon="6.4117">
        <ele>1140.1</ele>
        <time>2012-10-06T07:39:05Z</time>
      </trkpt>
      <trkpt lat="45.26392" lon="6.4117">
        <ele>1140.5</ele>
        <time>2012-10-06T07:39:06Z</time>
      </trkpt>
      <trkpt lat="45.26401" lon="6.41149">
        <ele>1145.6</ele>
        <time>2012-10-06T07:39:34Z</time>
      </trkpt>
      <trkpt lat="45.26407" lon="6.4114">
        <ele>1148.8</ele>
        <time>2012-10-06T07:39:48Z</time>
      </trkpt>
      <trkpt lat="45.26414" lon="6.41132">
        <ele>1151.2</ele>
        <time>2012-10-06T07:40:24Z</time>
      </trkpt>
      <trkpt lat="45.26415" lon="6.41132">
        <ele>1151.2</ele>
        <time>2012-10-06T07:40:25Z</time>
      </trkpt>
      <trkpt lat="45.26405" lon="6.41134">
        <ele>1152.6</ele>
        <time>2012-10-06T07:41:40Z</time>
      </trkpt>
      <trkpt lat="45.26421" lon="6.41126">
        <ele>1152.2</ele>
        <time>2012-10-06T07:43:18Z</time>
      </trkpt>
      <trkpt lat="45.26422" lon="6.41126">
        <ele>1152.5</ele>
        <time>2012-10-06T07:43:19Z</time>
      </trkpt>
      <trkpt lat="45.26437" lon="6.41116">
        <ele>1162</ele>
        <time>2012-10-06T07:44:09Z</time>
      </trkpt>
      <trkpt lat="45.26444" lon="6.41109">
        <ele>1165.6</ele>
        <time>2012-10-06T07:44:26Z</time>
      </trkpt>
      <trkpt lat="45.26444" lon="6.41108">
        <ele>1166.1</ele>
        <time>2012-10-06T07:44:27Z</time>
      </trkpt>
      <trkpt lat="45.26452" lon="6.41089">
        <ele>1170.8</ele>
        <time>2012-10-06T07:44:55Z</time>
      </trkpt>
      <trkpt lat="45.26449" lon="6.41077">
        <ele>1173.2</ele>
        <time>2012-10-06T07:45:10Z</time>
      </trkpt>
      <trkpt lat="45.26451" lon="6.41065">
        <ele>1176.4</ele>
        <time>2012-10-06T07:45:25Z</time>
      </trkpt>
      <trkpt lat="45.26455" lon="6.41054">
        <ele>1179.9</ele>
        <time>2012-10-06T07:45:40Z</time>
      </trkpt>
      <trkpt lat="45.26455" lon="6.41053">
        <ele>1180.2</ele>
        <time>2012-10-06T07:45:41Z</time>
      </trkpt>
      <trkpt lat="45.26459" lon="6.4103">
        <ele>1184.9</ele>
        <time>2012-10-06T07:46:09Z</time>
      </trkpt>
      <trkpt lat="45.26463" lon="6.41019">
        <ele>1188.1</ele>
        <time>2012-10-06T07:46:23Z</time>
      </trkpt>
      <trkpt lat="45.26465" lon="6.41007">
        <ele>1190.4</ele>
        <time>2012-10-06T07:46:37Z</time>
      </trkpt>
      <trkpt lat="45.26466" lon="6.40996">
        <ele>1192.6</ele>
        <time>2012-10-06T07:46:50Z</time>
      </trkpt>
      <trkpt lat="45.26466" lon="6.40994">
        <ele>1192.7</ele>
        <time>2012-10-06T07:46:51Z</time>
      </trkpt>
      <trkpt lat="45.26467" lon="6.40971">
        <ele>1195.6</ele>
        <time>2012-10-06T07:47:15Z</time>
      </trkpt>
      <trkpt lat="45.26469" lon="6.40959">
        <ele>1198.1</ele>
        <time>2012-10-06T07:47:40Z</time>
      </trkpt>
      <trkpt lat="45.26474" lon="6.40949">
        <ele>1198.8</ele>
        <time>2012-10-06T07:47:53Z</time>
      </trkpt>
      <trkpt lat="45.26475" lon="6.40949">
        <ele>1198.9</ele>
        <time>2012-10-06T07:47:54Z</time>
      </trkpt>
      <trkpt lat="45.26491" lon="6.40939">
        <ele>1202.8</ele>
        <time>2012-10-06T07:50:01Z</time>
      </trkpt>
      <trkpt lat="45.26492" lon="6.40939">
        <ele>1203</ele>
        <time>2012-10-06T07:50:02Z</time>
      </trkpt>
      <trkpt lat="45.26507" lon="6.40941">
        <ele>1207.1</ele>
        <time>2012-10-06T07:50:17Z</time>
      </trkpt>
      <trkpt lat="45.26515" lon="6.40943">
        <ele>1209.2</ele>
        <time>2012-10-06T07:50:26Z</time>
      </trkpt>
      <trkpt lat="45.26524" lon="6.40947">
        <ele>1212.4</ele>
        <time>2012-10-06T07:50:34Z</time>
      </trkpt>
      <trkpt lat="45.26531" lon="6.40951">
        <ele>1214.1</ele>
        <time>2012-10-06T07:50:42Z</time>
      </trkpt>
      <trkpt lat="45.26539" lon="6.40955">
        <ele>1217.2</ele>
        <time>2012-10-06T07:50:51Z</time>
      </trkpt>
      <trkpt lat="45.26547" lon="6.4096">
        <ele>1220.1</ele>
        <time>2012-10-06T07:50:59Z</time>
      </trkpt>
      <trkpt lat="45.26555" lon="6.40965">
        <ele>1221.9</ele>
        <time>2012-10-06T07:51:08Z</time>
      </trkpt>
      <trkpt lat="45.26556" lon="6.40965">
        <ele>1222.2</ele>
        <time>2012-10-06T07:51:09Z</time>
      </trkpt>
      <trkpt lat="45.26571" lon="6.4097">
        <ele>1226</ele>
        <time>2012-10-06T07:51:26Z</time>
      </trkpt>
      <trkpt lat="45.2658" lon="6.40972">
        <ele>1227</ele>
        <time>2012-10-06T07:51:34Z</time>
      </trkpt>
      <trkpt lat="45.26588" lon="6.40975">
        <ele>1228.1</ele>
        <time>2012-10-06T07:51:41Z</time>
      </trkpt>
      <trkpt lat="45.26596" lon="6.40976">
        <ele>1229</ele>
        <time>2012-10-06T07:51:49Z</time>
      </trkpt>
      <trkpt lat="45.26604" lon="6.40976">
        <ele>1230.5</ele>
        <time>2012-10-06T07:51:57Z</time>
      </trkpt>
      <trkpt lat="45.26613" lon="6.40977">
        <ele>1232.3</ele>
        <time>2012-10-06T07:52:05Z</time>
      </trkpt>
      <trkpt lat="45.26622" lon="6.40977">
        <ele>1233.5</ele>
        <time>2012-10-06T07:52:13Z</time>
      </trkpt>
      <trkpt lat="45.26623" lon="6.40977">
        <ele>1233.6</ele>
        <time>2012-10-06T07:52:14Z</time>
      </trkpt>
      <trkpt lat="45.26638" lon="6.40978">
        <ele>1237.9</ele>
        <time>2012-10-06T07:52:29Z</time>
      </trkpt>
      <trkpt lat="45.26645" lon="6.40981">
        <ele>1240.1</ele>
        <time>2012-10-06T07:52:37Z</time>
      </trkpt>
      <trkpt lat="45.26654" lon="6.40984">
        <ele>1243.4</ele>
        <time>2012-10-06T07:52:46Z</time>
      </trkpt>
      <trkpt lat="45.26662" lon="6.40989">
        <ele>1245.7</ele>
        <time>2012-10-06T07:52:56Z</time>
      </trkpt>
      <trkpt lat="45.26669" lon="6.40995">
        <ele>1247.8</ele>
        <time>2012-10-06T07:53:05Z</time>
      </trkpt>
      <trkpt lat="45.26676" lon="6.41001">
        <ele>1250.1</ele>
        <time>2012-10-06T07:53:13Z</time>
      </trkpt>
      <trkpt lat="45.26682" lon="6.41008">
        <ele>1252</ele>
        <time>2012-10-06T07:53:21Z</time>
      </trkpt>
      <trkpt lat="45.26683" lon="6.41008">
        <ele>1252.2</ele>
        <time>2012-10-06T07:53:22Z</time>
      </trkpt>
      <trkpt lat="45.26698" lon="6.41019">
        <ele>1255.7</ele>
        <time>2012-10-06T07:53:38Z</time>
      </trkpt>
      <trkpt lat="45.26706" lon="6.41024">
        <ele>1256.2</ele>
        <time>2012-10-06T07:53:49Z</time>
      </trkpt>
      <trkpt lat="45.26713" lon="6.4103">
        <ele>1257.5</ele>
        <time>2012-10-06T07:54:00Z</time>
      </trkpt>
      <trkpt lat="45.26722" lon="6.41034">
        <ele>1258.4</ele>
        <time>2012-10-06T07:54:10Z</time>
      </trkpt>
      <trkpt lat="45.26729" lon="6.41041">
        <ele>1259.7</ele>
        <time>2012-10-06T07:55:23Z</time>
      </trkpt>
      <trkpt lat="45.26729" lon="6.41041">
        <ele>1260</ele>
        <time>2012-10-06T07:55:24Z</time>
      </trkpt>
      <trkpt lat="45.26744" lon="6.41053">
        <ele>1261</ele>
        <time>2012-10-06T07:55:38Z</time>
      </trkpt>
      <trkpt lat="45.26752" lon="6.41056">
        <ele>1262.3</ele>
        <time>2012-10-06T07:55:45Z</time>
      </trkpt>
      <trkpt lat="45.2676" lon="6.41058">
        <ele>1263.1</ele>
        <time>2012-10-06T07:55:55Z</time>
      </trkpt>
      <trkpt lat="45.26769" lon="6.41059">
        <ele>1263.4</ele>
        <time>2012-10-06T07:57:28Z</time>
      </trkpt>
      <trkpt lat="45.26769" lon="6.41059">
        <ele>1263.3</ele>
        <time>2012-10-06T07:57:29Z</time>
      </trkpt>
      <trkpt lat="45.26782" lon="6.41047">
        <ele>1263.6</ele>
        <time>2012-10-06T07:58:28Z</time>
      </trkpt>
      <trkpt lat="45.2679" lon="6.41043">
        <ele>1263.9</ele>
        <time>2012-10-06T07:58:33Z</time>
      </trkpt>
      <trkpt lat="45.26792" lon="6.41042">
        <ele>1263.7</ele>
        <time>2012-10-06T07:58:34Z</time>
      </trkpt>
      <trkpt lat="45.26806" lon="6.41039">
        <ele>1264.9</ele>
        <time>2012-10-06T07:58:41Z</time>
      </trkpt>
      <trkpt lat="45.26814" lon="6.41037">
        <ele>1265.2</ele>
        <time>2012-10-06T07:58:45Z</time>
      </trkpt>
      <trkpt lat="45.26822" lon="6.41037">
        <ele>1266.2</ele>
        <time>2012-10-06T07:58:49Z</time>
      </trkpt>
      <trkpt lat="45.2683" lon="6.41036">
        <ele>1266.8</ele>
        <time>2012-10-06T07:58:53Z</time>
      </trkpt>
      <trkpt lat="45.26838" lon="6.41035">
        <ele>1266.8</ele>
        <time>2012-10-06T07:58:57Z</time>
      </trkpt>
      <trkpt lat="45.26845" lon="6.41036">
        <ele>1268.2</ele>
        <time>2012-10-06T07:59:01Z</time>
      </trkpt>
      <trkpt lat="45.26853" lon="6.41037">
        <ele>1268.2</ele>
        <time>2012-10-06T07:59:05Z</time>
      </trkpt>
      <trkpt lat="45.26861" lon="6.41036">
        <ele>1269.2</ele>
        <time>2012-10-06T07:59:09Z</time>
      </trkpt>
      <trkpt lat="45.26868" lon="6.41036">
        <ele>1270.6</ele>
        <time>2012-10-06T07:59:13Z</time>
      </trkpt>
      <trkpt lat="45.26876" lon="6.41037">
        <ele>1271.2</ele>
        <time>2012-10-06T07:59:17Z</time>
      </trkpt>
      <trkpt lat="45.26883" lon="6.41041">
        <ele>1272.1</ele>
        <time>2012-10-06T07:59:21Z</time>
      </trkpt>
      <trkpt lat="45.26891" lon="6.41044">
        <ele>1272.9</ele>
        <time>2012-10-06T07:59:26Z</time>
      </trkpt>
      <trkpt lat="45.269" lon="6.41043">
        <ele>1274.5</ele>
        <time>2012-10-06T07:59:31Z</time>
      </trkpt>
      <trkpt lat="45.26908" lon="6.41039">
        <ele>1275.2</ele>
        <time>2012-10-06T07:59:36Z</time>
      </trkpt>
      <trkpt lat="45.2691" lon="6.41038">
        <ele>1275.3</ele>
        <time>2012-10-06T07:59:37Z</time>
      </trkpt>
      <trkpt lat="45.26922" lon="6.41025">
        <ele>1277.2</ele>
        <time>2012-10-06T07:59:46Z</time>
      </trkpt>
      <trkpt lat="45.26927" lon="6.41016">
        <ele>1277.9</ele>
        <time>2012-10-06T07:59:51Z</time>
      </trkpt>
      <trkpt lat="45.26933" lon="6.41009">
        <ele>1278</ele>
        <time>2012-10-06T07:59:55Z</time>
      </trkpt>
      <trkpt lat="45.2694" lon="6.41005">
        <ele>1278.3</ele>
        <time>2012-10-06T07:59:58Z</time>
      </trkpt>
      <trkpt lat="45.26946" lon="6.41002">
        <ele>1277.8</ele>
        <time>2012-10-06T08:00:00Z</time>
      </trkpt>
      <trkpt lat="45.26953" lon="6.41">
        <ele>1277.7</ele>
        <time>2012-10-06T08:00:02Z</time>
      </trkpt>
      <trkpt lat="45.26961" lon="6.40998">
        <ele>1277.4</ele>
        <time>2012-10-06T08:00:05Z</time>
      </trkpt>
      <trkpt lat="45.26969" lon="6.40995">
        <ele>1277.8</ele>
        <time>2012-10-06T08:00:08Z</time>
      </trkpt>
      <trkpt lat="45.26976" lon="6.40991">
        <ele>1278.6</ele>
        <time>2012-10-06T08:00:11Z</time>
      </trkpt>
      <trkpt lat="45.26983" lon="6.40986">
        <ele>1279.1</ele>
        <time>2012-10-06T08:00:14Z</time>
      </trkpt>
      <trkpt lat="45.26989" lon="6.4098">
        <ele>1279.9</ele>
        <time>2012-10-06T08:00:17Z</time>
      </trkpt>
      <trkpt lat="45.26996" lon="6.40974">
        <ele>1281</ele>
        <time>2012-10-06T08:00:21Z</time>
      </trkpt>
      <trkpt lat="45.27003" lon="6.40968">
        <ele>1281.4</ele>
        <time>2012-10-06T08:00:25Z</time>
      </trkpt>
      <trkpt lat="45.27012" lon="6.40963">
        <ele>1282</ele>
        <time>2012-10-06T08:00:29Z</time>
      </trkpt>
      <trkpt lat="45.27018" lon="6.40961">
        <ele>1282.3</ele>
        <time>2012-10-06T08:00:32Z</time>
      </trkpt>
      <trkpt lat="45.27025" lon="6.40958">
        <ele>1282.6</ele>
        <time>2012-10-06T08:00:35Z</time>
      </trkpt>
      <trkpt lat="45.27034" lon="6.40954">
        <ele>1282.9</ele>
        <time>2012-10-06T08:00:39Z</time>
      </trkpt>
      <trkpt lat="45.27036" lon="6.40953">
        <ele>1282.9</ele>
        <time>2012-10-06T08:00:40Z</time>
      </trkpt>
      <trkpt lat="45.27048" lon="6.40947">
        <ele>1284</ele>
        <time>2012-10-06T08:00:46Z</time>
      </trkpt>
      <trkpt lat="45.27056" lon="6.40944">
        <ele>1284.9</ele>
        <time>2012-10-06T08:00:51Z</time>
      </trkpt>
      <trkpt lat="45.27064" lon="6.4094">
        <ele>1286.2</ele>
        <time>2012-10-06T08:00:56Z</time>
      </trkpt>
      <trkpt lat="45.27072" lon="6.40936">
        <ele>1287.3</ele>
        <time>2012-10-06T08:01:01Z</time>
      </trkpt>
      <trkpt lat="45.27079" lon="6.40931">
        <ele>1287.9</ele>
        <time>2012-10-06T08:01:05Z</time>
      </trkpt>
      <trkpt lat="45.27086" lon="6.40926">
        <ele>1289.1</ele>
        <time>2012-10-06T08:01:09Z</time>
      </trkpt>
      <trkpt lat="45.27093" lon="6.40919">
        <ele>1290.7</ele>
        <time>2012-10-06T08:01:14Z</time>
      </trkpt>
      <trkpt lat="45.271" lon="6.40912">
        <ele>1292.4</ele>
        <time>2012-10-06T08:01:20Z</time>
      </trkpt>
      <trkpt lat="45.27098" lon="6.40924">
        <ele>1293.1</ele>
        <time>2012-10-06T08:03:16Z</time>
      </trkpt>
      <trkpt lat="45.27097" lon="6.40926">
        <ele>1293.5</ele>
        <time>2012-10-06T08:03:17Z</time>
      </trkpt>
      <trkpt lat="45.27087" lon="6.40941">
        <ele>1296</ele>
        <time>2012-10-06T08:03:26Z</time>
      </trkpt>
      <trkpt lat="45.27081" lon="6.40948">
        <ele>1296.2</ele>
        <time>2012-10-06T08:03:31Z</time>
      </trkpt>
      <trkpt lat="45.27075" lon="6.40956">
        <ele>1296.7</ele>
        <time>2012-10-06T08:03:36Z</time>
      </trkpt>
      <trkpt lat="45.27071" lon="6.40965">
        <ele>1296.5</ele>
        <time>2012-10-06T08:03:40Z</time>
      </trkpt>
      <trkpt lat="45.27074" lon="6.40976">
        <ele>1297.7</ele>
        <time>2012-10-06T08:03:45Z</time>
      </trkpt>
      <trkpt lat="45.2708" lon="6.40972">
        <ele>1298.9</ele>
        <time>2012-10-06T08:03:49Z</time>
      </trkpt>
      <trkpt lat="45.27086" lon="6.40965">
        <ele>1299.8</ele>
        <time>2012-10-06T08:03:54Z</time>
      </trkpt>
      <trkpt lat="45.27093" lon="6.40959">
        <ele>1300.4</ele>
        <time>2012-10-06T08:03:59Z</time>
      </trkpt>
      <trkpt lat="45.27102" lon="6.40957">
        <ele>1301.6</ele>
        <time>2012-10-06T08:04:04Z</time>
      </trkpt>
      <trkpt lat="45.27109" lon="6.40959">
        <ele>1302.2</ele>
        <time>2012-10-06T08:04:08Z</time>
      </trkpt>
      <trkpt lat="45.27117" lon="6.40963">
        <ele>1302.2</ele>
        <time>2012-10-06T08:04:12Z</time>
      </trkpt>
      <trkpt lat="45.27125" lon="6.40968">
        <ele>1303.1</ele>
        <time>2012-10-06T08:04:16Z</time>
      </trkpt>
      <trkpt lat="45.27133" lon="6.40974">
        <ele>1303.5</ele>
        <time>2012-10-06T08:04:20Z</time>
      </trkpt>
      <trkpt lat="45.27134" lon="6.40976">
        <ele>1303.4</ele>
        <time>2012-10-06T08:04:21Z</time>
      </trkpt>
      <trkpt lat="45.27145" lon="6.40989">
        <ele>1304.3</ele>
        <time>2012-10-06T08:04:28Z</time>
      </trkpt>
      <trkpt lat="45.27152" lon="6.40998">
        <ele>1305</ele>
        <time>2012-10-06T08:04:32Z</time>
      </trkpt>
      <trkpt lat="45.27156" lon="6.41006">
        <ele>1305.1</ele>
        <time>2012-10-06T08:04:35Z</time>
      </trkpt>
      <trkpt lat="45.27161" lon="6.41013">
        <ele>1306.2</ele>
        <time>2012-10-06T08:04:38Z</time>
      </trkpt>
      <trkpt lat="45.27166" lon="6.41021">
        <ele>1306.5</ele>
        <time>2012-10-06T08:04:41Z</time>
      </trkpt>
      <trkpt lat="45.27172" lon="6.41027">
        <ele>1307.1</ele>
        <time>2012-10-06T08:04:44Z</time>
      </trkpt>
      <trkpt lat="45.27178" lon="6.41033">
        <ele>1306.9</ele>
        <time>2012-10-06T08:04:47Z</time>
      </trkpt>
      <trkpt lat="45.27185" lon="6.41037">
        <ele>1307.4</ele>
        <time>2012-10-06T08:04:50Z</time>
      </trkpt>
      <trkpt lat="45.27192" lon="6.4104">
        <ele>1307.6</ele>
        <time>2012-10-06T08:04:53Z</time>
      </trkpt>
      <trkpt lat="45.272" lon="6.41042">
        <ele>1307.8</ele>
        <time>2012-10-06T08:04:56Z</time>
      </trkpt>
      <trkpt lat="45.27207" lon="6.41044">
        <ele>1308.2</ele>
        <time>2012-10-06T08:04:59Z</time>
      </trkpt>
      <trkpt lat="45.27215" lon="6.41046">
        <ele>1308.9</ele>
        <time>2012-10-06T08:05:02Z</time>
      </trkpt>
      <trkpt lat="45.27222" lon="6.41047">
        <ele>1309.2</ele>
        <time>2012-10-06T08:05:05Z</time>
      </trkpt>
      <trkpt lat="45.27229" lon="6.41049">
        <ele>1309.3</ele>
        <time>2012-10-06T08:05:08Z</time>
      </trkpt>
      <trkpt lat="45.27236" lon="6.4105">
        <ele>1309.6</ele>
        <time>2012-10-06T08:05:11Z</time>
      </trkpt>
      <trkpt lat="45.27245" lon="6.41052">
        <ele>1310.2</ele>
        <time>2012-10-06T08:05:15Z</time>
      </trkpt>
      <trkpt lat="45.27252" lon="6.41053">
        <ele>1311.2</ele>
        <time>2012-10-06T08:05:18Z</time>
      </trkpt>
      <trkpt lat="45.27259" lon="6.41054">
        <ele>1311.9</ele>
        <time>2012-10-06T08:05:21Z</time>
      </trkpt>
      <trkpt lat="45.27268" lon="6.41057">
        <ele>1313</ele>
        <time>2012-10-06T08:05:25Z</time>
      </trkpt>
      <trkpt lat="45.2727" lon="6.41058">
        <ele>1313.3</ele>
        <time>2012-10-06T08:05:26Z</time>
      </trkpt>
      <trkpt lat="45.27283" lon="6.41062">
        <ele>1313.3</ele>
        <time>2012-10-06T08:05:32Z</time>
      </trkpt>
      <trkpt lat="45.27289" lon="6.41065">
        <ele>1314.1</ele>
        <time>2012-10-06T08:05:35Z</time>
      </trkpt>
      <trkpt lat="45.27296" lon="6.41069">
        <ele>1313.9</ele>
        <time>2012-10-06T08:05:38Z</time>
      </trkpt>
      <trkpt lat="45.27302" lon="6.41073">
        <ele>1314.8</ele>
        <time>2012-10-06T08:05:41Z</time>
      </trkpt>
      <trkpt lat="45.27309" lon="6.41076">
        <ele>1315.3</ele>
        <time>2012-10-06T08:05:44Z</time>
      </trkpt>
      <trkpt lat="45.27316" lon="6.41079">
        <ele>1315.7</ele>
        <time>2012-10-06T08:05:47Z</time>
      </trkpt>
      <trkpt lat="45.27322" lon="6.41082">
        <ele>1315.8</ele>
        <time>2012-10-06T08:05:50Z</time>
      </trkpt>
      <trkpt lat="45.27331" lon="6.41086">
        <ele>1316</ele>
        <time>2012-10-06T08:05:54Z</time>
      </trkpt>
      <trkpt lat="45.27338" lon="6.4109">
        <ele>1316.8</ele>
        <time>2012-10-06T08:05:58Z</time>
      </trkpt>
      <trkpt lat="45.27344" lon="6.41098">
        <ele>1317.7</ele>
        <time>2012-10-06T08:06:02Z</time>
      </trkpt>
      <trkpt lat="45.2735" lon="6.41103">
        <ele>1318.3</ele>
        <time>2012-10-06T08:06:05Z</time>
      </trkpt>
      <trkpt lat="45.27356" lon="6.41107">
        <ele>1319</ele>
        <time>2012-10-06T08:06:08Z</time>
      </trkpt>
      <trkpt lat="45.27363" lon="6.41112">
        <ele>1319.7</ele>
        <time>2012-10-06T08:06:11Z</time>
      </trkpt>
      <trkpt lat="45.27369" lon="6.41117">
        <ele>1320.1</ele>
        <time>2012-10-06T08:06:14Z</time>
      </trkpt>
      <trkpt lat="45.27375" lon="6.41122">
        <ele>1320.6</ele>
        <time>2012-10-06T08:06:17Z</time>
      </trkpt>
      <trkpt lat="45.27381" lon="6.41128">
        <ele>1321.2</ele>
        <time>2012-10-06T08:06:20Z</time>
      </trkpt>
      <trkpt lat="45.27388" lon="6.41134">
        <ele>1321.4</ele>
        <time>2012-10-06T08:06:24Z</time>
      </trkpt>
      <trkpt lat="45.27396" lon="6.4114">
        <ele>1322.3</ele>
        <time>2012-10-06T08:06:45Z</time>
      </trkpt>
      <trkpt lat="45.27396" lon="6.4114">
        <ele>1322.1</ele>
        <time>2012-10-06T08:06:46Z</time>
      </trkpt>
      <trkpt lat="45.27411" lon="6.41141">
        <ele>1323.6</ele>
        <time>2012-10-06T08:07:01Z</time>
      </trkpt>
      <trkpt lat="45.27417" lon="6.41143">
        <ele>1323</ele>
        <time>2012-10-06T08:07:04Z</time>
      </trkpt>
      <trkpt lat="45.27424" lon="6.41145">
        <ele>1323</ele>
        <time>2012-10-06T08:07:07Z</time>
      </trkpt>
      <trkpt lat="45.27433" lon="6.41148">
        <ele>1324.2</ele>
        <time>2012-10-06T08:07:11Z</time>
      </trkpt>
      <trkpt lat="45.27441" lon="6.41151">
        <ele>1325.2</ele>
        <time>2012-10-06T08:07:15Z</time>
      </trkpt>
      <trkpt lat="45.2745" lon="6.41154">
        <ele>1325.4</ele>
        <time>2012-10-06T08:07:19Z</time>
      </trkpt>
      <trkpt lat="45.27458" lon="6.41158">
        <ele>1326.7</ele>
        <time>2012-10-06T08:07:23Z</time>
      </trkpt>
      <trkpt lat="45.27466" lon="6.41162">
        <ele>1327.8</ele>
        <time>2012-10-06T08:07:27Z</time>
      </trkpt>
      <trkpt lat="45.27474" lon="6.41168">
        <ele>1328.5</ele>
        <time>2012-10-06T08:07:31Z</time>
      </trkpt>
      <trkpt lat="45.27481" lon="6.41175">
        <ele>1328.8</ele>
        <time>2012-10-06T08:07:35Z</time>
      </trkpt>
      <trkpt lat="45.27487" lon="6.41185">
        <ele>1329.6</ele>
        <time>2012-10-06T08:07:39Z</time>
      </trkpt>
      <trkpt lat="45.2749" lon="6.41194">
        <ele>1330.4</ele>
        <time>2012-10-06T08:07:42Z</time>
      </trkpt>
      <trkpt lat="45.27492" lon="6.41203">
        <ele>1330.7</ele>
        <time>2012-10-06T08:07:45Z</time>
      </trkpt>
      <trkpt lat="45.27496" lon="6.41212">
        <ele>1331.1</ele>
        <time>2012-10-06T08:07:48Z</time>
      </trkpt>
      <trkpt lat="45.27498" lon="6.41215">
        <ele>1331.4</ele>
        <time>2012-10-06T08:07:49Z</time>
      </trkpt>
      <trkpt lat="45.2751" lon="6.41224">
        <ele>1331.7</ele>
        <time>2012-10-06T08:07:54Z</time>
      </trkpt>
      <trkpt lat="45.27518" lon="6.41226">
        <ele>1331.9</ele>
        <time>2012-10-06T08:07:57Z</time>
      </trkpt>
      <trkpt lat="45.27525" lon="6.41226">
        <ele>1332.2</ele>
        <time>2012-10-06T08:08:00Z</time>
      </trkpt>
      <trkpt lat="45.27533" lon="6.41228">
        <ele>1332.7</ele>
        <time>2012-10-06T08:08:03Z</time>
      </trkpt>
      <trkpt lat="45.27541" lon="6.41233">
        <ele>1333.1</ele>
        <time>2012-10-06T08:08:06Z</time>
      </trkpt>
      <trkpt lat="45.27546" lon="6.41243">
        <ele>1333.2</ele>
        <time>2012-10-06T08:08:09Z</time>
      </trkpt>
      <trkpt lat="45.27549" lon="6.41254">
        <ele>1333.5</ele>
        <time>2012-10-06T08:08:12Z</time>
      </trkpt>
      <trkpt lat="45.27551" lon="6.41262">
        <ele>1333.6</ele>
        <time>2012-10-06T08:08:14Z</time>
      </trkpt>
      <trkpt lat="45.27553" lon="6.41271">
        <ele>1333.9</ele>
        <time>2012-10-06T08:08:16Z</time>
      </trkpt>
      <trkpt lat="45.27555" lon="6.41279">
        <ele>1333.4</ele>
        <time>2012-10-06T08:08:18Z</time>
      </trkpt>
      <trkpt lat="45.2756" lon="6.41286">
        <ele>1333.5</ele>
        <time>2012-10-06T08:08:20Z</time>
      </trkpt>
      <trkpt lat="45.27565" lon="6.41292">
        <ele>1333.6</ele>
        <time>2012-10-06T08:08:22Z</time>
      </trkpt>
      <trkpt lat="45.27571" lon="6.41296">
        <ele>1333.6</ele>
        <time>2012-10-06T08:08:24Z</time>
      </trkpt>
      <trkpt lat="45.27577" lon="6.413">
        <ele>1333.3</ele>
        <time>2012-10-06T08:08:26Z</time>
      </trkpt>
      <trkpt lat="45.27586" lon="6.41303">
        <ele>1333.3</ele>
        <time>2012-10-06T08:08:29Z</time>
      </trkpt>
      <trkpt lat="45.27594" lon="6.41305">
        <ele>1333.7</ele>
        <time>2012-10-06T08:08:32Z</time>
      </trkpt>
      <trkpt lat="45.27602" lon="6.41307">
        <ele>1334.3</ele>
        <time>2012-10-06T08:08:35Z</time>
      </trkpt>
      <trkpt lat="45.27609" lon="6.41312">
        <ele>1334.7</ele>
        <time>2012-10-06T08:08:38Z</time>
      </trkpt>
      <trkpt lat="45.27614" lon="6.4132">
        <ele>1335.5</ele>
        <time>2012-10-06T08:08:41Z</time>
      </trkpt>
      <trkpt lat="45.27617" lon="6.4133">
        <ele>1336</ele>
        <time>2012-10-06T08:08:44Z</time>
      </trkpt>
      <trkpt lat="45.27617" lon="6.4134">
        <ele>1336</ele>
        <time>2012-10-06T08:08:47Z</time>
      </trkpt>
      <trkpt lat="45.27616" lon="6.41353">
        <ele>1336.1</ele>
        <time>2012-10-06T08:08:51Z</time>
      </trkpt>
      <trkpt lat="45.27617" lon="6.41356">
        <ele>1336.2</ele>
        <time>2012-10-06T08:08:52Z</time>
      </trkpt>
      <trkpt lat="45.27621" lon="6.41372">
        <ele>1336</ele>
        <time>2012-10-06T08:08:56Z</time>
      </trkpt>
      <trkpt lat="45.27626" lon="6.41379">
        <ele>1335.9</ele>
        <time>2012-10-06T08:08:58Z</time>
      </trkpt>
      <trkpt lat="45.27634" lon="6.41385">
        <ele>1335.9</ele>
        <time>2012-10-06T08:09:00Z</time>
      </trkpt>
      <trkpt lat="45.27638" lon="6.41388">
        <ele>1336</ele>
        <time>2012-10-06T08:09:01Z</time>
      </trkpt>
      <trkpt lat="45.27642" lon="6.41392">
        <ele>1336</ele>
        <time>2012-10-06T08:09:02Z</time>
      </trkpt>
      <trkpt lat="45.27645" lon="6.41396">
        <ele>1335.5</ele>
        <time>2012-10-06T08:09:03Z</time>
      </trkpt>
      <trkpt lat="45.27651" lon="6.41404">
        <ele>1334.6</ele>
        <time>2012-10-06T08:09:05Z</time>
      </trkpt>
      <trkpt lat="45.27654" lon="6.41414">
        <ele>1334.2</ele>
        <time>2012-10-06T08:09:09Z</time>
      </trkpt>
      <trkpt lat="45.27659" lon="6.41423">
        <ele>1334.3</ele>
        <time>2012-10-06T08:09:13Z</time>
      </trkpt>
      <trkpt lat="45.27665" lon="6.41431">
        <ele>1335.4</ele>
        <time>2012-10-06T08:09:18Z</time>
      </trkpt>
      <trkpt lat="45.27672" lon="6.41439">
        <ele>1337.4</ele>
        <time>2012-10-06T08:09:23Z</time>
      </trkpt>
      <trkpt lat="45.27675" lon="6.4145">
        <ele>1338.8</ele>
        <time>2012-10-06T08:09:29Z</time>
      </trkpt>
      <trkpt lat="45.27677" lon="6.4146">
        <ele>1339.7</ele>
        <time>2012-10-06T08:09:34Z</time>
      </trkpt>
      <trkpt lat="45.2768" lon="6.41471">
        <ele>1340.5</ele>
        <time>2012-10-06T08:09:39Z</time>
      </trkpt>
      <trkpt lat="45.27685" lon="6.41479">
        <ele>1340.9</ele>
        <time>2012-10-06T08:09:43Z</time>
      </trkpt>
      <trkpt lat="45.27691" lon="6.41485">
        <ele>1341</ele>
        <time>2012-10-06T08:09:47Z</time>
      </trkpt>
      <trkpt lat="45.27698" lon="6.41491">
        <ele>1341.3</ele>
        <time>2012-10-06T08:09:51Z</time>
      </trkpt>
      <trkpt lat="45.27704" lon="6.41497">
        <ele>1341.4</ele>
        <time>2012-10-06T08:09:55Z</time>
      </trkpt>
      <trkpt lat="45.27706" lon="6.41498">
        <ele>1341.3</ele>
        <time>2012-10-06T08:09:56Z</time>
      </trkpt>
      <trkpt lat="45.27717" lon="6.4151">
        <ele>1343.8</ele>
        <time>2012-10-06T08:10:06Z</time>
      </trkpt>
      <trkpt lat="45.27725" lon="6.41514">
        <ele>1345.8</ele>
        <time>2012-10-06T08:10:11Z</time>
      </trkpt>
      <trkpt lat="45.27733" lon="6.41517">
        <ele>1346.6</ele>
        <time>2012-10-06T08:10:17Z</time>
      </trkpt>
      <trkpt lat="45.27741" lon="6.41522">
        <ele>1348.1</ele>
        <time>2012-10-06T08:10:22Z</time>
      </trkpt>
      <trkpt lat="45.27746" lon="6.4153">
        <ele>1348.4</ele>
        <time>2012-10-06T08:10:26Z</time>
      </trkpt>
      <trkpt lat="45.2775" lon="6.41541">
        <ele>1349.6</ele>
        <time>2012-10-06T08:10:31Z</time>
      </trkpt>
      <trkpt lat="45.27756" lon="6.41551">
        <ele>1351</ele>
        <time>2012-10-06T08:10:37Z</time>
      </trkpt>
      <trkpt lat="45.27762" lon="6.41561">
        <ele>1352.8</ele>
        <time>2012-10-06T08:10:43Z</time>
      </trkpt>
      <trkpt lat="45.27763" lon="6.41572">
        <ele>1354</ele>
        <time>2012-10-06T08:10:49Z</time>
      </trkpt>
      <trkpt lat="45.27761" lon="6.41585">
        <ele>1355.8</ele>
        <time>2012-10-06T08:10:56Z</time>
      </trkpt>
      <trkpt lat="45.2776" lon="6.41586">
        <ele>1356.1</ele>
        <time>2012-10-06T08:10:57Z</time>
      </trkpt>
      <trkpt lat="45.2776" lon="6.41609">
        <ele>1356.8</ele>
        <time>2012-10-06T08:11:07Z</time>
      </trkpt>
      <trkpt lat="45.2776" lon="6.4162">
        <ele>1358.1</ele>
        <time>2012-10-06T08:11:12Z</time>
      </trkpt>
      <trkpt lat="45.27759" lon="6.41632">
        <ele>1359.2</ele>
        <time>2012-10-06T08:11:17Z</time>
      </trkpt>
      <trkpt lat="45.27758" lon="6.41643">
        <ele>1360.1</ele>
        <time>2012-10-06T08:11:22Z</time>
      </trkpt>
      <trkpt lat="45.27756" lon="6.41653">
        <ele>1360.6</ele>
        <time>2012-10-06T08:11:27Z</time>
      </trkpt>
      <trkpt lat="45.27756" lon="6.41664">
        <ele>1362.1</ele>
        <time>2012-10-06T08:11:32Z</time>
      </trkpt>
      <trkpt lat="45.27757" lon="6.41675">
        <ele>1362.9</ele>
        <time>2012-10-06T08:11:37Z</time>
      </trkpt>
      <trkpt lat="45.27757" lon="6.41686">
        <ele>1363.6</ele>
        <time>2012-10-06T08:11:42Z</time>
      </trkpt>
      <trkpt lat="45.27758" lon="6.41699">
        <ele>1364.8</ele>
        <time>2012-10-06T08:11:48Z</time>
      </trkpt>
      <trkpt lat="45.27756" lon="6.41709">
        <ele>1365.5</ele>
        <time>2012-10-06T08:11:53Z</time>
      </trkpt>
      <trkpt lat="45.27751" lon="6.41719">
        <ele>1366</ele>
        <time>2012-10-06T08:11:58Z</time>
      </trkpt>
      <trkpt lat="45.2775" lon="6.41721">
        <ele>1366</ele>
        <time>2012-10-06T08:11:59Z</time>
      </trkpt>
      <trkpt lat="45.27742" lon="6.41738">
        <ele>1369.2</ele>
        <time>2012-10-06T08:12:11Z</time>
      </trkpt>
      <trkpt lat="45.27741" lon="6.4175">
        <ele>1370.6</ele>
        <time>2012-10-06T08:12:19Z</time>
      </trkpt>
      <trkpt lat="45.27739" lon="6.41761">
        <ele>1372</ele>
        <time>2012-10-06T08:12:26Z</time>
      </trkpt>
      <trkpt lat="45.27737" lon="6.41771">
        <ele>1372.7</ele>
        <time>2012-10-06T08:12:32Z</time>
      </trkpt>
      <trkpt lat="45.27736" lon="6.41783">
        <ele>1373.4</ele>
        <time>2012-10-06T08:12:38Z</time>
      </trkpt>
      <trkpt lat="45.27735" lon="6.41795">
        <ele>1374.5</ele>
        <time>2012-10-06T08:12:44Z</time>
      </trkpt>
      <trkpt lat="45.27735" lon="6.41808">
        <ele>1376.3</ele>
        <time>2012-10-06T08:12:50Z</time>
      </trkpt>
      <trkpt lat="45.27735" lon="6.4182">
        <ele>1377.5</ele>
        <time>2012-10-06T08:12:56Z</time>
      </trkpt>
      <trkpt lat="45.27735" lon="6.4183">
        <ele>1378.1</ele>
        <time>2012-10-06T08:13:01Z</time>
      </trkpt>
      <trkpt lat="45.27735" lon="6.41833">
        <ele>1378.4</ele>
        <time>2012-10-06T08:13:02Z</time>
      </trkpt>
      <trkpt lat="45.27734" lon="6.41854">
        <ele>1380.3</ele>
        <time>2012-10-06T08:13:13Z</time>
      </trkpt>
      <trkpt lat="45.27733" lon="6.41867">
        <ele>1381.8</ele>
        <time>2012-10-06T08:13:20Z</time>
      </trkpt>
      <trkpt lat="45.27733" lon="6.41879">
        <ele>1382.7</ele>
        <time>2012-10-06T08:13:27Z</time>
      </trkpt>
      <trkpt lat="45.27732" lon="6.4189">
        <ele>1383.9</ele>
        <time>2012-10-06T08:13:33Z</time>
      </trkpt>
      <trkpt lat="45.27733" lon="6.41901">
        <ele>1385.2</ele>
        <time>2012-10-06T08:13:39Z</time>
      </trkpt>
      <trkpt lat="45.27724" lon="6.41904">
        <ele>1386.7</ele>
        <time>2012-10-06T08:13:50Z</time>
      </trkpt>
      <trkpt lat="45.27718" lon="6.41895">
        <ele>1388.6</ele>
        <time>2012-10-06T08:13:59Z</time>
      </trkpt>
      <trkpt lat="45.27714" lon="6.41886">
        <ele>1390.2</ele>
        <time>2012-10-06T08:14:07Z</time>
      </trkpt>
      <trkpt lat="45.27713" lon="6.41885">
        <ele>1390.2</ele>
        <time>2012-10-06T08:14:08Z</time>
      </trkpt>
      <trkpt lat="45.27708" lon="6.41865">
        <ele>1393.6</ele>
        <time>2012-10-06T08:14:23Z</time>
      </trkpt>
      <trkpt lat="45.27708" lon="6.41853">
        <ele>1396.5</ele>
        <time>2012-10-06T08:14:30Z</time>
      </trkpt>
      <trkpt lat="45.27705" lon="6.41842">
        <ele>1397.7</ele>
        <time>2012-10-06T08:14:38Z</time>
      </trkpt>
      <trkpt lat="45.27701" lon="6.41832">
        <ele>1399.4</ele>
        <time>2012-10-06T08:14:45Z</time>
      </trkpt>
      <trkpt lat="45.27698" lon="6.41822">
        <ele>1400.6</ele>
        <time>2012-10-06T08:14:51Z</time>
      </trkpt>
      <trkpt lat="45.27695" lon="6.4181">
        <ele>1402.3</ele>
        <time>2012-10-06T08:14:59Z</time>
      </trkpt>
      <trkpt lat="45.27691" lon="6.41799">
        <ele>1403.4</ele>
        <time>2012-10-06T08:15:08Z</time>
      </trkpt>
      <trkpt lat="45.27691" lon="6.41797">
        <ele>1403.5</ele>
        <time>2012-10-06T08:15:09Z</time>
      </trkpt>
      <trkpt lat="45.27689" lon="6.41775">
        <ele>1405.4</ele>
        <time>2012-10-06T08:15:24Z</time>
      </trkpt>
      <trkpt lat="45.27688" lon="6.41763">
        <ele>1406.3</ele>
        <time>2012-10-06T08:15:31Z</time>
      </trkpt>
      <trkpt lat="45.27688" lon="6.4175">
        <ele>1408.8</ele>
        <time>2012-10-06T08:15:39Z</time>
      </trkpt>
      <trkpt lat="45.27688" lon="6.41738">
        <ele>1410</ele>
        <time>2012-10-06T08:15:47Z</time>
      </trkpt>
      <trkpt lat="45.27687" lon="6.41726">
        <ele>1411.5</ele>
        <time>2012-10-06T08:15:55Z</time>
      </trkpt>
      <trkpt lat="45.27686" lon="6.41713">
        <ele>1412.8</ele>
        <time>2012-10-06T08:16:04Z</time>
      </trkpt>
      <trkpt lat="45.27688" lon="6.41702">
        <ele>1414.7</ele>
        <time>2012-10-06T08:16:12Z</time>
      </trkpt>
      <trkpt lat="45.27688" lon="6.417">
        <ele>1415.1</ele>
        <time>2012-10-06T08:16:13Z</time>
      </trkpt>
      <trkpt lat="45.27685" lon="6.4168">
        <ele>1417.4</ele>
        <time>2012-10-06T08:16:26Z</time>
      </trkpt>
      <trkpt lat="45.27682" lon="6.4167">
        <ele>1418.9</ele>
        <time>2012-10-06T08:16:32Z</time>
      </trkpt>
      <trkpt lat="45.27678" lon="6.41659">
        <ele>1420.1</ele>
        <time>2012-10-06T08:16:39Z</time>
      </trkpt>
      <trkpt lat="45.27674" lon="6.41649">
        <ele>1421.7</ele>
        <time>2012-10-06T08:16:46Z</time>
      </trkpt>
      <trkpt lat="45.27665" lon="6.41645">
        <ele>1423.7</ele>
        <time>2012-10-06T08:16:55Z</time>
      </trkpt>
      <trkpt lat="45.27657" lon="6.41647">
        <ele>1424.3</ele>
        <time>2012-10-06T08:17:03Z</time>
      </trkpt>
      <trkpt lat="45.27649" lon="6.41649">
        <ele>1427.8</ele>
        <time>2012-10-06T08:17:12Z</time>
      </trkpt>
      <trkpt lat="45.2764" lon="6.41652">
        <ele>1429.4</ele>
        <time>2012-10-06T08:17:20Z</time>
      </trkpt>
      <trkpt lat="45.27639" lon="6.41653">
        <ele>1429.6</ele>
        <time>2012-10-06T08:17:21Z</time>
      </trkpt>
      <trkpt lat="45.27623" lon="6.41654">
        <ele>1432.6</ele>
        <time>2012-10-06T08:17:36Z</time>
      </trkpt>
      <trkpt lat="45.27615" lon="6.41656">
        <ele>1434.8</ele>
        <time>2012-10-06T08:17:44Z</time>
      </trkpt>
      <trkpt lat="45.27606" lon="6.41655">
        <ele>1436.7</ele>
        <time>2012-10-06T08:17:52Z</time>
      </trkpt>
      <trkpt lat="45.27598" lon="6.41654">
        <ele>1438.7</ele>
        <time>2012-10-06T08:17:58Z</time>
      </trkpt>
      <trkpt lat="45.2759" lon="6.41652">
        <ele>1439.8</ele>
        <time>2012-10-06T08:18:04Z</time>
      </trkpt>
      <trkpt lat="45.27582" lon="6.4165">
        <ele>1440.8</ele>
        <time>2012-10-06T08:18:10Z</time>
      </trkpt>
      <trkpt lat="45.27575" lon="6.41643">
        <ele>1442.1</ele>
        <time>2012-10-06T08:18:17Z</time>
      </trkpt>
      <trkpt lat="45.27572" lon="6.41632">
        <ele>1444.3</ele>
        <time>2012-10-06T08:18:26Z</time>
      </trkpt>
      <trkpt lat="45.27571" lon="6.4163">
        <ele>1444.3</ele>
        <time>2012-10-06T08:18:27Z</time>
      </trkpt>
      <trkpt lat="45.27561" lon="6.41614">
        <ele>1447.6</ele>
        <time>2012-10-06T08:18:42Z</time>
      </trkpt>
      <trkpt lat="45.27556" lon="6.41604">
        <ele>1448.7</ele>
        <time>2012-10-06T08:18:50Z</time>
      </trkpt>
      <trkpt lat="45.27552" lon="6.41593">
        <ele>1450.8</ele>
        <time>2012-10-06T08:18:58Z</time>
      </trkpt>
      <trkpt lat="45.27548" lon="6.41582">
        <ele>1452.8</ele>
        <time>2012-10-06T08:19:06Z</time>
      </trkpt>
      <trkpt lat="45.27544" lon="6.41571">
        <ele>1454.5</ele>
        <time>2012-10-06T08:19:14Z</time>
      </trkpt>
      <trkpt lat="45.27539" lon="6.4156">
        <ele>1456.8</ele>
        <time>2012-10-06T08:19:22Z</time>
      </trkpt>
      <trkpt lat="45.27533" lon="6.41553">
        <ele>1457.9</ele>
        <time>2012-10-06T08:19:28Z</time>
      </trkpt>
      <trkpt lat="45.27532" lon="6.41552">
        <ele>1458.1</ele>
        <time>2012-10-06T08:19:29Z</time>
      </trkpt>
      <trkpt lat="45.27517" lon="6.41547">
        <ele>1460.7</ele>
        <time>2012-10-06T08:19:41Z</time>
      </trkpt>
      <trkpt lat="45.27509" lon="6.41546">
        <ele>1462.2</ele>
        <time>2012-10-06T08:19:48Z</time>
      </trkpt>
      <trkpt lat="45.27501" lon="6.4155">
        <ele>1463.9</ele>
        <time>2012-10-06T08:19:56Z</time>
      </trkpt>
      <trkpt lat="45.27494" lon="6.41555">
        <ele>1464.9</ele>
        <time>2012-10-06T08:20:05Z</time>
      </trkpt>
      <trkpt lat="45.27485" lon="6.41557">
        <ele>1465.9</ele>
        <time>2012-10-06T08:20:13Z</time>
      </trkpt>
      <trkpt lat="45.27476" lon="6.41559">
        <ele>1467.7</ele>
        <time>2012-10-06T08:20:21Z</time>
      </trkpt>
      <trkpt lat="45.27468" lon="6.41558">
        <ele>1469.6</ele>
        <time>2012-10-06T08:20:29Z</time>
      </trkpt>
      <trkpt lat="45.27467" lon="6.41558">
        <ele>1469.7</ele>
        <time>2012-10-06T08:20:30Z</time>
      </trkpt>
      <trkpt lat="45.27452" lon="6.41553">
        <ele>1472.6</ele>
        <time>2012-10-06T08:20:44Z</time>
      </trkpt>
      <trkpt lat="45.27444" lon="6.41549">
        <ele>1474.2</ele>
        <time>2012-10-06T08:20:52Z</time>
      </trkpt>
      <trkpt lat="45.27437" lon="6.41545">
        <ele>1476.2</ele>
        <time>2012-10-06T08:21:00Z</time>
      </trkpt>
      <trkpt lat="45.27428" lon="6.41541">
        <ele>1478.3</ele>
        <time>2012-10-06T08:21:08Z</time>
      </trkpt>
      <trkpt lat="45.2742" lon="6.41541">
        <ele>1480.3</ele>
        <time>2012-10-06T08:21:16Z</time>
      </trkpt>
      <trkpt lat="45.27411" lon="6.41542">
        <ele>1481.9</ele>
        <time>2012-10-06T08:21:24Z</time>
      </trkpt>
      <trkpt lat="45.27403" lon="6.41539">
        <ele>1483.9</ele>
        <time>2012-10-06T08:21:32Z</time>
      </trkpt>
      <trkpt lat="45.27402" lon="6.41539">
        <ele>1484.1</ele>
        <time>2012-10-06T08:21:33Z</time>
      </trkpt>
      <trkpt lat="45.27388" lon="6.41529">
        <ele>1486.7</ele>
        <time>2012-10-06T08:21:49Z</time>
      </trkpt>
      <trkpt lat="45.2738" lon="6.41528">
        <ele>1488.8</ele>
        <time>2012-10-06T08:21:57Z</time>
      </trkpt>
      <trkpt lat="45.27371" lon="6.41526">
        <ele>1490.3</ele>
        <time>2012-10-06T08:22:05Z</time>
      </trkpt>
      <trkpt lat="45.27362" lon="6.41525">
        <ele>1492.7</ele>
        <time>2012-10-06T08:22:14Z</time>
      </trkpt>
      <trkpt lat="45.27354" lon="6.41525">
        <ele>1494</ele>
        <time>2012-10-06T08:22:22Z</time>
      </trkpt>
      <trkpt lat="45.27346" lon="6.41523">
        <ele>1496.2</ele>
        <time>2012-10-06T08:22:30Z</time>
      </trkpt>
      <trkpt lat="45.27337" lon="6.41521">
        <ele>1498.2</ele>
        <time>2012-10-06T08:22:38Z</time>
      </trkpt>
      <trkpt lat="45.27336" lon="6.41521">
        <ele>1498.2</ele>
        <time>2012-10-06T08:22:39Z</time>
      </trkpt>
      <trkpt lat="45.27322" lon="6.41512">
        <ele>1499.2</ele>
        <time>2012-10-06T08:22:52Z</time>
      </trkpt>
      <trkpt lat="45.27315" lon="6.41505">
        <ele>1499.9</ele>
        <time>2012-10-06T08:22:59Z</time>
      </trkpt>
      <trkpt lat="45.27308" lon="6.415">
        <ele>1501.6</ele>
        <time>2012-10-06T08:23:06Z</time>
      </trkpt>
      <trkpt lat="45.273" lon="6.41496">
        <ele>1503</ele>
        <time>2012-10-06T08:23:13Z</time>
      </trkpt>
      <trkpt lat="45.27292" lon="6.4149">
        <ele>1505.1</ele>
        <time>2012-10-06T08:23:21Z</time>
      </trkpt>
      <trkpt lat="45.27284" lon="6.41487">
        <ele>1505.2</ele>
        <time>2012-10-06T08:23:28Z</time>
      </trkpt>
      <trkpt lat="45.27276" lon="6.41484">
        <ele>1505.5</ele>
        <time>2012-10-06T08:23:35Z</time>
      </trkpt>
      <trkpt lat="45.27267" lon="6.41483">
        <ele>1505.6</ele>
        <time>2012-10-06T08:24:29Z</time>
      </trkpt>
      <trkpt lat="45.27267" lon="6.41483">
        <ele>1505.3</ele>
        <time>2012-10-06T08:24:30Z</time>
      </trkpt>
      <trkpt lat="45.27257" lon="6.41486">
        <ele>1508</ele>
        <time>2012-10-06T08:28:44Z</time>
      </trkpt>
      <trkpt lat="45.27243" lon="6.41492">
        <ele>1508.7</ele>
        <time>2012-10-06T08:28:55Z</time>
      </trkpt>
      <trkpt lat="45.27234" lon="6.41493">
        <ele>1509.8</ele>
        <time>2012-10-06T08:29:01Z</time>
      </trkpt>
      <trkpt lat="45.27226" lon="6.41494">
        <ele>1510.6</ele>
        <time>2012-10-06T08:29:07Z</time>
      </trkpt>
      <trkpt lat="45.27215" lon="6.41495">
        <ele>1512.1</ele>
        <time>2012-10-06T08:29:15Z</time>
      </trkpt>
      <trkpt lat="45.27207" lon="6.41497">
        <ele>1513.5</ele>
        <time>2012-10-06T08:29:21Z</time>
      </trkpt>
      <trkpt lat="45.272" lon="6.41498">
        <ele>1515.2</ele>
        <time>2012-10-06T08:29:27Z</time>
      </trkpt>
      <trkpt lat="45.27191" lon="6.41496">
        <ele>1516.7</ele>
        <time>2012-10-06T08:29:34Z</time>
      </trkpt>
      <trkpt lat="45.27182" lon="6.41499">
        <ele>1518.8</ele>
        <time>2012-10-06T08:29:41Z</time>
      </trkpt>
      <trkpt lat="45.27174" lon="6.41498">
        <ele>1520.7</ele>
        <time>2012-10-06T08:29:48Z</time>
      </trkpt>
      <trkpt lat="45.27173" lon="6.41498">
        <ele>1520.8</ele>
        <time>2012-10-06T08:29:49Z</time>
      </trkpt>
      <trkpt lat="45.27158" lon="6.41501">
        <ele>1523.7</ele>
        <time>2012-10-06T08:30:02Z</time>
      </trkpt>
      <trkpt lat="45.27149" lon="6.41504">
        <ele>1525.8</ele>
        <time>2012-10-06T08:30:09Z</time>
      </trkpt>
      <trkpt lat="45.27142" lon="6.41509">
        <ele>1526.7</ele>
        <time>2012-10-06T08:30:16Z</time>
      </trkpt>
      <trkpt lat="45.27134" lon="6.41515">
        <ele>1528.9</ele>
        <time>2012-10-06T08:30:23Z</time>
      </trkpt>
      <trkpt lat="45.27127" lon="6.41519">
        <ele>1530.6</ele>
        <time>2012-10-06T08:30:31Z</time>
      </trkpt>
      <trkpt lat="45.27119" lon="6.41523">
        <ele>1531.7</ele>
        <time>2012-10-06T08:30:38Z</time>
      </trkpt>
      <trkpt lat="45.27111" lon="6.41527">
        <ele>1533.3</ele>
        <time>2012-10-06T08:30:46Z</time>
      </trkpt>
      <trkpt lat="45.27104" lon="6.41532">
        <ele>1534.9</ele>
        <time>2012-10-06T08:30:53Z</time>
      </trkpt>
      <trkpt lat="45.27102" lon="6.41532">
        <ele>1534.9</ele>
        <time>2012-10-06T08:30:54Z</time>
      </trkpt>
      <trkpt lat="45.27088" lon="6.41539">
        <ele>1535.9</ele>
        <time>2012-10-06T08:31:06Z</time>
      </trkpt>
      <trkpt lat="45.27081" lon="6.41543">
        <ele>1537.4</ele>
        <time>2012-10-06T08:31:11Z</time>
      </trkpt>
      <trkpt lat="45.27072" lon="6.41545">
        <ele>1537.8</ele>
        <time>2012-10-06T08:31:16Z</time>
      </trkpt>
      <trkpt lat="45.27064" lon="6.41548">
        <ele>1538.6</ele>
        <time>2012-10-06T08:31:22Z</time>
      </trkpt>
      <trkpt lat="45.27055" lon="6.41552">
        <ele>1538.9</ele>
        <time>2012-10-06T08:31:29Z</time>
      </trkpt>
      <trkpt lat="45.27048" lon="6.41555">
        <ele>1540</ele>
        <time>2012-10-06T08:31:35Z</time>
      </trkpt>
      <trkpt lat="45.27041" lon="6.41561">
        <ele>1541.4</ele>
        <time>2012-10-06T08:31:41Z</time>
      </trkpt>
      <trkpt lat="45.27033" lon="6.41564">
        <ele>1543</ele>
        <time>2012-10-06T08:31:49Z</time>
      </trkpt>
      <trkpt lat="45.27025" lon="6.41565">
        <ele>1544.6</ele>
        <time>2012-10-06T08:31:56Z</time>
      </trkpt>
      <trkpt lat="45.27024" lon="6.41564">
        <ele>1544.7</ele>
        <time>2012-10-06T08:31:57Z</time>
      </trkpt>
      <trkpt lat="45.27009" lon="6.4157">
        <ele>1547.2</ele>
        <time>2012-10-06T08:32:09Z</time>
      </trkpt>
      <trkpt lat="45.27001" lon="6.41574">
        <ele>1548.7</ele>
        <time>2012-10-06T08:32:17Z</time>
      </trkpt>
      <trkpt lat="45.26993" lon="6.41579">
        <ele>1550</ele>
        <time>2012-10-06T08:32:26Z</time>
      </trkpt>
      <trkpt lat="45.26985" lon="6.41583">
        <ele>1552.5</ele>
        <time>2012-10-06T08:32:34Z</time>
      </trkpt>
      <trkpt lat="45.26976" lon="6.41587">
        <ele>1553.6</ele>
        <time>2012-10-06T08:32:42Z</time>
      </trkpt>
      <trkpt lat="45.26968" lon="6.41591">
        <ele>1556.2</ele>
        <time>2012-10-06T08:32:50Z</time>
      </trkpt>
      <trkpt lat="45.2696" lon="6.41597">
        <ele>1557</ele>
        <time>2012-10-06T08:32:57Z</time>
      </trkpt>
      <trkpt lat="45.26952" lon="6.41601">
        <ele>1558.1</ele>
        <time>2012-10-06T08:33:04Z</time>
      </trkpt>
      <trkpt lat="45.26951" lon="6.41601">
        <ele>1558.4</ele>
        <time>2012-10-06T08:33:05Z</time>
      </trkpt>
      <trkpt lat="45.26936" lon="6.41606">
        <ele>1560.9</ele>
        <time>2012-10-06T08:33:19Z</time>
      </trkpt>
      <trkpt lat="45.26927" lon="6.41612">
        <ele>1561</ele>
        <time>2012-10-06T08:33:26Z</time>
      </trkpt>
      <trkpt lat="45.26919" lon="6.41616">
        <ele>1563</ele>
        <time>2012-10-06T08:33:34Z</time>
      </trkpt>
      <trkpt lat="45.26912" lon="6.41621">
        <ele>1564.9</ele>
        <time>2012-10-06T08:33:40Z</time>
      </trkpt>
      <trkpt lat="45.26905" lon="6.41628">
        <ele>1566.9</ele>
        <time>2012-10-06T08:33:45Z</time>
      </trkpt>
      <trkpt lat="45.26897" lon="6.41633">
        <ele>1568.3</ele>
        <time>2012-10-06T08:33:52Z</time>
      </trkpt>
      <trkpt lat="45.2689" lon="6.41637">
        <ele>1569.8</ele>
        <time>2012-10-06T08:33:59Z</time>
      </trkpt>
      <trkpt lat="45.26882" lon="6.41641">
        <ele>1571.3</ele>
        <time>2012-10-06T08:34:07Z</time>
      </trkpt>
      <trkpt lat="45.26881" lon="6.41642">
        <ele>1571.3</ele>
        <time>2012-10-06T08:34:08Z</time>
      </trkpt>
      <trkpt lat="45.26866" lon="6.41651">
        <ele>1574.9</ele>
        <time>2012-10-06T08:34:24Z</time>
      </trkpt>
      <trkpt lat="45.26858" lon="6.41654">
        <ele>1577.1</ele>
        <time>2012-10-06T08:34:33Z</time>
      </trkpt>
      <trkpt lat="45.2685" lon="6.41658">
        <ele>1579.3</ele>
        <time>2012-10-06T08:34:46Z</time>
      </trkpt>
      <trkpt lat="45.26842" lon="6.41662">
        <ele>1582</ele>
        <time>2012-10-06T08:34:57Z</time>
      </trkpt>
      <trkpt lat="45.26834" lon="6.41667">
        <ele>1583.7</ele>
        <time>2012-10-06T08:35:07Z</time>
      </trkpt>
      <trkpt lat="45.26826" lon="6.41673">
        <ele>1585.9</ele>
        <time>2012-10-06T08:35:18Z</time>
      </trkpt>
      <trkpt lat="45.26825" lon="6.41674">
        <ele>1586.1</ele>
        <time>2012-10-06T08:35:19Z</time>
      </trkpt>
      <trkpt lat="45.26815" lon="6.41691">
        <ele>1588.7</ele>
        <time>2012-10-06T08:35:42Z</time>
      </trkpt>
      <trkpt lat="45.2681" lon="6.41701">
        <ele>1590.4</ele>
        <time>2012-10-06T08:35:52Z</time>
      </trkpt>
      <trkpt lat="45.26804" lon="6.4171">
        <ele>1591.2</ele>
        <time>2012-10-06T08:36:00Z</time>
      </trkpt>
      <trkpt lat="45.26798" lon="6.41719">
        <ele>1593.9</ele>
        <time>2012-10-06T08:36:08Z</time>
      </trkpt>
      <trkpt lat="45.26792" lon="6.41726">
        <ele>1595.3</ele>
        <time>2012-10-06T08:36:15Z</time>
      </trkpt>
      <trkpt lat="45.2679" lon="6.41738">
        <ele>1597.3</ele>
        <time>2012-10-06T08:36:36Z</time>
      </trkpt>
      <trkpt lat="45.2679" lon="6.41739">
        <ele>1597.2</ele>
        <time>2012-10-06T08:36:37Z</time>
      </trkpt>
      <trkpt lat="45.26789" lon="6.41742">
        <ele>1598</ele>
        <time>2012-10-06T08:39:12Z</time>
      </trkpt>
      <trkpt lat="45.26788" lon="6.41742">
        <ele>1598</ele>
        <time>2012-10-06T08:39:13Z</time>
      </trkpt>
      <trkpt lat="45.26797" lon="6.41749">
        <ele>1597.8</ele>
        <time>2012-10-06T08:40:44Z</time>
      </trkpt>
      <trkpt lat="45.26788" lon="6.41741">
        <ele>1598.5</ele>
        <time>2012-10-06T08:41:50Z</time>
      </trkpt>
      <trkpt lat="45.26782" lon="6.41752">
        <ele>1598.8</ele>
        <time>2012-10-06T08:44:05Z</time>
      </trkpt>
      <trkpt lat="45.26786" lon="6.41771">
        <ele>1592.9</ele>
        <time>2012-10-06T08:44:35Z</time>
      </trkpt>
      <trkpt lat="45.26789" lon="6.41783">
        <ele>1590.7</ele>
        <time>2012-10-06T08:44:43Z</time>
      </trkpt>
      <trkpt lat="45.26791" lon="6.41795">
        <ele>1588.5</ele>
        <time>2012-10-06T08:44:48Z</time>
      </trkpt>
      <trkpt lat="45.26786" lon="6.41805">
        <ele>1581.9</ele>
        <time>2012-10-06T08:45:17Z</time>
      </trkpt>
      <trkpt lat="45.26786" lon="6.41806">
        <ele>1581.9</ele>
        <time>2012-10-06T08:45:18Z</time>
      </trkpt>
      <trkpt lat="45.26787" lon="6.41823">
        <ele>1579.6</ele>
        <time>2012-10-06T08:45:24Z</time>
      </trkpt>
      <trkpt lat="45.26788" lon="6.41832">
        <ele>1578.6</ele>
        <time>2012-10-06T08:45:26Z</time>
      </trkpt>
      <trkpt lat="45.2679" lon="6.41842">
        <ele>1577.4</ele>
        <time>2012-10-06T08:45:28Z</time>
      </trkpt>
      <trkpt lat="45.26794" lon="6.41852">
        <ele>1574.2</ele>
        <time>2012-10-06T08:45:32Z</time>
      </trkpt>
      <trkpt lat="45.26798" lon="6.41861">
        <ele>1571.7</ele>
        <time>2012-10-06T08:45:35Z</time>
      </trkpt>
      <trkpt lat="45.26804" lon="6.41868">
        <ele>1570.1</ele>
        <time>2012-10-06T08:45:37Z</time>
      </trkpt>
      <trkpt lat="45.26808" lon="6.41876">
        <ele>1568.8</ele>
        <time>2012-10-06T08:45:39Z</time>
      </trkpt>
      <trkpt lat="45.26812" lon="6.41887">
        <ele>1567.1</ele>
        <time>2012-10-06T08:45:42Z</time>
      </trkpt>
      <trkpt lat="45.26815" lon="6.41899">
        <ele>1565.6</ele>
        <time>2012-10-06T08:45:47Z</time>
      </trkpt>
      <trkpt lat="45.26816" lon="6.41909">
        <ele>1565.2</ele>
        <time>2012-10-06T08:45:50Z</time>
      </trkpt>
      <trkpt lat="45.2682" lon="6.41918">
        <ele>1564.7</ele>
        <time>2012-10-06T08:45:53Z</time>
      </trkpt>
      <trkpt lat="45.26822" lon="6.41929">
        <ele>1564.7</ele>
        <time>2012-10-06T08:45:56Z</time>
      </trkpt>
      <trkpt lat="45.26824" lon="6.41939">
        <ele>1564.8</ele>
        <time>2012-10-06T08:45:59Z</time>
      </trkpt>
      <trkpt lat="45.26825" lon="6.4195">
        <ele>1565.7</ele>
        <time>2012-10-06T08:46:04Z</time>
      </trkpt>
      <trkpt lat="45.26824" lon="6.41961">
        <ele>1565.8</ele>
        <time>2012-10-06T08:46:08Z</time>
      </trkpt>
      <trkpt lat="45.26821" lon="6.41973">
        <ele>1565.8</ele>
        <time>2012-10-06T08:46:13Z</time>
      </trkpt>
      <trkpt lat="45.26817" lon="6.41983">
        <ele>1565.6</ele>
        <time>2012-10-06T08:46:24Z</time>
      </trkpt>
      <trkpt lat="45.26817" lon="6.41984">
        <ele>1565.6</ele>
        <time>2012-10-06T08:46:25Z</time>
      </trkpt>
      <trkpt lat="45.26809" lon="6.42006">
        <ele>1564.1</ele>
        <time>2012-10-06T08:46:50Z</time>
      </trkpt>
      <trkpt lat="45.26805" lon="6.42016">
        <ele>1569.1</ele>
        <time>2012-10-06T08:47:17Z</time>
      </trkpt>
      <trkpt lat="45.26807" lon="6.42028">
        <ele>1570.6</ele>
        <time>2012-10-06T08:47:48Z</time>
      </trkpt>
      <trkpt lat="45.26807" lon="6.42029">
        <ele>1570.9</ele>
        <time>2012-10-06T08:47:49Z</time>
      </trkpt>
      <trkpt lat="45.2679" lon="6.4203">
        <ele>1575.9</ele>
        <time>2012-10-06T08:48:18Z</time>
      </trkpt>
      <trkpt lat="45.26785" lon="6.42041">
        <ele>1575.8</ele>
        <time>2012-10-06T08:48:32Z</time>
      </trkpt>
      <trkpt lat="45.26788" lon="6.42052">
        <ele>1576.9</ele>
        <time>2012-10-06T08:48:44Z</time>
      </trkpt>
      <trkpt lat="45.26792" lon="6.42063">
        <ele>1577.6</ele>
        <time>2012-10-06T08:48:53Z</time>
      </trkpt>
      <trkpt lat="45.26792" lon="6.42065">
        <ele>1578</ele>
        <time>2012-10-06T08:48:54Z</time>
      </trkpt>
      <trkpt lat="45.26795" lon="6.42087">
        <ele>1581.5</ele>
        <time>2012-10-06T08:49:46Z</time>
      </trkpt>
      <trkpt lat="45.26787" lon="6.4209">
        <ele>1581.9</ele>
        <time>2012-10-06T08:50:12Z</time>
      </trkpt>
      <trkpt lat="45.26786" lon="6.4209">
        <ele>1582</ele>
        <time>2012-10-06T08:50:13Z</time>
      </trkpt>
      <trkpt lat="45.26773" lon="6.42104">
        <ele>1584.6</ele>
        <time>2012-10-06T08:50:35Z</time>
      </trkpt>
      <trkpt lat="45.26765" lon="6.42109">
        <ele>1586.1</ele>
        <time>2012-10-06T08:50:46Z</time>
      </trkpt>
      <trkpt lat="45.26759" lon="6.42117">
        <ele>1587.2</ele>
        <time>2012-10-06T08:51:04Z</time>
      </trkpt>
      <trkpt lat="45.2676" lon="6.4213">
        <ele>1589.4</ele>
        <time>2012-10-06T08:51:18Z</time>
      </trkpt>
      <trkpt lat="45.26761" lon="6.42131">
        <ele>1589.7</ele>
        <time>2012-10-06T08:51:19Z</time>
      </trkpt>
      <trkpt lat="45.26763" lon="6.42153">
        <ele>1589.8</ele>
        <time>2012-10-06T08:51:38Z</time>
      </trkpt>
      <trkpt lat="45.26766" lon="6.42163">
        <ele>1588.2</ele>
        <time>2012-10-06T08:51:50Z</time>
      </trkpt>
      <trkpt lat="45.26765" lon="6.42175">
        <ele>1585.3</ele>
        <time>2012-10-06T08:52:03Z</time>
      </trkpt>
      <trkpt lat="45.26763" lon="6.42187">
        <ele>1585.1</ele>
        <time>2012-10-06T08:52:12Z</time>
      </trkpt>
      <trkpt lat="45.26766" lon="6.42198">
        <ele>1585.7</ele>
        <time>2012-10-06T08:52:19Z</time>
      </trkpt>
      <trkpt lat="45.26768" lon="6.42203">
        <ele>1586</ele>
        <time>2012-10-06T08:52:20Z</time>
      </trkpt>
      <trkpt lat="45.26773" lon="6.42218">
        <ele>1584.8</ele>
        <time>2012-10-06T08:52:35Z</time>
      </trkpt>
      <trkpt lat="45.26777" lon="6.42228">
        <ele>1585</ele>
        <time>2012-10-06T08:52:38Z</time>
      </trkpt>
      <trkpt lat="45.26781" lon="6.42236">
        <ele>1584.8</ele>
        <time>2012-10-06T08:52:40Z</time>
      </trkpt>
      <trkpt lat="45.26788" lon="6.42245">
        <ele>1584.2</ele>
        <time>2012-10-06T08:52:45Z</time>
      </trkpt>
      <trkpt lat="45.26793" lon="6.42252">
        <ele>1583.3</ele>
        <time>2012-10-06T08:52:48Z</time>
      </trkpt>
      <trkpt lat="45.26799" lon="6.42261">
        <ele>1582.9</ele>
        <time>2012-10-06T08:52:55Z</time>
      </trkpt>
      <trkpt lat="45.26802" lon="6.42273">
        <ele>1581.7</ele>
        <time>2012-10-06T08:53:15Z</time>
      </trkpt>
      <trkpt lat="45.26807" lon="6.42282">
        <ele>1582</ele>
        <time>2012-10-06T08:53:26Z</time>
      </trkpt>
      <trkpt lat="45.26809" lon="6.42285">
        <ele>1581.9</ele>
        <time>2012-10-06T08:53:27Z</time>
      </trkpt>
      <trkpt lat="45.26819" lon="6.42291">
        <ele>1581.5</ele>
        <time>2012-10-06T08:53:30Z</time>
      </trkpt>
      <trkpt lat="45.26824" lon="6.423">
        <ele>1581.1</ele>
        <time>2012-10-06T08:53:37Z</time>
      </trkpt>
      <trkpt lat="45.26828" lon="6.4231">
        <ele>1580.8</ele>
        <time>2012-10-06T08:53:42Z</time>
      </trkpt>
      <trkpt lat="45.26834" lon="6.4232">
        <ele>1581.1</ele>
        <time>2012-10-06T08:53:47Z</time>
      </trkpt>
      <trkpt lat="45.26838" lon="6.42327">
        <ele>1581.1</ele>
        <time>2012-10-06T08:53:50Z</time>
      </trkpt>
      <trkpt lat="45.26844" lon="6.42335">
        <ele>1581.8</ele>
        <time>2012-10-06T08:53:54Z</time>
      </trkpt>
      <trkpt lat="45.26852" lon="6.42342">
        <ele>1581.6</ele>
        <time>2012-10-06T08:53:58Z</time>
      </trkpt>
      <trkpt lat="45.26857" lon="6.42347">
        <ele>1581.2</ele>
        <time>2012-10-06T08:54:00Z</time>
      </trkpt>
      <trkpt lat="45.26865" lon="6.42355">
        <ele>1580.8</ele>
        <time>2012-10-06T08:54:03Z</time>
      </trkpt>
      <trkpt lat="45.26873" lon="6.42359">
        <ele>1580.2</ele>
        <time>2012-10-06T08:54:08Z</time>
      </trkpt>
      <trkpt lat="45.2688" lon="6.42362">
        <ele>1580.7</ele>
        <time>2012-10-06T08:54:16Z</time>
      </trkpt>
      <trkpt lat="45.26886" lon="6.4237">
        <ele>1579.4</ele>
        <time>2012-10-06T08:54:37Z</time>
      </trkpt>
      <trkpt lat="45.26888" lon="6.42371">
        <ele>1579.3</ele>
        <time>2012-10-06T08:54:38Z</time>
      </trkpt>
      <trkpt lat="45.26893" lon="6.42388">
        <ele>1577.9</ele>
        <time>2012-10-06T08:54:51Z</time>
      </trkpt>
      <trkpt lat="45.26896" lon="6.42397">
        <ele>1577.4</ele>
        <time>2012-10-06T08:54:53Z</time>
      </trkpt>
      <trkpt lat="45.26899" lon="6.42404">
        <ele>1576.3</ele>
        <time>2012-10-06T08:54:55Z</time>
      </trkpt>
      <trkpt lat="45.26904" lon="6.42414">
        <ele>1575.1</ele>
        <time>2012-10-06T08:54:57Z</time>
      </trkpt>
      <trkpt lat="45.26906" lon="6.42421">
        <ele>1574.6</ele>
        <time>2012-10-06T08:54:58Z</time>
      </trkpt>
      <trkpt lat="45.26907" lon="6.42432">
        <ele>1573.4</ele>
        <time>2012-10-06T08:55:00Z</time>
      </trkpt>
      <trkpt lat="45.26908" lon="6.42441">
        <ele>1570.8</ele>
        <time>2012-10-06T08:55:03Z</time>
      </trkpt>
      <trkpt lat="45.26905" lon="6.42451">
        <ele>1569.2</ele>
        <time>2012-10-06T08:55:05Z</time>
      </trkpt>
      <trkpt lat="45.26904" lon="6.4246">
        <ele>1567.6</ele>
        <time>2012-10-06T08:55:07Z</time>
      </trkpt>
      <trkpt lat="45.26905" lon="6.42472">
        <ele>1564.9</ele>
        <time>2012-10-06T08:55:10Z</time>
      </trkpt>
      <trkpt lat="45.26901" lon="6.42483">
        <ele>1560.3</ele>
        <time>2012-10-06T08:55:17Z</time>
      </trkpt>
      <trkpt lat="45.26894" lon="6.42488">
        <ele>1557</ele>
        <time>2012-10-06T08:55:35Z</time>
      </trkpt>
      <trkpt lat="45.26887" lon="6.42481">
        <ele>1555.9</ele>
        <time>2012-10-06T08:55:47Z</time>
      </trkpt>
      <trkpt lat="45.26886" lon="6.42478">
        <ele>1555.6</ele>
        <time>2012-10-06T08:55:48Z</time>
      </trkpt>
      <trkpt lat="45.26879" lon="6.42467">
        <ele>1554.7</ele>
        <time>2012-10-06T08:55:52Z</time>
      </trkpt>
      <trkpt lat="45.26876" lon="6.42455">
        <ele>1553.5</ele>
        <time>2012-10-06T08:55:55Z</time>
      </trkpt>
      <trkpt lat="45.26868" lon="6.42448">
        <ele>1551.6</ele>
        <time>2012-10-06T08:55:58Z</time>
      </trkpt>
      <trkpt lat="45.26863" lon="6.42442">
        <ele>1548.4</ele>
        <time>2012-10-06T08:56:02Z</time>
      </trkpt>
      <trkpt lat="45.26856" lon="6.42434">
        <ele>1545.9</ele>
        <time>2012-10-06T08:56:06Z</time>
      </trkpt>
      <trkpt lat="45.26849" lon="6.42429">
        <ele>1544.2</ele>
        <time>2012-10-06T08:56:09Z</time>
      </trkpt>
      <trkpt lat="45.26842" lon="6.42426">
        <ele>1542.7</ele>
        <time>2012-10-06T08:56:11Z</time>
      </trkpt>
      <trkpt lat="45.26833" lon="6.42423">
        <ele>1540.8</ele>
        <time>2012-10-06T08:56:14Z</time>
      </trkpt>
      <trkpt lat="45.26825" lon="6.42421">
        <ele>1537</ele>
        <time>2012-10-06T08:56:21Z</time>
      </trkpt>
      <trkpt lat="45.26826" lon="6.42431">
        <ele>1533.9</ele>
        <time>2012-10-06T08:56:31Z</time>
      </trkpt>
      <trkpt lat="45.26833" lon="6.42438">
        <ele>1532.5</ele>
        <time>2012-10-06T08:56:35Z</time>
      </trkpt>
      <trkpt lat="45.26825" lon="6.42439">
        <ele>1528.5</ele>
        <time>2012-10-06T08:56:52Z</time>
      </trkpt>
      <trkpt lat="45.26823" lon="6.42439">
        <ele>1528.1</ele>
        <time>2012-10-06T08:56:53Z</time>
      </trkpt>
      <trkpt lat="45.26809" lon="6.42439">
        <ele>1522.6</ele>
        <time>2012-10-06T08:57:04Z</time>
      </trkpt>
      <trkpt lat="45.268" lon="6.4244">
        <ele>1519.9</ele>
        <time>2012-10-06T08:57:13Z</time>
      </trkpt>
      <trkpt lat="45.26794" lon="6.42449">
        <ele>1514.9</ele>
        <time>2012-10-06T08:57:31Z</time>
      </trkpt>
      <trkpt lat="45.26786" lon="6.42446">
        <ele>1513.4</ele>
        <time>2012-10-06T08:57:35Z</time>
      </trkpt>
      <trkpt lat="45.26777" lon="6.42444">
        <ele>1512.4</ele>
        <time>2012-10-06T08:57:38Z</time>
      </trkpt>
      <trkpt lat="45.2677" lon="6.42448">
        <ele>1506.1</ele>
        <time>2012-10-06T08:57:49Z</time>
      </trkpt>
      <trkpt lat="45.26764" lon="6.42447">
        <ele>1505.9</ele>
        <time>2012-10-06T08:57:52Z</time>
      </trkpt>
      <trkpt lat="45.26757" lon="6.42442">
        <ele>1506</ele>
        <time>2012-10-06T08:57:55Z</time>
      </trkpt>
      <trkpt lat="45.26755" lon="6.42439">
        <ele>1505.4</ele>
        <time>2012-10-06T08:57:56Z</time>
      </trkpt>
      <trkpt lat="45.26742" lon="6.42446">
        <ele>1497.2</ele>
        <time>2012-10-06T08:58:07Z</time>
      </trkpt>
      <trkpt lat="45.26732" lon="6.42448">
        <ele>1495.8</ele>
        <time>2012-10-06T09:20:30Z</time>
      </trkpt>
      <trkpt lat="45.26725" lon="6.42448">
        <ele>1494.2</ele>
        <time>2012-10-06T09:20:32Z</time>
      </trkpt>
      <trkpt lat="45.26718" lon="6.42449">
        <ele>1493.1</ele>
        <time>2012-10-06T09:20:34Z</time>
      </trkpt>
      <trkpt lat="45.26711" lon="6.42448">
        <ele>1491</ele>
        <time>2012-10-06T09:20:36Z</time>
      </trkpt>
      <trkpt lat="45.26697" lon="6.42436">
        <ele>1484</ele>
        <time>2012-10-06T09:20:41Z</time>
      </trkpt>
      <trkpt lat="45.2668" lon="6.42419">
        <ele>1478</ele>
        <time>2012-10-06T09:20:46Z</time>
      </trkpt>
      <trkpt lat="45.26659" lon="6.42404">
        <ele>1472</ele>
        <time>2012-10-06T09:20:50Z</time>
      </trkpt>
      <trkpt lat="45.26641" lon="6.42396">
        <ele>1467</ele>
        <time>2012-10-06T09:20:54Z</time>
      </trkpt>
      <trkpt lat="45.26626" lon="6.42391">
        <ele>1464</ele>
        <time>2012-10-06T09:20:58Z</time>
      </trkpt>
      <trkpt lat="45.2662" lon="6.42391">
        <ele>1463.4</ele>
        <time>2012-10-06T09:21:00Z</time>
      </trkpt>
      <trkpt lat="45.26592" lon="6.42394">
        <ele>1456</ele>
        <time>2012-10-06T09:21:06Z</time>
      </trkpt>
      <trkpt lat="45.26582" lon="6.42394">
        <ele>1451</ele>
        <time>2012-10-06T09:21:10Z</time>
      </trkpt>
      <trkpt lat="45.26565" lon="6.4239">
        <ele>1446</ele>
        <time>2012-10-06T09:21:18Z</time>
      </trkpt>
      <trkpt lat="45.26549" lon="6.42386">
        <ele>1442</ele>
        <time>2012-10-06T09:21:22Z</time>
      </trkpt>
      <trkpt lat="45.26532" lon="6.42382">
        <ele>1438</ele>
        <time>2012-10-06T09:21:26Z</time>
      </trkpt>
      <trkpt lat="45.2652" lon="6.42379">
        <ele>1433</ele>
        <time>2012-10-06T09:21:30Z</time>
      </trkpt>
      <trkpt lat="45.26509" lon="6.42377">
        <ele>1428</ele>
        <time>2012-10-06T09:21:46Z</time>
      </trkpt>
      <trkpt lat="45.26499" lon="6.4238">
        <ele>1424</ele>
        <time>2012-10-06T09:22:10Z</time>
      </trkpt>
      <trkpt lat="45.26499" lon="6.4238">
        <ele>1424.6</ele>
        <time>2012-10-06T09:22:12Z</time>
      </trkpt>
      <trkpt lat="45.26498" lon="6.42385">
        <ele>1418.2</ele>
        <time>2012-10-06T09:23:00Z</time>
      </trkpt>
      <trkpt lat="45.26505" lon="6.42401">
        <ele>1414</ele>
        <time>2012-10-06T09:23:29Z</time>
      </trkpt>
      <trkpt lat="45.26506" lon="6.42403">
        <ele>1414.2</ele>
        <time>2012-10-06T09:23:31Z</time>
      </trkpt>
      <trkpt lat="45.26517" lon="6.42424">
        <ele>1411</ele>
        <time>2012-10-06T09:24:01Z</time>
      </trkpt>
      <trkpt lat="45.26506" lon="6.42418">
        <ele>1410</ele>
        <time>2012-10-06T09:24:09Z</time>
      </trkpt>
      <trkpt lat="45.2651" lon="6.42438">
        <ele>1404</ele>
        <time>2012-10-06T09:24:17Z</time>
      </trkpt>
      <trkpt lat="45.26514" lon="6.4245">
        <ele>1399</ele>
        <time>2012-10-06T09:24:25Z</time>
      </trkpt>
      <trkpt lat="45.26505" lon="6.42453">
        <ele>1395</ele>
        <time>2012-10-06T09:24:33Z</time>
      </trkpt>
      <trkpt lat="45.26501" lon="6.42452">
        <ele>1395.4</ele>
        <time>2012-10-06T09:24:35Z</time>
      </trkpt>
      <trkpt lat="45.26485" lon="6.42457">
        <ele>1388</ele>
        <time>2012-10-06T09:25:01Z</time>
      </trkpt>
      <trkpt lat="45.26482" lon="6.4247">
        <ele>1383</ele>
        <time>2012-10-06T09:25:21Z</time>
      </trkpt>
      <trkpt lat="45.26491" lon="6.42488">
        <ele>1380</ele>
        <time>2012-10-06T09:25:41Z</time>
      </trkpt>
      <trkpt lat="45.26492" lon="6.42489">
        <ele>1380.1</ele>
        <time>2012-10-06T09:25:43Z</time>
      </trkpt>
      <trkpt lat="45.26507" lon="6.42505">
        <ele>1376</ele>
        <time>2012-10-06T09:25:53Z</time>
      </trkpt>
      <trkpt lat="45.26499" lon="6.42511">
        <ele>1372</ele>
        <time>2012-10-06T09:26:01Z</time>
      </trkpt>
      <trkpt lat="45.26481" lon="6.42512">
        <ele>1367</ele>
        <time>2012-10-06T09:26:09Z</time>
      </trkpt>
      <trkpt lat="45.26471" lon="6.42517">
        <ele>1364</ele>
        <time>2012-10-06T09:26:13Z</time>
      </trkpt>
      <trkpt lat="45.26462" lon="6.42521">
        <ele>1360</ele>
        <time>2012-10-06T09:26:26Z</time>
      </trkpt>
      <trkpt lat="45.26457" lon="6.42534">
        <ele>1353</ele>
        <time>2012-10-06T09:26:55Z</time>
      </trkpt>
      <trkpt lat="45.26458" lon="6.42537">
        <ele>1352.6</ele>
        <time>2012-10-06T09:26:57Z</time>
      </trkpt>
      <trkpt lat="45.26454" lon="6.42561">
        <ele>1341</ele>
        <time>2012-10-06T09:27:31Z</time>
      </trkpt>
      <trkpt lat="45.26464" lon="6.42566">
        <ele>1341</ele>
        <time>2012-10-06T09:27:43Z</time>
      </trkpt>
      <trkpt lat="45.2645" lon="6.42566">
        <ele>1337</ele>
        <time>2012-10-06T09:28:14Z</time>
      </trkpt>
      <trkpt lat="45.2645" lon="6.42565">
        <ele>1337.6</ele>
        <time>2012-10-06T09:28:16Z</time>
      </trkpt>
      <trkpt lat="45.26428" lon="6.42548">
        <ele>1334</ele>
        <time>2012-10-06T09:28:26Z</time>
      </trkpt>
      <trkpt lat="45.26412" lon="6.42545">
        <ele>1329</ele>
        <time>2012-10-06T09:28:30Z</time>
      </trkpt>
      <trkpt lat="45.26402" lon="6.4254">
        <ele>1320</ele>
        <time>2012-10-06T09:34:22Z</time>
      </trkpt>
      <trkpt lat="45.26404" lon="6.42554">
        <ele>1321</ele>
        <time>2012-10-06T09:40:00Z</time>
      </trkpt>
      <trkpt lat="45.26404" lon="6.42554">
        <ele>1321.1</ele>
        <time>2012-10-06T09:40:02Z</time>
      </trkpt>
      <trkpt lat="45.2637" lon="6.42539">
        <ele>1315</ele>
        <time>2012-10-06T09:40:28Z</time>
      </trkpt>
      <trkpt lat="45.26357" lon="6.42537">
        <ele>1311</ele>
        <time>2012-10-06T09:40:32Z</time>
      </trkpt>
      <trkpt lat="45.26347" lon="6.4253">
        <ele>1307</ele>
        <time>2012-10-06T09:40:36Z</time>
      </trkpt>
      <trkpt lat="45.26333" lon="6.42519">
        <ele>1303</ele>
        <time>2012-10-06T09:40:40Z</time>
      </trkpt>
      <trkpt lat="45.26319" lon="6.42509">
        <ele>1298</ele>
        <time>2012-10-06T09:40:44Z</time>
      </trkpt>
      <trkpt lat="45.26311" lon="6.42498">
        <ele>1293</ele>
        <time>2012-10-06T09:40:48Z</time>
      </trkpt>
      <trkpt lat="45.26305" lon="6.42485">
        <ele>1291</ele>
        <time>2012-10-06T09:40:52Z</time>
      </trkpt>
      <trkpt lat="45.26288" lon="6.42471">
        <ele>1284</ele>
        <time>2012-10-06T09:41:00Z</time>
      </trkpt>
      <trkpt lat="45.26274" lon="6.42462">
        <ele>1280</ele>
        <time>2012-10-06T09:41:04Z</time>
      </trkpt>
      <trkpt lat="45.2627" lon="6.42459">
        <ele>1280.2</ele>
        <time>2012-10-06T09:41:06Z</time>
      </trkpt>
      <trkpt lat="45.26241" lon="6.42449">
        <ele>1273</ele>
        <time>2012-10-06T09:41:12Z</time>
      </trkpt>
      <trkpt lat="45.26216" lon="6.42439">
        <ele>1269</ele>
        <time>2012-10-06T09:41:16Z</time>
      </trkpt>
      <trkpt lat="45.26207" lon="6.42434">
        <ele>1267.6</ele>
        <time>2012-10-06T09:41:18Z</time>
      </trkpt>
      <trkpt lat="45.26201" lon="6.4243">
        <ele>1266.1</ele>
        <time>2012-10-06T09:41:19Z</time>
      </trkpt>
      <trkpt lat="45.26196" lon="6.42427">
        <ele>1265.1</ele>
        <time>2012-10-06T09:41:20Z</time>
      </trkpt>
      <trkpt lat="45.2619" lon="6.42426">
        <ele>1263.5</ele>
        <time>2012-10-06T09:41:21Z</time>
      </trkpt>
      <trkpt lat="45.26185" lon="6.42425">
        <ele>1262.3</ele>
        <time>2012-10-06T09:41:22Z</time>
      </trkpt>
      <trkpt lat="45.26178" lon="6.42425">
        <ele>1259.6</ele>
        <time>2012-10-06T09:41:24Z</time>
      </trkpt>
      <trkpt lat="45.26172" lon="6.42424">
        <ele>1256.5</ele>
        <time>2012-10-06T09:41:26Z</time>
      </trkpt>
      <trkpt lat="45.2617" lon="6.42413">
        <ele>1239.4</ele>
        <time>2012-10-06T09:41:42Z</time>
      </trkpt>
      <trkpt lat="45.26174" lon="6.42403">
        <ele>1236.6</ele>
        <time>2012-10-06T09:41:45Z</time>
      </trkpt>
      <trkpt lat="45.26178" lon="6.42395">
        <ele>1233.5</ele>
        <time>2012-10-06T09:41:48Z</time>
      </trkpt>
      <trkpt lat="45.26186" lon="6.42389">
        <ele>1229.7</ele>
        <time>2012-10-06T09:41:52Z</time>
      </trkpt>
      <trkpt lat="45.26194" lon="6.42386">
        <ele>1226.2</ele>
        <time>2012-10-06T09:41:58Z</time>
      </trkpt>
      <trkpt lat="45.26202" lon="6.42382">
        <ele>1223.1</ele>
        <time>2012-10-06T09:42:03Z</time>
      </trkpt>
      <trkpt lat="45.26209" lon="6.42374">
        <ele>1219.7</ele>
        <time>2012-10-06T09:42:08Z</time>
      </trkpt>
      <trkpt lat="45.2621" lon="6.42373">
        <ele>1218.6</ele>
        <time>2012-10-06T09:42:09Z</time>
      </trkpt>
      <trkpt lat="45.26208" lon="6.42349">
        <ele>1342.2</ele>
        <time>2012-10-06T09:43:01Z</time>
      </trkpt>
      <trkpt lat="45.26216" lon="6.42345">
        <ele>1342.7</ele>
        <time>2012-10-06T09:43:04Z</time>
      </trkpt>
      <trkpt lat="45.26223" lon="6.42345">
        <ele>1342.5</ele>
        <time>2012-10-06T09:43:06Z</time>
      </trkpt>
      <trkpt lat="45.2623" lon="6.42339">
        <ele>1340.1</ele>
        <time>2012-10-06T09:43:10Z</time>
      </trkpt>
      <trkpt lat="45.26235" lon="6.42329">
        <ele>1338.2</ele>
        <time>2012-10-06T09:43:13Z</time>
      </trkpt>
      <trkpt lat="45.26238" lon="6.42327">
        <ele>1337.6</ele>
        <time>2012-10-06T09:43:14Z</time>
      </trkpt>
      <trkpt lat="45.26243" lon="6.42308">
        <ele>1335.3</ele>
        <time>2012-10-06T09:43:18Z</time>
      </trkpt>
      <trkpt lat="45.26245" lon="6.42298">
        <ele>1333.3</ele>
        <time>2012-10-06T09:43:20Z</time>
      </trkpt>
      <trkpt lat="45.26247" lon="6.4229">
        <ele>1330.6</ele>
        <time>2012-10-06T09:43:22Z</time>
      </trkpt>
      <trkpt lat="45.26248" lon="6.42281">
        <ele>1328.3</ele>
        <time>2012-10-06T09:43:24Z</time>
      </trkpt>
      <trkpt lat="45.26251" lon="6.42272">
        <ele>1325.6</ele>
        <time>2012-10-06T09:43:26Z</time>
      </trkpt>
      <trkpt lat="45.26255" lon="6.42265">
        <ele>1322.5</ele>
        <time>2012-10-06T09:43:28Z</time>
      </trkpt>
      <trkpt lat="45.26257" lon="6.42252">
        <ele>1317</ele>
        <time>2012-10-06T09:43:32Z</time>
      </trkpt>
      <trkpt lat="45.26254" lon="6.42239">
        <ele>1311</ele>
        <time>2012-10-06T09:43:39Z</time>
      </trkpt>
      <trkpt lat="45.26242" lon="6.42247">
        <ele>1306</ele>
        <time>2012-10-06T09:43:47Z</time>
      </trkpt>
      <trkpt lat="45.26237" lon="6.4224">
        <ele>1304.2</ele>
        <time>2012-10-06T09:43:50Z</time>
      </trkpt>
      <trkpt lat="45.2623" lon="6.42227">
        <ele>1301</ele>
        <time>2012-10-06T09:43:53Z</time>
      </trkpt>
      <trkpt lat="45.26223" lon="6.42215">
        <ele>1296</ele>
        <time>2012-10-06T09:43:57Z</time>
      </trkpt>
      <trkpt lat="45.26207" lon="6.42212">
        <ele>1287</ele>
        <time>2012-10-06T09:44:05Z</time>
      </trkpt>
      <trkpt lat="45.26193" lon="6.42216">
        <ele>1280</ele>
        <time>2012-10-06T09:44:13Z</time>
      </trkpt>
      <trkpt lat="45.26178" lon="6.422">
        <ele>1273</ele>
        <time>2012-10-06T09:44:21Z</time>
      </trkpt>
      <trkpt lat="45.26172" lon="6.42196">
        <ele>1272.5</ele>
        <time>2012-10-06T09:44:23Z</time>
      </trkpt>
      <trkpt lat="45.26151" lon="6.42166">
        <ele>1264</ele>
        <time>2012-10-06T09:44:29Z</time>
      </trkpt>
      <trkpt lat="45.26145" lon="6.42149">
        <ele>1258</ele>
        <time>2012-10-06T09:44:33Z</time>
      </trkpt>
      <trkpt lat="45.26132" lon="6.42149">
        <ele>1249</ele>
        <time>2012-10-06T09:44:41Z</time>
      </trkpt>
      <trkpt lat="45.26123" lon="6.42157">
        <ele>1246</ele>
        <time>2012-10-06T09:44:45Z</time>
      </trkpt>
      <trkpt lat="45.26113" lon="6.42169">
        <ele>1242</ele>
        <time>2012-10-06T09:44:49Z</time>
      </trkpt>
      <trkpt lat="45.26107" lon="6.42177">
        <ele>1239.2</ele>
        <time>2012-10-06T09:44:53Z</time>
      </trkpt>
      <trkpt lat="45.26103" lon="6.42167">
        <ele>1235.9</ele>
        <time>2012-10-06T09:44:57Z</time>
      </trkpt>
      <trkpt lat="45.26102" lon="6.42156">
        <ele>1234.7</ele>
        <time>2012-10-06T09:45:00Z</time>
      </trkpt>
      <trkpt lat="45.26098" lon="6.42164">
        <ele>1224</ele>
        <time>2012-10-06T09:45:11Z</time>
      </trkpt>
      <trkpt lat="45.26097" lon="6.42174">
        <ele>1221.5</ele>
        <time>2012-10-06T09:45:14Z</time>
      </trkpt>
      <trkpt lat="45.26094" lon="6.42182">
        <ele>1219.5</ele>
        <time>2012-10-06T09:45:16Z</time>
      </trkpt>
      <trkpt lat="45.26089" lon="6.4219">
        <ele>1216.6</ele>
        <time>2012-10-06T09:45:19Z</time>
      </trkpt>
      <trkpt lat="45.26081" lon="6.42193">
        <ele>1210.6</ele>
        <time>2012-10-06T09:45:24Z</time>
      </trkpt>
      <trkpt lat="45.2608" lon="6.42193">
        <ele>1209.7</ele>
        <time>2012-10-06T09:45:25Z</time>
      </trkpt>
      <trkpt lat="45.26065" lon="6.42196">
        <ele>1203.2</ele>
        <time>2012-10-06T09:45:54Z</time>
      </trkpt>
      <trkpt lat="45.26058" lon="6.42194">
        <ele>1202.9</ele>
        <time>2012-10-06T09:45:57Z</time>
      </trkpt>
      <trkpt lat="45.2605" lon="6.42193">
        <ele>1202.1</ele>
        <time>2012-10-06T09:46:00Z</time>
      </trkpt>
      <trkpt lat="45.2605" lon="6.42181">
        <ele>1198.8</ele>
        <time>2012-10-06T09:46:05Z</time>
      </trkpt>
      <trkpt lat="45.26049" lon="6.42173">
        <ele>1196</ele>
        <time>2012-10-06T09:46:07Z</time>
      </trkpt>
      <trkpt lat="45.26048" lon="6.42162">
        <ele>1193.9</ele>
        <time>2012-10-06T09:46:09Z</time>
      </trkpt>
      <trkpt lat="45.26046" lon="6.42151">
        <ele>1192</ele>
        <time>2012-10-06T09:46:11Z</time>
      </trkpt>
      <trkpt lat="45.26045" lon="6.42143">
        <ele>1189.7</ele>
        <time>2012-10-06T09:46:13Z</time>
      </trkpt>
      <trkpt lat="45.26043" lon="6.42133">
        <ele>1187.8</ele>
        <time>2012-10-06T09:46:15Z</time>
      </trkpt>
      <trkpt lat="45.26041" lon="6.42124">
        <ele>1183.7</ele>
        <time>2012-10-06T09:46:18Z</time>
      </trkpt>
      <trkpt lat="45.26038" lon="6.42114">
        <ele>1180.1</ele>
        <time>2012-10-06T09:46:21Z</time>
      </trkpt>
      <trkpt lat="45.26037" lon="6.42101">
        <ele>1176.2</ele>
        <time>2012-10-06T09:46:24Z</time>
      </trkpt>
      <trkpt lat="45.26038" lon="6.42092">
        <ele>1172</ele>
        <time>2012-10-06T09:46:27Z</time>
      </trkpt>
      <trkpt lat="45.26037" lon="6.42087">
        <ele>1171.2</ele>
        <time>2012-10-06T09:46:28Z</time>
      </trkpt>
      <trkpt lat="45.2603" lon="6.42077">
        <ele>1165.3</ele>
        <time>2012-10-06T09:46:35Z</time>
      </trkpt>
      <trkpt lat="45.26026" lon="6.42071">
        <ele>1163</ele>
        <time>2012-10-06T09:46:38Z</time>
      </trkpt>
      <trkpt lat="45.26027" lon="6.42058">
        <ele>1160.5</ele>
        <time>2012-10-06T09:46:41Z</time>
      </trkpt>
      <trkpt lat="45.26029" lon="6.42047">
        <ele>1158.8</ele>
        <time>2012-10-06T09:46:43Z</time>
      </trkpt>
      <trkpt lat="45.26029" lon="6.42037">
        <ele>1156.5</ele>
        <time>2012-10-06T09:46:45Z</time>
      </trkpt>
      <trkpt lat="45.26025" lon="6.42026">
        <ele>1154</ele>
        <time>2012-10-06T09:46:48Z</time>
      </trkpt>
      <trkpt lat="45.26015" lon="6.42018">
        <ele>1148</ele>
        <time>2012-10-06T09:46:53Z</time>
      </trkpt>
      <trkpt lat="45.26006" lon="6.42019">
        <ele>1145.7</ele>
        <time>2012-10-06T09:46:57Z</time>
      </trkpt>
      <trkpt lat="45.26002" lon="6.42012">
        <ele>1143.8</ele>
        <time>2012-10-06T09:46:59Z</time>
      </trkpt>
      <trkpt lat="45.25999" lon="6.42004">
        <ele>1142.3</ele>
        <time>2012-10-06T09:47:01Z</time>
      </trkpt>
      <trkpt lat="45.25991" lon="6.41992">
        <ele>1138</ele>
        <time>2012-10-06T09:47:04Z</time>
      </trkpt>
      <trkpt lat="45.25983" lon="6.41988">
        <ele>1137.3</ele>
        <time>2012-10-06T09:47:07Z</time>
      </trkpt>
      <trkpt lat="45.25977" lon="6.41994">
        <ele>1135.1</ele>
        <time>2012-10-06T09:47:09Z</time>
      </trkpt>
      <trkpt lat="45.25972" lon="6.42004">
        <ele>1132.7</ele>
        <time>2012-10-06T09:47:11Z</time>
      </trkpt>
      <trkpt lat="45.25965" lon="6.4201">
        <ele>1130.6</ele>
        <time>2012-10-06T09:47:13Z</time>
      </trkpt>
      <trkpt lat="45.25958" lon="6.42016">
        <ele>1127.9</ele>
        <time>2012-10-06T09:47:15Z</time>
      </trkpt>
      <trkpt lat="45.25951" lon="6.4202">
        <ele>1124.8</ele>
        <time>2012-10-06T09:47:17Z</time>
      </trkpt>
      <trkpt lat="45.25947" lon="6.42024">
        <ele>1123.3</ele>
        <time>2012-10-06T09:47:18Z</time>
      </trkpt>
      <trkpt lat="45.25943" lon="6.4203">
        <ele>1122.3</ele>
        <time>2012-10-06T09:47:19Z</time>
      </trkpt>
      <trkpt lat="45.25939" lon="6.42035">
        <ele>1121.7</ele>
        <time>2012-10-06T09:47:20Z</time>
      </trkpt>
      <trkpt lat="45.25932" lon="6.42042">
        <ele>1120.1</ele>
        <time>2012-10-06T09:47:22Z</time>
      </trkpt>
      <trkpt lat="45.25927" lon="6.42037">
        <ele>1117.3</ele>
        <time>2012-10-06T09:47:25Z</time>
      </trkpt>
      <trkpt lat="45.25926" lon="6.42031">
        <ele>1116.7</ele>
        <time>2012-10-06T09:47:26Z</time>
      </trkpt>
      <trkpt lat="45.25926" lon="6.42023">
        <ele>1115.5</ele>
        <time>2012-10-06T09:47:27Z</time>
      </trkpt>
      <trkpt lat="45.25927" lon="6.42016">
        <ele>1114.7</ele>
        <time>2012-10-06T09:47:28Z</time>
      </trkpt>
      <trkpt lat="45.25928" lon="6.42008">
        <ele>1112.9</ele>
        <time>2012-10-06T09:47:29Z</time>
      </trkpt>
      <trkpt lat="45.2593" lon="6.42002">
        <ele>1111.6</ele>
        <time>2012-10-06T09:47:30Z</time>
      </trkpt>
      <trkpt lat="45.25934" lon="6.41992">
        <ele>1108.7</ele>
        <time>2012-10-06T09:47:32Z</time>
      </trkpt>
      <trkpt lat="45.25916" lon="6.41995">
        <ele>1102</ele>
        <time>2012-10-06T09:47:37Z</time>
      </trkpt>
      <trkpt lat="45.25908" lon="6.42002">
        <ele>1100.9</ele>
        <time>2012-10-06T09:47:39Z</time>
      </trkpt>
      <trkpt lat="45.25903" lon="6.42008">
        <ele>1099.4</ele>
        <time>2012-10-06T09:47:40Z</time>
      </trkpt>
      <trkpt lat="45.259" lon="6.42013">
        <ele>1097.9</ele>
        <time>2012-10-06T09:47:41Z</time>
      </trkpt>
      <trkpt lat="45.25896" lon="6.42022">
        <ele>1095</ele>
        <time>2012-10-06T09:47:43Z</time>
      </trkpt>
      <trkpt lat="45.25893" lon="6.4203">
        <ele>1091.7</ele>
        <time>2012-10-06T09:47:46Z</time>
      </trkpt>
      <trkpt lat="45.25889" lon="6.42037">
        <ele>1090</ele>
        <time>2012-10-06T09:47:48Z</time>
      </trkpt>
      <trkpt lat="45.25886" lon="6.42042">
        <ele>1089.4</ele>
        <time>2012-10-06T09:47:49Z</time>
      </trkpt>
      <trkpt lat="45.25882" lon="6.42048">
        <ele>1088.9</ele>
        <time>2012-10-06T09:47:50Z</time>
      </trkpt>
      <trkpt lat="45.25878" lon="6.42055">
        <ele>1088.3</ele>
        <time>2012-10-06T09:47:51Z</time>
      </trkpt>
      <trkpt lat="45.25875" lon="6.42063">
        <ele>1087.8</ele>
        <time>2012-10-06T09:47:52Z</time>
      </trkpt>
      <trkpt lat="45.25871" lon="6.42069">
        <ele>1087</ele>
        <time>2012-10-06T09:47:53Z</time>
      </trkpt>
      <trkpt lat="45.25869" lon="6.42079">
        <ele>1085.3</ele>
        <time>2012-10-06T09:47:55Z</time>
      </trkpt>
      <trkpt lat="45.25868" lon="6.42089">
        <ele>1082.8</ele>
        <time>2012-10-06T09:47:58Z</time>
      </trkpt>
      <trkpt lat="45.25865" lon="6.42094">
        <ele>1082</ele>
        <time>2012-10-06T09:47:59Z</time>
      </trkpt>
      <trkpt lat="45.25861" lon="6.421">
        <ele>1081.5</ele>
        <time>2012-10-06T09:48:00Z</time>
      </trkpt>
      <trkpt lat="45.25857" lon="6.42106">
        <ele>1081.1</ele>
        <time>2012-10-06T09:48:01Z</time>
      </trkpt>
      <trkpt lat="45.2585" lon="6.42112">
        <ele>1078.9</ele>
        <time>2012-10-06T09:48:03Z</time>
      </trkpt>
      <trkpt lat="45.25845" lon="6.42106">
        <ele>1077.4</ele>
        <time>2012-10-06T09:48:05Z</time>
      </trkpt>
      <trkpt lat="45.2584" lon="6.42096">
        <ele>1075.7</ele>
        <time>2012-10-06T09:48:07Z</time>
      </trkpt>
      <trkpt lat="45.25835" lon="6.42087">
        <ele>1073.4</ele>
        <time>2012-10-06T09:48:09Z</time>
      </trkpt>
      <trkpt lat="45.25831" lon="6.42081">
        <ele>1071.3</ele>
        <time>2012-10-06T09:48:11Z</time>
      </trkpt>
      <trkpt lat="45.25828" lon="6.42071">
        <ele>1068.9</ele>
        <time>2012-10-06T09:48:13Z</time>
      </trkpt>
      <trkpt lat="45.25826" lon="6.42059">
        <ele>1065.9</ele>
        <time>2012-10-06T09:48:15Z</time>
      </trkpt>
      <trkpt lat="45.25825" lon="6.4205">
        <ele>1063.8</ele>
        <time>2012-10-06T09:48:17Z</time>
      </trkpt>
      <trkpt lat="45.25822" lon="6.42041">
        <ele>1061.2</ele>
        <time>2012-10-06T09:48:19Z</time>
      </trkpt>
      <trkpt lat="45.2582" lon="6.42028">
        <ele>1058.2</ele>
        <time>2012-10-06T09:48:21Z</time>
      </trkpt>
      <trkpt lat="45.2582" lon="6.42021">
        <ele>1056.9</ele>
        <time>2012-10-06T09:48:22Z</time>
      </trkpt>
      <trkpt lat="45.25819" lon="6.42009">
        <ele>1054.3</ele>
        <time>2012-10-06T09:48:24Z</time>
      </trkpt>
      <trkpt lat="45.25817" lon="6.41999">
        <ele>1050.9</ele>
        <time>2012-10-06T09:48:26Z</time>
      </trkpt>
      <trkpt lat="45.25817" lon="6.4199">
        <ele>1047.4</ele>
        <time>2012-10-06T09:48:28Z</time>
      </trkpt>
      <trkpt lat="45.25818" lon="6.41978">
        <ele>1044.8</ele>
        <time>2012-10-06T09:48:30Z</time>
      </trkpt>
      <trkpt lat="45.25819" lon="6.41973">
        <ele>1043.1</ele>
        <time>2012-10-06T09:48:31Z</time>
      </trkpt>
      <trkpt lat="45.25818" lon="6.41954">
        <ele>1039.6</ele>
        <time>2012-10-06T09:48:34Z</time>
      </trkpt>
      <trkpt lat="45.25821" lon="6.41946">
        <ele>1036.7</ele>
        <time>2012-10-06T09:48:37Z</time>
      </trkpt>
      <trkpt lat="45.25823" lon="6.41935">
        <ele>1034.3</ele>
        <time>2012-10-06T09:48:40Z</time>
      </trkpt>
      <trkpt lat="45.25814" lon="6.41933">
        <ele>1032.5</ele>
        <time>2012-10-06T09:48:43Z</time>
      </trkpt>
      <trkpt lat="45.25809" lon="6.41935">
        <ele>1032</ele>
        <time>2012-10-06T09:48:44Z</time>
      </trkpt>
      <trkpt lat="45.25804" lon="6.41938">
        <ele>1031</ele>
        <time>2012-10-06T09:48:45Z</time>
      </trkpt>
      <trkpt lat="45.25791" lon="6.41951">
        <ele>1027</ele>
        <time>2012-10-06T09:48:48Z</time>
      </trkpt>
      <trkpt lat="45.25782" lon="6.41956">
        <ele>1016</ele>
        <time>2012-10-06T09:49:11Z</time>
      </trkpt>
      <trkpt lat="45.25773" lon="6.41962">
        <ele>1015</ele>
        <time>2012-10-06T09:50:14Z</time>
      </trkpt>
      <trkpt lat="45.25768" lon="6.41964">
        <ele>1015.2</ele>
        <time>2012-10-06T09:50:16Z</time>
      </trkpt>
      <trkpt lat="45.25764" lon="6.41967">
        <ele>1015</ele>
        <time>2012-10-06T09:50:17Z</time>
      </trkpt>
      <trkpt lat="45.2576" lon="6.41972">
        <ele>1014.5</ele>
        <time>2012-10-06T09:50:18Z</time>
      </trkpt>
      <trkpt lat="45.25756" lon="6.4198">
        <ele>1013.6</ele>
        <time>2012-10-06T09:50:20Z</time>
      </trkpt>
      <trkpt lat="45.25755" lon="6.4199">
        <ele>1011.9</ele>
        <time>2012-10-06T09:50:22Z</time>
      </trkpt>
      <trkpt lat="45.25752" lon="6.41999">
        <ele>1010.4</ele>
        <time>2012-10-06T09:50:24Z</time>
      </trkpt>
      <trkpt lat="45.25749" lon="6.42006">
        <ele>1010.1</ele>
        <time>2012-10-06T09:50:25Z</time>
      </trkpt>
      <trkpt lat="45.25745" lon="6.42012">
        <ele>1009.9</ele>
        <time>2012-10-06T09:50:26Z</time>
      </trkpt>
      <trkpt lat="45.25742" lon="6.42018">
        <ele>1008.8</ele>
        <time>2012-10-06T09:50:27Z</time>
      </trkpt>
      <trkpt lat="45.25739" lon="6.42025">
        <ele>1007.9</ele>
        <time>2012-10-06T09:50:28Z</time>
      </trkpt>
      <trkpt lat="45.25736" lon="6.42031">
        <ele>1007.2</ele>
        <time>2012-10-06T09:50:29Z</time>
      </trkpt>
      <trkpt lat="45.25732" lon="6.4204">
        <ele>1005.5</ele>
        <time>2012-10-06T09:50:31Z</time>
      </trkpt>
      <trkpt lat="45.25731" lon="6.42051">
        <ele>1003.1</ele>
        <time>2012-10-06T09:50:33Z</time>
      </trkpt>
      <trkpt lat="45.25733" lon="6.42063">
        <ele>1001.2</ele>
        <time>2012-10-06T09:50:35Z</time>
      </trkpt>
      <trkpt lat="45.25731" lon="6.42073">
        <ele>999.1</ele>
        <time>2012-10-06T09:50:38Z</time>
      </trkpt>
      <trkpt lat="45.25727" lon="6.4208">
        <ele>997.7</ele>
        <time>2012-10-06T09:50:40Z</time>
      </trkpt>
      <trkpt lat="45.25723" lon="6.42089">
        <ele>995.5</ele>
        <time>2012-10-06T09:50:42Z</time>
      </trkpt>
      <trkpt lat="45.25722" lon="6.42098">
        <ele>993.7</ele>
        <time>2012-10-06T09:50:44Z</time>
      </trkpt>
      <trkpt lat="45.25721" lon="6.4211">
        <ele>991.4</ele>
        <time>2012-10-06T09:50:46Z</time>
      </trkpt>
      <trkpt lat="45.25721" lon="6.4212">
        <ele>989.4</ele>
        <time>2012-10-06T09:50:48Z</time>
      </trkpt>
      <trkpt lat="45.2572" lon="6.4213">
        <ele>987.8</ele>
        <time>2012-10-06T09:50:50Z</time>
      </trkpt>
      <trkpt lat="45.2572" lon="6.42136">
        <ele>986.9</ele>
        <time>2012-10-06T09:50:51Z</time>
      </trkpt>
      <trkpt lat="45.25722" lon="6.42143">
        <ele>986.2</ele>
        <time>2012-10-06T09:50:52Z</time>
      </trkpt>
      <trkpt lat="45.25724" lon="6.42151">
        <ele>984.9</ele>
        <time>2012-10-06T09:50:53Z</time>
      </trkpt>
      <trkpt lat="45.25726" lon="6.42159">
        <ele>984</ele>
        <time>2012-10-06T09:50:54Z</time>
      </trkpt>
      <trkpt lat="45.25727" lon="6.42166">
        <ele>983.2</ele>
        <time>2012-10-06T09:50:55Z</time>
      </trkpt>
      <trkpt lat="45.25728" lon="6.42179">
        <ele>981.9</ele>
        <time>2012-10-06T09:50:57Z</time>
      </trkpt>
      <trkpt lat="45.25726" lon="6.42188">
        <ele>979.9</ele>
        <time>2012-10-06T09:50:59Z</time>
      </trkpt>
      <trkpt lat="45.25724" lon="6.42196">
        <ele>977.3</ele>
        <time>2012-10-06T09:51:01Z</time>
      </trkpt>
      <trkpt lat="45.25721" lon="6.42204">
        <ele>975.5</ele>
        <time>2012-10-06T09:51:03Z</time>
      </trkpt>
      <trkpt lat="45.25716" lon="6.4221">
        <ele>973.6</ele>
        <time>2012-10-06T09:51:05Z</time>
      </trkpt>
      <trkpt lat="45.25708" lon="6.42227">
        <ele>970</ele>
        <time>2012-10-06T09:51:09Z</time>
      </trkpt>
      <trkpt lat="45.25706" lon="6.42236">
        <ele>969.2</ele>
        <time>2012-10-06T09:51:11Z</time>
      </trkpt>
      <trkpt lat="45.25701" lon="6.42244">
        <ele>967.1</ele>
        <time>2012-10-06T09:51:13Z</time>
      </trkpt>
      <trkpt lat="45.25696" lon="6.4225">
        <ele>965.3</ele>
        <time>2012-10-06T09:51:15Z</time>
      </trkpt>
      <trkpt lat="45.25689" lon="6.42254">
        <ele>963.4</ele>
        <time>2012-10-06T09:51:17Z</time>
      </trkpt>
      <trkpt lat="45.25686" lon="6.42256">
        <ele>962.7</ele>
        <time>2012-10-06T09:51:18Z</time>
      </trkpt>
      <trkpt lat="45.25675" lon="6.42259">
        <ele>959</ele>
        <time>2012-10-06T09:51:22Z</time>
      </trkpt>
      <trkpt lat="45.25666" lon="6.42261">
        <ele>952.5</ele>
        <time>2012-10-06T09:51:39Z</time>
      </trkpt>
      <trkpt lat="45.25659" lon="6.42263">
        <ele>952.5</ele>
        <time>2012-10-06T09:52:06Z</time>
      </trkpt>
      <trkpt lat="45.25651" lon="6.42259">
        <ele>952.1</ele>
        <time>2012-10-06T09:52:09Z</time>
      </trkpt>
      <trkpt lat="45.25644" lon="6.42255">
        <ele>952.1</ele>
        <time>2012-10-06T09:52:11Z</time>
      </trkpt>
      <trkpt lat="45.25635" lon="6.4225">
        <ele>951.2</ele>
        <time>2012-10-06T09:52:13Z</time>
      </trkpt>
      <trkpt lat="45.25628" lon="6.42245">
        <ele>950.2</ele>
        <time>2012-10-06T09:52:15Z</time>
      </trkpt>
      <trkpt lat="45.25623" lon="6.42244">
        <ele>949.8</ele>
        <time>2012-10-06T09:52:16Z</time>
      </trkpt>
      <trkpt lat="45.25618" lon="6.42244">
        <ele>949.5</ele>
        <time>2012-10-06T09:52:17Z</time>
      </trkpt>
      <trkpt lat="45.25612" lon="6.42243">
        <ele>949.2</ele>
        <time>2012-10-06T09:52:18Z</time>
      </trkpt>
      <trkpt lat="45.25607" lon="6.42243">
        <ele>948.5</ele>
        <time>2012-10-06T09:52:19Z</time>
      </trkpt>
      <trkpt lat="45.25602" lon="6.42243">
        <ele>947.9</ele>
        <time>2012-10-06T09:52:20Z</time>
      </trkpt>
      <trkpt lat="45.25597" lon="6.42243">
        <ele>947.1</ele>
        <time>2012-10-06T09:52:21Z</time>
      </trkpt>
      <trkpt lat="45.25592" lon="6.42242">
        <ele>946.5</ele>
        <time>2012-10-06T09:52:22Z</time>
      </trkpt>
      <trkpt lat="45.25587" lon="6.4224">
        <ele>945.8</ele>
        <time>2012-10-06T09:52:23Z</time>
      </trkpt>
      <trkpt lat="45.25582" lon="6.42236">
        <ele>945.3</ele>
        <time>2012-10-06T09:52:24Z</time>
      </trkpt>
      <trkpt lat="45.25577" lon="6.42232">
        <ele>944.9</ele>
        <time>2012-10-06T09:52:25Z</time>
      </trkpt>
      <trkpt lat="45.25571" lon="6.42229">
        <ele>944.3</ele>
        <time>2012-10-06T09:52:26Z</time>
      </trkpt>
      <trkpt lat="45.25565" lon="6.42226">
        <ele>943.8</ele>
        <time>2012-10-06T09:52:27Z</time>
      </trkpt>
      <trkpt lat="45.25559" lon="6.42224">
        <ele>943.2</ele>
        <time>2012-10-06T09:52:28Z</time>
      </trkpt>
      <trkpt lat="45.25553" lon="6.42221">
        <ele>942.7</ele>
        <time>2012-10-06T09:52:29Z</time>
      </trkpt>
      <trkpt lat="45.25535" lon="6.42209">
        <ele>940</ele>
        <time>2012-10-06T09:52:32Z</time>
      </trkpt>
      <trkpt lat="45.25528" lon="6.42202">
        <ele>938.5</ele>
        <time>2012-10-06T09:52:35Z</time>
      </trkpt>
      <trkpt lat="45.25524" lon="6.42194">
        <ele>936.3</ele>
        <time>2012-10-06T09:52:38Z</time>
      </trkpt>
      <trkpt lat="45.25521" lon="6.42182">
        <ele>930.2</ele>
        <time>2012-10-06T09:52:51Z</time>
      </trkpt>
      <trkpt lat="45.25516" lon="6.42176">
        <ele>931.4</ele>
        <time>2012-10-06T09:54:13Z</time>
      </trkpt>
      <trkpt lat="45.25515" lon="6.42172">
        <ele>931.6</ele>
        <time>2012-10-06T09:54:14Z</time>
      </trkpt>
      <trkpt lat="45.25512" lon="6.4216">
        <ele>931.1</ele>
        <time>2012-10-06T09:54:16Z</time>
      </trkpt>
      <trkpt lat="45.2551" lon="6.42153">
        <ele>931</ele>
        <time>2012-10-06T09:54:17Z</time>
      </trkpt>
      <trkpt lat="45.25507" lon="6.42145">
        <ele>930.9</ele>
        <time>2012-10-06T09:54:18Z</time>
      </trkpt>
      <trkpt lat="45.25505" lon="6.42137">
        <ele>930.8</ele>
        <time>2012-10-06T09:54:19Z</time>
      </trkpt>
      <trkpt lat="45.25503" lon="6.42129">
        <ele>930.3</ele>
        <time>2012-10-06T09:54:20Z</time>
      </trkpt>
      <trkpt lat="45.25501" lon="6.4212">
        <ele>930</ele>
        <time>2012-10-06T09:54:21Z</time>
      </trkpt>
      <trkpt lat="45.25499" lon="6.42111">
        <ele>929</ele>
        <time>2012-10-06T09:54:22Z</time>
      </trkpt>
      <trkpt lat="45.25497" lon="6.42101">
        <ele>928.3</ele>
        <time>2012-10-06T09:54:23Z</time>
      </trkpt>
      <trkpt lat="45.25496" lon="6.42091">
        <ele>927.4</ele>
        <time>2012-10-06T09:54:24Z</time>
      </trkpt>
      <trkpt lat="45.25495" lon="6.4208">
        <ele>926.8</ele>
        <time>2012-10-06T09:54:25Z</time>
      </trkpt>
      <trkpt lat="45.25493" lon="6.4207">
        <ele>926.3</ele>
        <time>2012-10-06T09:54:26Z</time>
      </trkpt>
      <trkpt lat="45.25492" lon="6.4206">
        <ele>925</ele>
        <time>2012-10-06T09:54:27Z</time>
      </trkpt>
      <trkpt lat="45.25489" lon="6.4205">
        <ele>924.1</ele>
        <time>2012-10-06T09:54:28Z</time>
      </trkpt>
      <trkpt lat="45.25487" lon="6.4204">
        <ele>922.8</ele>
        <time>2012-10-06T09:54:29Z</time>
      </trkpt>
      <trkpt lat="45.25484" lon="6.4203">
        <ele>921.8</ele>
        <time>2012-10-06T09:54:30Z</time>
      </trkpt>
      <trkpt lat="45.25482" lon="6.4202">
        <ele>921.1</ele>
        <time>2012-10-06T09:54:31Z</time>
      </trkpt>
      <trkpt lat="45.2548" lon="6.4201">
        <ele>919.7</ele>
        <time>2012-10-06T09:54:32Z</time>
      </trkpt>
      <trkpt lat="45.25479" lon="6.42001">
        <ele>918.7</ele>
        <time>2012-10-06T09:54:33Z</time>
      </trkpt>
      <trkpt lat="45.25478" lon="6.41994">
        <ele>917</ele>
        <time>2012-10-06T09:54:34Z</time>
      </trkpt>
      <trkpt lat="45.25478" lon="6.41983">
        <ele>914.6</ele>
        <time>2012-10-06T09:54:36Z</time>
      </trkpt>
      <trkpt lat="45.25477" lon="6.41974">
        <ele>913</ele>
        <time>2012-10-06T09:54:38Z</time>
      </trkpt>
      <trkpt lat="45.25475" lon="6.41966">
        <ele>911.7</ele>
        <time>2012-10-06T09:54:40Z</time>
      </trkpt>
      <trkpt lat="45.25469" lon="6.41958">
        <ele>910.4</ele>
        <time>2012-10-06T09:54:42Z</time>
      </trkpt>
      <trkpt lat="45.25466" lon="6.4195">
        <ele>908.2</ele>
        <time>2012-10-06T09:54:47Z</time>
      </trkpt>
      <trkpt lat="45.25463" lon="6.41938">
        <ele>906.4</ele>
        <time>2012-10-06T09:54:50Z</time>
      </trkpt>
      <trkpt lat="45.25459" lon="6.4193">
        <ele>905.9</ele>
        <time>2012-10-06T09:54:52Z</time>
      </trkpt>
      <trkpt lat="45.25455" lon="6.41925">
        <ele>905.4</ele>
        <time>2012-10-06T09:54:53Z</time>
      </trkpt>
      <trkpt lat="45.25452" lon="6.41921">
        <ele>905</ele>
        <time>2012-10-06T09:54:54Z</time>
      </trkpt>
      <trkpt lat="45.25448" lon="6.41915">
        <ele>904.3</ele>
        <time>2012-10-06T09:54:55Z</time>
      </trkpt>
      <trkpt lat="45.25444" lon="6.41908">
        <ele>903.9</ele>
        <time>2012-10-06T09:54:56Z</time>
      </trkpt>
      <trkpt lat="45.25441" lon="6.419">
        <ele>903.5</ele>
        <time>2012-10-06T09:54:57Z</time>
      </trkpt>
      <trkpt lat="45.25438" lon="6.41891">
        <ele>902.9</ele>
        <time>2012-10-06T09:54:58Z</time>
      </trkpt>
      <trkpt lat="45.25435" lon="6.41881">
        <ele>902.4</ele>
        <time>2012-10-06T09:54:59Z</time>
      </trkpt>
      <trkpt lat="45.25433" lon="6.41872">
        <ele>901.2</ele>
        <time>2012-10-06T09:55:00Z</time>
      </trkpt>
      <trkpt lat="45.2543" lon="6.41861">
        <ele>899.3</ele>
        <time>2012-10-06T09:55:02Z</time>
      </trkpt>
      <trkpt lat="45.25426" lon="6.41853">
        <ele>893</ele>
        <time>2012-10-06T09:55:13Z</time>
      </trkpt>
      <trkpt lat="45.25421" lon="6.41842">
        <ele>893</ele>
        <time>2012-10-06T09:55:16Z</time>
      </trkpt>
      <trkpt lat="45.25419" lon="6.41837">
        <ele>892.7</ele>
        <time>2012-10-06T09:55:17Z</time>
      </trkpt>
      <trkpt lat="45.25411" lon="6.41823">
        <ele>891.7</ele>
        <time>2012-10-06T09:55:20Z</time>
      </trkpt>
      <trkpt lat="45.25406" lon="6.41816">
        <ele>891</ele>
        <time>2012-10-06T09:55:22Z</time>
      </trkpt>
      <trkpt lat="45.25405" lon="6.41807">
        <ele>890</ele>
        <time>2012-10-06T09:55:24Z</time>
      </trkpt>
      <trkpt lat="45.25405" lon="6.41799">
        <ele>889.4</ele>
        <time>2012-10-06T09:55:25Z</time>
      </trkpt>
      <trkpt lat="45.25406" lon="6.41791">
        <ele>888.8</ele>
        <time>2012-10-06T09:55:26Z</time>
      </trkpt>
      <trkpt lat="45.25408" lon="6.41783">
        <ele>888.4</ele>
        <time>2012-10-06T09:55:27Z</time>
      </trkpt>
      <trkpt lat="45.25409" lon="6.41776">
        <ele>888.1</ele>
        <time>2012-10-06T09:55:28Z</time>
      </trkpt>
      <trkpt lat="45.2541" lon="6.41768">
        <ele>887.2</ele>
        <time>2012-10-06T09:55:29Z</time>
      </trkpt>
      <trkpt lat="45.25409" lon="6.41762">
        <ele>886.5</ele>
        <time>2012-10-06T09:55:30Z</time>
      </trkpt>
      <trkpt lat="45.25409" lon="6.41754">
        <ele>885.9</ele>
        <time>2012-10-06T09:55:31Z</time>
      </trkpt>
      <trkpt lat="45.25408" lon="6.41747">
        <ele>885.5</ele>
        <time>2012-10-06T09:55:32Z</time>
      </trkpt>
      <trkpt lat="45.25407" lon="6.41739">
        <ele>884.7</ele>
        <time>2012-10-06T09:55:33Z</time>
      </trkpt>
      <trkpt lat="45.25407" lon="6.4173">
        <ele>884.1</ele>
        <time>2012-10-06T09:55:34Z</time>
      </trkpt>
      <trkpt lat="45.25408" lon="6.41722">
        <ele>883.6</ele>
        <time>2012-10-06T09:55:35Z</time>
      </trkpt>
      <trkpt lat="45.25412" lon="6.41714">
        <ele>883.2</ele>
        <time>2012-10-06T09:55:36Z</time>
      </trkpt>
      <trkpt lat="45.25417" lon="6.41707">
        <ele>882.9</ele>
        <time>2012-10-06T09:55:37Z</time>
      </trkpt>
      <trkpt lat="45.25423" lon="6.417">
        <ele>882.3</ele>
        <time>2012-10-06T09:55:38Z</time>
      </trkpt>
      <trkpt lat="45.25429" lon="6.41694">
        <ele>881.9</ele>
        <time>2012-10-06T09:55:39Z</time>
      </trkpt>
      <trkpt lat="45.25435" lon="6.41688">
        <ele>880.8</ele>
        <time>2012-10-06T09:55:40Z</time>
      </trkpt>
      <trkpt lat="45.25442" lon="6.41683">
        <ele>880.1</ele>
        <time>2012-10-06T09:55:41Z</time>
      </trkpt>
      <trkpt lat="45.25447" lon="6.41677">
        <ele>879.5</ele>
        <time>2012-10-06T09:55:42Z</time>
      </trkpt>
      <trkpt lat="45.25453" lon="6.41672">
        <ele>879</ele>
        <time>2012-10-06T09:55:43Z</time>
      </trkpt>
      <trkpt lat="45.25459" lon="6.41666">
        <ele>878.6</ele>
        <time>2012-10-06T09:55:44Z</time>
      </trkpt>
      <trkpt lat="45.25463" lon="6.41659">
        <ele>878.1</ele>
        <time>2012-10-06T09:55:45Z</time>
      </trkpt>
      <trkpt lat="45.25466" lon="6.41651">
        <ele>877.7</ele>
        <time>2012-10-06T09:55:46Z</time>
      </trkpt>
      <trkpt lat="45.25467" lon="6.41641">
        <ele>877.1</ele>
        <time>2012-10-06T09:55:47Z</time>
      </trkpt>
      <trkpt lat="45.25466" lon="6.41632">
        <ele>876.7</ele>
        <time>2012-10-06T09:55:48Z</time>
      </trkpt>
      <trkpt lat="45.25463" lon="6.41625">
        <ele>876.3</ele>
        <time>2012-10-06T09:55:49Z</time>
      </trkpt>
      <trkpt lat="45.25459" lon="6.41619">
        <ele>875.6</ele>
        <time>2012-10-06T09:55:50Z</time>
      </trkpt>
      <trkpt lat="45.25454" lon="6.41614">
        <ele>875</ele>
        <time>2012-10-06T09:55:51Z</time>
      </trkpt>
      <trkpt lat="45.25449" lon="6.41609">
        <ele>874.3</ele>
        <time>2012-10-06T09:55:52Z</time>
      </trkpt>
      <trkpt lat="45.25444" lon="6.41605">
        <ele>873.8</ele>
        <time>2012-10-06T09:55:53Z</time>
      </trkpt>
      <trkpt lat="45.25439" lon="6.41599">
        <ele>873.4</ele>
        <time>2012-10-06T09:55:54Z</time>
      </trkpt>
      <trkpt lat="45.25433" lon="6.41593">
        <ele>872.5</ele>
        <time>2012-10-06T09:55:55Z</time>
      </trkpt>
      <trkpt lat="45.25429" lon="6.41586">
        <ele>871.8</ele>
        <time>2012-10-06T09:55:56Z</time>
      </trkpt>
      <trkpt lat="45.25425" lon="6.41578">
        <ele>871.4</ele>
        <time>2012-10-06T09:55:57Z</time>
      </trkpt>
      <trkpt lat="45.25424" lon="6.4157">
        <ele>871.2</ele>
        <time>2012-10-06T09:55:58Z</time>
      </trkpt>
      <trkpt lat="45.25424" lon="6.4156">
        <ele>870.4</ele>
        <time>2012-10-06T09:55:59Z</time>
      </trkpt>
      <trkpt lat="45.25427" lon="6.41551">
        <ele>869.9</ele>
        <time>2012-10-06T09:56:00Z</time>
      </trkpt>
      <trkpt lat="45.25432" lon="6.41543">
        <ele>869.4</ele>
        <time>2012-10-06T09:56:01Z</time>
      </trkpt>
      <trkpt lat="45.25436" lon="6.41534">
        <ele>868.5</ele>
        <time>2012-10-06T09:56:02Z</time>
      </trkpt>
      <trkpt lat="45.25441" lon="6.41525">
        <ele>867.7</ele>
        <time>2012-10-06T09:56:03Z</time>
      </trkpt>
      <trkpt lat="45.25446" lon="6.41516">
        <ele>866.9</ele>
        <time>2012-10-06T09:56:04Z</time>
      </trkpt>
      <trkpt lat="45.25451" lon="6.41506">
        <ele>866.3</ele>
        <time>2012-10-06T09:56:05Z</time>
      </trkpt>
      <trkpt lat="45.25455" lon="6.41497">
        <ele>865.8</ele>
        <time>2012-10-06T09:56:06Z</time>
      </trkpt>
      <trkpt lat="45.2546" lon="6.41487">
        <ele>865.1</ele>
        <time>2012-10-06T09:56:07Z</time>
      </trkpt>
      <trkpt lat="45.25466" lon="6.41478">
        <ele>864.6</ele>
        <time>2012-10-06T09:56:08Z</time>
      </trkpt>
      <trkpt lat="45.25471" lon="6.41468">
        <ele>863.7</ele>
        <time>2012-10-06T09:56:09Z</time>
      </trkpt>
      <trkpt lat="45.25476" lon="6.41459">
        <ele>863</ele>
        <time>2012-10-06T09:56:10Z</time>
      </trkpt>
      <trkpt lat="45.25481" lon="6.4145">
        <ele>861.9</ele>
        <time>2012-10-06T09:56:11Z</time>
      </trkpt>
      <trkpt lat="45.25485" lon="6.4144">
        <ele>861</ele>
        <time>2012-10-06T09:56:12Z</time>
      </trkpt>
      <trkpt lat="45.25489" lon="6.41431">
        <ele>860.4</ele>
        <time>2012-10-06T09:56:13Z</time>
      </trkpt>
      <trkpt lat="45.25492" lon="6.41421">
        <ele>859.3</ele>
        <time>2012-10-06T09:56:14Z</time>
      </trkpt>
      <trkpt lat="45.25496" lon="6.41412">
        <ele>858.6</ele>
        <time>2012-10-06T09:56:15Z</time>
      </trkpt>
      <trkpt lat="45.25499" lon="6.41403">
        <ele>857.6</ele>
        <time>2012-10-06T09:56:16Z</time>
      </trkpt>
      <trkpt lat="45.25501" lon="6.41393">
        <ele>856.8</ele>
        <time>2012-10-06T09:56:17Z</time>
      </trkpt>
      <trkpt lat="45.25504" lon="6.41384">
        <ele>856</ele>
        <time>2012-10-06T09:56:18Z</time>
      </trkpt>
      <trkpt lat="45.25507" lon="6.41375">
        <ele>855.4</ele>
        <time>2012-10-06T09:56:19Z</time>
      </trkpt>
      <trkpt lat="45.25511" lon="6.41367">
        <ele>855</ele>
        <time>2012-10-06T09:56:20Z</time>
      </trkpt>
      <trkpt lat="45.25515" lon="6.4136">
        <ele>854.1</ele>
        <time>2012-10-06T09:56:21Z</time>
      </trkpt>
      <trkpt lat="45.25521" lon="6.41353">
        <ele>853.4</ele>
        <time>2012-10-06T09:56:22Z</time>
      </trkpt>
      <trkpt lat="45.25526" lon="6.41347">
        <ele>852.7</ele>
        <time>2012-10-06T09:56:23Z</time>
      </trkpt>
      <trkpt lat="45.25532" lon="6.41341">
        <ele>852.2</ele>
        <time>2012-10-06T09:56:24Z</time>
      </trkpt>
      <trkpt lat="45.25538" lon="6.41335">
        <ele>851.1</ele>
        <time>2012-10-06T09:56:25Z</time>
      </trkpt>
      <trkpt lat="45.25543" lon="6.41328">
        <ele>850.3</ele>
        <time>2012-10-06T09:56:26Z</time>
      </trkpt>
      <trkpt lat="45.25547" lon="6.4132">
        <ele>849.7</ele>
        <time>2012-10-06T09:56:27Z</time>
      </trkpt>
      <trkpt lat="45.25549" lon="6.4131">
        <ele>849.1</ele>
        <time>2012-10-06T09:56:28Z</time>
      </trkpt>
      <trkpt lat="45.2555" lon="6.413">
        <ele>848.7</ele>
        <time>2012-10-06T09:56:29Z</time>
      </trkpt>
      <trkpt lat="45.25551" lon="6.41291">
        <ele>847.6</ele>
        <time>2012-10-06T09:56:30Z</time>
      </trkpt>
      <trkpt lat="45.25553" lon="6.41282">
        <ele>846.9</ele>
        <time>2012-10-06T09:56:31Z</time>
      </trkpt>
      <trkpt lat="45.25557" lon="6.41275">
        <ele>846.3</ele>
        <time>2012-10-06T09:56:32Z</time>
      </trkpt>
      <trkpt lat="45.2556" lon="6.41269">
        <ele>845.5</ele>
        <time>2012-10-06T09:56:33Z</time>
      </trkpt>
      <trkpt lat="45.25559" lon="6.41257">
        <ele>844.2</ele>
        <time>2012-10-06T09:56:35Z</time>
      </trkpt>
      <trkpt lat="45.2555" lon="6.41253">
        <ele>843.1</ele>
        <time>2012-10-06T09:56:38Z</time>
      </trkpt>
      <trkpt lat="45.25546" lon="6.41243">
        <ele>841.8</ele>
        <time>2012-10-06T09:56:42Z</time>
      </trkpt>
      <trkpt lat="45.25546" lon="6.41233">
        <ele>840.9</ele>
        <time>2012-10-06T09:56:44Z</time>
      </trkpt>
      <trkpt lat="45.25549" lon="6.41222">
        <ele>839.4</ele>
        <time>2012-10-06T09:56:47Z</time>
      </trkpt>
      <trkpt lat="45.25551" lon="6.41212">
        <ele>838.4</ele>
        <time>2012-10-06T09:56:49Z</time>
      </trkpt>
      <trkpt lat="45.25552" lon="6.41199">
        <ele>837.7</ele>
        <time>2012-10-06T09:56:51Z</time>
      </trkpt>
      <trkpt lat="45.25551" lon="6.41193">
        <ele>837.6</ele>
        <time>2012-10-06T09:56:52Z</time>
      </trkpt>
      <trkpt lat="45.25549" lon="6.41186">
        <ele>837.6</ele>
        <time>2012-10-06T09:56:53Z</time>
      </trkpt>
      <trkpt lat="45.25548" lon="6.4118">
        <ele>836.9</ele>
        <time>2012-10-06T09:56:54Z</time>
      </trkpt>
      <trkpt lat="45.25546" lon="6.41173">
        <ele>836.4</ele>
        <time>2012-10-06T09:56:55Z</time>
      </trkpt>
      <trkpt lat="45.25546" lon="6.41166">
        <ele>835.7</ele>
        <time>2012-10-06T09:56:56Z</time>
      </trkpt>
      <trkpt lat="45.25545" lon="6.41158">
        <ele>835.1</ele>
        <time>2012-10-06T09:56:57Z</time>
      </trkpt>
      <trkpt lat="45.25544" lon="6.41149">
        <ele>834.7</ele>
        <time>2012-10-06T09:56:58Z</time>
      </trkpt>
      <trkpt lat="45.25543" lon="6.41141">
        <ele>834.3</ele>
        <time>2012-10-06T09:56:59Z</time>
      </trkpt>
      <trkpt lat="45.2554" lon="6.41132">
        <ele>833.9</ele>
        <time>2012-10-06T09:57:00Z</time>
      </trkpt>
      <trkpt lat="45.25537" lon="6.41124">
        <ele>833.2</ele>
        <time>2012-10-06T09:57:01Z</time>
      </trkpt>
      <trkpt lat="45.25535" lon="6.41115">
        <ele>832.7</ele>
        <time>2012-10-06T09:57:02Z</time>
      </trkpt>
      <trkpt lat="45.25533" lon="6.41105">
        <ele>832.2</ele>
        <time>2012-10-06T09:57:03Z</time>
      </trkpt>
      <trkpt lat="45.25531" lon="6.41096">
        <ele>831.8</ele>
        <time>2012-10-06T09:57:04Z</time>
      </trkpt>
      <trkpt lat="45.2553" lon="6.41087">
        <ele>831.5</ele>
        <time>2012-10-06T09:57:05Z</time>
      </trkpt>
      <trkpt lat="45.2553" lon="6.41077">
        <ele>830.7</ele>
        <time>2012-10-06T09:57:06Z</time>
      </trkpt>
      <trkpt lat="45.25531" lon="6.41067">
        <ele>830.1</ele>
        <time>2012-10-06T09:57:07Z</time>
      </trkpt>
      <trkpt lat="45.25533" lon="6.41058">
        <ele>829.5</ele>
        <time>2012-10-06T09:57:08Z</time>
      </trkpt>
      <trkpt lat="45.25534" lon="6.41048">
        <ele>829.1</ele>
        <time>2012-10-06T09:57:09Z</time>
      </trkpt>
      <trkpt lat="45.25535" lon="6.41037">
        <ele>828.8</ele>
        <time>2012-10-06T09:57:10Z</time>
      </trkpt>
      <trkpt lat="45.25535" lon="6.41027">
        <ele>828.2</ele>
        <time>2012-10-06T09:57:11Z</time>
      </trkpt>
      <trkpt lat="45.25535" lon="6.41015">
        <ele>827.8</ele>
        <time>2012-10-06T09:57:12Z</time>
      </trkpt>
      <trkpt lat="45.25535" lon="6.41004">
        <ele>827</ele>
        <time>2012-10-06T09:57:13Z</time>
      </trkpt>
      <trkpt lat="45.25535" lon="6.40993">
        <ele>826.5</ele>
        <time>2012-10-06T09:57:14Z</time>
      </trkpt>
      <trkpt lat="45.25536" lon="6.40982">
        <ele>825.7</ele>
        <time>2012-10-06T09:57:15Z</time>
      </trkpt>
      <trkpt lat="45.25536" lon="6.40972">
        <ele>825.2</ele>
        <time>2012-10-06T09:57:16Z</time>
      </trkpt>
      <trkpt lat="45.25535" lon="6.40961">
        <ele>824.7</ele>
        <time>2012-10-06T09:57:17Z</time>
      </trkpt>
      <trkpt lat="45.25535" lon="6.4095">
        <ele>824</ele>
        <time>2012-10-06T09:57:18Z</time>
      </trkpt>
      <trkpt lat="45.25534" lon="6.4094">
        <ele>823.5</ele>
        <time>2012-10-06T09:57:19Z</time>
      </trkpt>
      <trkpt lat="45.25534" lon="6.4093">
        <ele>822.6</ele>
        <time>2012-10-06T09:57:20Z</time>
      </trkpt>
      <trkpt lat="45.25535" lon="6.40919">
        <ele>821.9</ele>
        <time>2012-10-06T09:57:21Z</time>
      </trkpt>
      <trkpt lat="45.25537" lon="6.40909">
        <ele>821</ele>
        <time>2012-10-06T09:57:22Z</time>
      </trkpt>
      <trkpt lat="45.2554" lon="6.40899">
        <ele>820.3</ele>
        <time>2012-10-06T09:57:23Z</time>
      </trkpt>
      <trkpt lat="45.25542" lon="6.40889">
        <ele>819.9</ele>
        <time>2012-10-06T09:57:24Z</time>
      </trkpt>
      <trkpt lat="45.25545" lon="6.40879">
        <ele>819.3</ele>
        <time>2012-10-06T09:57:25Z</time>
      </trkpt>
      <trkpt lat="45.25547" lon="6.40869">
        <ele>818.9</ele>
        <time>2012-10-06T09:57:26Z</time>
      </trkpt>
      <trkpt lat="45.2555" lon="6.40858">
        <ele>818.4</ele>
        <time>2012-10-06T09:57:27Z</time>
      </trkpt>
      <trkpt lat="45.25552" lon="6.40848">
        <ele>818</ele>
        <time>2012-10-06T09:57:28Z</time>
      </trkpt>
      <trkpt lat="45.25554" lon="6.40837">
        <ele>817.7</ele>
        <time>2012-10-06T09:57:29Z</time>
      </trkpt>
      <trkpt lat="45.25556" lon="6.40828">
        <ele>817.5</ele>
        <time>2012-10-06T09:57:30Z</time>
      </trkpt>
      <trkpt lat="45.25559" lon="6.40818">
        <ele>817.4</ele>
        <time>2012-10-06T09:57:31Z</time>
      </trkpt>
      <trkpt lat="45.25563" lon="6.40809">
        <ele>816.7</ele>
        <time>2012-10-06T09:57:32Z</time>
      </trkpt>
      <trkpt lat="45.25566" lon="6.408">
        <ele>816.3</ele>
        <time>2012-10-06T09:57:33Z</time>
      </trkpt>
      <trkpt lat="45.2557" lon="6.40791">
        <ele>815.8</ele>
        <time>2012-10-06T09:57:34Z</time>
      </trkpt>
      <trkpt lat="45.25576" lon="6.40784">
        <ele>815.4</ele>
        <time>2012-10-06T09:57:35Z</time>
      </trkpt>
      <trkpt lat="45.25581" lon="6.4078">
        <ele>815.1</ele>
        <time>2012-10-06T09:57:36Z</time>
      </trkpt>
      <trkpt lat="45.25587" lon="6.40778">
        <ele>814.8</ele>
        <time>2012-10-06T09:57:37Z</time>
      </trkpt>
      <trkpt lat="45.25593" lon="6.40776">
        <ele>814.6</ele>
        <time>2012-10-06T09:57:38Z</time>
      </trkpt>
      <trkpt lat="45.25599" lon="6.40775">
        <ele>814.4</ele>
        <time>2012-10-06T09:57:39Z</time>
      </trkpt>
      <trkpt lat="45.25605" lon="6.40774">
        <ele>814.3</ele>
        <time>2012-10-06T09:57:40Z</time>
      </trkpt>
      <trkpt lat="45.25611" lon="6.40773">
        <ele>814.2</ele>
        <time>2012-10-06T09:57:41Z</time>
      </trkpt>
      <trkpt lat="45.25616" lon="6.40773">
        <ele>814.1</ele>
        <time>2012-10-06T09:57:42Z</time>
      </trkpt>
      <trkpt lat="45.25622" lon="6.40772">
        <ele>814.1</ele>
        <time>2012-10-06T09:57:43Z</time>
      </trkpt>
      <trkpt lat="45.25627" lon="6.40771">
        <ele>814.2</ele>
        <time>2012-10-06T09:57:44Z</time>
      </trkpt>
      <trkpt lat="45.25632" lon="6.4077">
        <ele>814.3</ele>
        <time>2012-10-06T09:57:45Z</time>
      </trkpt>
      <trkpt lat="45.25637" lon="6.4077">
        <ele>814.2</ele>
        <time>2012-10-06T09:57:46Z</time>
      </trkpt>
      <trkpt lat="45.25642" lon="6.40769">
        <ele>814.1</ele>
        <time>2012-10-06T09:57:47Z</time>
      </trkpt>
      <trkpt lat="45.25647" lon="6.40769">
        <ele>814.1</ele>
        <time>2012-10-06T09:57:48Z</time>
      </trkpt>
      <trkpt lat="45.25652" lon="6.40769">
        <ele>814.1</ele>
        <time>2012-10-06T09:57:49Z</time>
      </trkpt>
      <trkpt lat="45.2566" lon="6.40767">
        <ele>814.2</ele>
        <time>2012-10-06T09:57:51Z</time>
      </trkpt>
      <trkpt lat="45.25668" lon="6.40762">
        <ele>814.9</ele>
        <time>2012-10-06T09:57:53Z</time>
      </trkpt>
      <trkpt lat="45.25673" lon="6.40754">
        <ele>815.8</ele>
        <time>2012-10-06T09:57:55Z</time>
      </trkpt>
      <trkpt lat="45.25676" lon="6.40745">
        <ele>816.4</ele>
        <time>2012-10-06T09:57:57Z</time>
      </trkpt>
      <trkpt lat="45.25677" lon="6.40736">
        <ele>816.4</ele>
        <time>2012-10-06T09:57:59Z</time>
      </trkpt>
      <trkpt lat="45.25677" lon="6.40728">
        <ele>816.7</ele>
        <time>2012-10-06T09:58:01Z</time>
      </trkpt>
      <trkpt lat="45.25678" lon="6.40716">
        <ele>817.1</ele>
        <time>2012-10-06T09:58:04Z</time>
      </trkpt>
      <trkpt lat="45.25677" lon="6.40704">
        <ele>816.8</ele>
        <time>2012-10-06T09:58:07Z</time>
      </trkpt>
      <trkpt lat="45.25677" lon="6.40692">
        <ele>818.3</ele>
        <time>2012-10-06T09:58:10Z</time>
      </trkpt>
      <trkpt lat="45.25677" lon="6.40681">
        <ele>818.5</ele>
        <time>2012-10-06T09:58:13Z</time>
      </trkpt>
      <trkpt lat="45.25677" lon="6.4067">
        <ele>818.9</ele>
        <time>2012-10-06T09:58:16Z</time>
      </trkpt>
      <trkpt lat="45.25678" lon="6.40659">
        <ele>819.9</ele>
        <time>2012-10-06T09:58:19Z</time>
      </trkpt>
      <trkpt lat="45.25678" lon="6.40656">
        <ele>820.2</ele>
        <time>2012-10-06T09:58:20Z</time>
      </trkpt>
      <trkpt lat="45.25677" lon="6.40639">
        <ele>821.4</ele>
        <time>2012-10-06T09:58:25Z</time>
      </trkpt>
      <trkpt lat="45.25676" lon="6.40629">
        <ele>821.6</ele>
        <time>2012-10-06T09:58:28Z</time>
      </trkpt>
      <trkpt lat="45.25674" lon="6.4062">
        <ele>822.6</ele>
        <time>2012-10-06T09:58:31Z</time>
      </trkpt>
      <trkpt lat="45.25672" lon="6.40611">
        <ele>822.8</ele>
        <time>2012-10-06T09:58:34Z</time>
      </trkpt>
      <trkpt lat="45.25671" lon="6.40598">
        <ele>823.8</ele>
        <time>2012-10-06T09:58:38Z</time>
      </trkpt>
      <trkpt lat="45.25672" lon="6.40586">
        <ele>824.6</ele>
        <time>2012-10-06T09:58:42Z</time>
      </trkpt>
      <trkpt lat="45.25675" lon="6.40576">
        <ele>825.1</ele>
        <time>2012-10-06T09:58:45Z</time>
      </trkpt>
      <trkpt lat="45.25678" lon="6.40567">
        <ele>825.7</ele>
        <time>2012-10-06T09:58:48Z</time>
      </trkpt>
      <trkpt lat="45.25681" lon="6.40558">
        <ele>826.2</ele>
        <time>2012-10-06T09:58:51Z</time>
      </trkpt>
      <trkpt lat="45.25685" lon="6.40549">
        <ele>826.6</ele>
        <time>2012-10-06T09:58:54Z</time>
      </trkpt>
      <trkpt lat="45.2569" lon="6.40541">
        <ele>827.1</ele>
        <time>2012-10-06T09:58:57Z</time>
      </trkpt>
      <trkpt lat="45.25695" lon="6.40533">
        <ele>827.2</ele>
        <time>2012-10-06T09:59:00Z</time>
      </trkpt>
      <trkpt lat="45.25697" lon="6.40522">
        <ele>827.1</ele>
        <time>2012-10-06T09:59:03Z</time>
      </trkpt>
      <trkpt lat="45.25698" lon="6.40511">
        <ele>827.9</ele>
        <time>2012-10-06T09:59:06Z</time>
      </trkpt>
      <trkpt lat="45.25698" lon="6.40499">
        <ele>828.5</ele>
        <time>2012-10-06T09:59:09Z</time>
      </trkpt>
      <trkpt lat="45.25698" lon="6.40488">
        <ele>829</ele>
        <time>2012-10-06T09:59:12Z</time>
      </trkpt>
      <trkpt lat="45.25698" lon="6.40477">
        <ele>829.3</ele>
        <time>2012-10-06T09:59:15Z</time>
      </trkpt>
      <trkpt lat="45.25697" lon="6.40466">
        <ele>830.1</ele>
        <time>2012-10-06T09:59:18Z</time>
      </trkpt>
      <trkpt lat="45.25699" lon="6.40454">
        <ele>830</ele>
        <time>2012-10-06T09:59:23Z</time>
      </trkpt>
      <trkpt lat="45.257" lon="6.40453">
        <ele>829.9</ele>
        <time>2012-10-06T09:59:24Z</time>
      </trkpt>
      <trkpt lat="45.25697" lon="6.40431">
        <ele>831.2</ele>
        <time>2012-10-06T09:59:34Z</time>
      </trkpt>
      <trkpt lat="45.25697" lon="6.40421">
        <ele>831.4</ele>
        <time>2012-10-06T09:59:37Z</time>
      </trkpt>
      <trkpt lat="45.25699" lon="6.4041">
        <ele>831.7</ele>
        <time>2012-10-06T09:59:40Z</time>
      </trkpt>
      <trkpt lat="45.25702" lon="6.40401">
        <ele>832.3</ele>
        <time>2012-10-06T09:59:43Z</time>
      </trkpt>
      <trkpt lat="45.25704" lon="6.40391">
        <ele>833.1</ele>
        <time>2012-10-06T09:59:46Z</time>
      </trkpt>
      <trkpt lat="45.25707" lon="6.40381">
        <ele>833.9</ele>
        <time>2012-10-06T09:59:49Z</time>
      </trkpt>
      <trkpt lat="45.2571" lon="6.40371">
        <ele>834.4</ele>
        <time>2012-10-06T09:59:52Z</time>
      </trkpt>
      <trkpt lat="45.25712" lon="6.40361">
        <ele>834.8</ele>
        <time>2012-10-06T09:59:55Z</time>
      </trkpt>
      <trkpt lat="45.25714" lon="6.40352">
        <ele>835.5</ele>
        <time>2012-10-06T09:59:58Z</time>
      </trkpt>
      <trkpt lat="45.25717" lon="6.40341">
        <ele>835.7</ele>
        <time>2012-10-06T10:00:01Z</time>
      </trkpt>
      <trkpt lat="45.25719" lon="6.4033">
        <ele>835.9</ele>
        <time>2012-10-06T10:00:04Z</time>
      </trkpt>
      <trkpt lat="45.25722" lon="6.40319">
        <ele>836.7</ele>
        <time>2012-10-06T10:00:07Z</time>
      </trkpt>
      <trkpt lat="45.25724" lon="6.40308">
        <ele>837.9</ele>
        <time>2012-10-06T10:00:10Z</time>
      </trkpt>
      <trkpt lat="45.25725" lon="6.40297">
        <ele>838.4</ele>
        <time>2012-10-06T10:00:13Z</time>
      </trkpt>
      <trkpt lat="45.25727" lon="6.40285">
        <ele>838.8</ele>
        <time>2012-10-06T10:00:16Z</time>
      </trkpt>
      <trkpt lat="45.25727" lon="6.40273">
        <ele>838.7</ele>
        <time>2012-10-06T10:00:19Z</time>
      </trkpt>
      <trkpt lat="45.25726" lon="6.40262">
        <ele>839.2</ele>
        <time>2012-10-06T10:00:22Z</time>
      </trkpt>
      <trkpt lat="45.25727" lon="6.4025">
        <ele>839.1</ele>
        <time>2012-10-06T10:00:25Z</time>
      </trkpt>
      <trkpt lat="45.25727" lon="6.40247">
        <ele>839</ele>
        <time>2012-10-06T10:00:26Z</time>
      </trkpt>
      <trkpt lat="45.25732" lon="6.40231">
        <ele>839</ele>
        <time>2012-10-06T10:00:33Z</time>
      </trkpt>
    </trkseg>
  </trk>
</gpx>